<?xml version="1.0" encoding="UTF-8" standalone="no" ?>
<gpx xmlns="http://www.topografix.com/GPX/1/1" xmlns:xsi="http://www.w3.org/2001/XMLSchema-instance" xsi:schemaLocation="http://www.topografix.com/GPX/1/1 http://www.topografix.com/GPX/1/1/gpx.xsd" version="1.1" creator="VisuGPX - https://www.visugpx.com">
  <metadata>
    <name>2016/06/03 tandem(bleu LB): La Broque -&gt; Molsheim</name>
    <desc><![CDATA[Dernière matinée très touristique]]></desc>
  </metadata>
  <trk>
    <name><![CDATA[tandem (bleu+LB) TAS 6 matin: La Broque -> Molsheim]]></name>
    <trkseg>
      <trkpt lat="48.46128" lon="7.20526">
        <ele>339.3</ele>
        <time>2016-06-03T06:28:26Z</time>
      </trkpt>
      <trkpt lat="48.46147" lon="7.20519">
        <ele>338.9</ele>
        <time>2016-06-03T06:28:33Z</time>
      </trkpt>
      <trkpt lat="48.46167" lon="7.20512">
        <ele>338.1</ele>
        <time>2016-06-03T06:28:39Z</time>
      </trkpt>
      <trkpt lat="48.46184" lon="7.20501">
        <ele>337.7</ele>
        <time>2016-06-03T06:28:44Z</time>
      </trkpt>
      <trkpt lat="48.46202" lon="7.20486">
        <ele>337.2</ele>
        <time>2016-06-03T06:28:49Z</time>
      </trkpt>
      <trkpt lat="48.4622" lon="7.2047">
        <ele>336.8</ele>
        <time>2016-06-03T06:28:55Z</time>
      </trkpt>
      <trkpt lat="48.46237" lon="7.20473">
        <ele>335.7</ele>
        <time>2016-06-03T06:29:01Z</time>
      </trkpt>
      <trkpt lat="48.46254" lon="7.20491">
        <ele>334.1</ele>
        <time>2016-06-03T06:29:06Z</time>
      </trkpt>
      <trkpt lat="48.46262" lon="7.20499">
        <ele>333.5</ele>
        <time>2016-06-03T06:29:08Z</time>
      </trkpt>
      <trkpt lat="48.46279" lon="7.20516">
        <ele>332.2</ele>
        <time>2016-06-03T06:29:12Z</time>
      </trkpt>
      <trkpt lat="48.46295" lon="7.20534">
        <ele>331.1</ele>
        <time>2016-06-03T06:29:16Z</time>
      </trkpt>
      <trkpt lat="48.46314" lon="7.20554">
        <ele>330.5</ele>
        <time>2016-06-03T06:29:20Z</time>
      </trkpt>
      <trkpt lat="48.46329" lon="7.2057">
        <ele>330.1</ele>
        <time>2016-06-03T06:29:23Z</time>
      </trkpt>
      <trkpt lat="48.46344" lon="7.20586">
        <ele>329.5</ele>
        <time>2016-06-03T06:29:26Z</time>
      </trkpt>
      <trkpt lat="48.46359" lon="7.20602">
        <ele>328.9</ele>
        <time>2016-06-03T06:29:29Z</time>
      </trkpt>
      <trkpt lat="48.46378" lon="7.20621">
        <ele>328.2</ele>
        <time>2016-06-03T06:29:33Z</time>
      </trkpt>
      <trkpt lat="48.46392" lon="7.20638">
        <ele>328.7</ele>
        <time>2016-06-03T06:29:36Z</time>
      </trkpt>
      <trkpt lat="48.4641" lon="7.20659">
        <ele>329.1</ele>
        <time>2016-06-03T06:29:40Z</time>
      </trkpt>
      <trkpt lat="48.46425" lon="7.20677">
        <ele>329.3</ele>
        <time>2016-06-03T06:29:44Z</time>
      </trkpt>
      <trkpt lat="48.46436" lon="7.2069">
        <ele>329.3</ele>
        <time>2016-06-03T06:29:47Z</time>
      </trkpt>
      <trkpt lat="48.46452" lon="7.20709">
        <ele>329</ele>
        <time>2016-06-03T06:29:51Z</time>
      </trkpt>
      <trkpt lat="48.46467" lon="7.20728">
        <ele>328.9</ele>
        <time>2016-06-03T06:29:55Z</time>
      </trkpt>
      <trkpt lat="48.46482" lon="7.20747">
        <ele>329</ele>
        <time>2016-06-03T06:29:59Z</time>
      </trkpt>
      <trkpt lat="48.46498" lon="7.20767">
        <ele>328.6</ele>
        <time>2016-06-03T06:30:03Z</time>
      </trkpt>
      <trkpt lat="48.46515" lon="7.20789">
        <ele>327.8</ele>
        <time>2016-06-03T06:30:07Z</time>
      </trkpt>
      <trkpt lat="48.46532" lon="7.2081">
        <ele>327.5</ele>
        <time>2016-06-03T06:30:11Z</time>
      </trkpt>
      <trkpt lat="48.46548" lon="7.20828">
        <ele>326.9</ele>
        <time>2016-06-03T06:30:15Z</time>
      </trkpt>
      <trkpt lat="48.46564" lon="7.20843">
        <ele>326</ele>
        <time>2016-06-03T06:30:19Z</time>
      </trkpt>
      <trkpt lat="48.46568" lon="7.20847">
        <ele>325.7</ele>
        <time>2016-06-03T06:30:20Z</time>
      </trkpt>
      <trkpt lat="48.46587" lon="7.2086">
        <ele>324.8</ele>
        <time>2016-06-03T06:30:24Z</time>
      </trkpt>
      <trkpt lat="48.46605" lon="7.20873">
        <ele>323.8</ele>
        <time>2016-06-03T06:30:28Z</time>
      </trkpt>
      <trkpt lat="48.46623" lon="7.20888">
        <ele>323.2</ele>
        <time>2016-06-03T06:30:32Z</time>
      </trkpt>
      <trkpt lat="48.4664" lon="7.20904">
        <ele>323.3</ele>
        <time>2016-06-03T06:30:36Z</time>
      </trkpt>
      <trkpt lat="48.46657" lon="7.20923">
        <ele>323.4</ele>
        <time>2016-06-03T06:30:40Z</time>
      </trkpt>
      <trkpt lat="48.46671" lon="7.20942">
        <ele>323.4</ele>
        <time>2016-06-03T06:30:44Z</time>
      </trkpt>
      <trkpt lat="48.46685" lon="7.20962">
        <ele>323.2</ele>
        <time>2016-06-03T06:30:48Z</time>
      </trkpt>
      <trkpt lat="48.46698" lon="7.20986">
        <ele>322.8</ele>
        <time>2016-06-03T06:30:52Z</time>
      </trkpt>
      <trkpt lat="48.46711" lon="7.21009">
        <ele>322.4</ele>
        <time>2016-06-03T06:30:56Z</time>
      </trkpt>
      <trkpt lat="48.46725" lon="7.21031">
        <ele>322</ele>
        <time>2016-06-03T06:31:00Z</time>
      </trkpt>
      <trkpt lat="48.46739" lon="7.21049">
        <ele>321.6</ele>
        <time>2016-06-03T06:31:04Z</time>
      </trkpt>
      <trkpt lat="48.46756" lon="7.21072">
        <ele>321.2</ele>
        <time>2016-06-03T06:31:09Z</time>
      </trkpt>
      <trkpt lat="48.46769" lon="7.2109">
        <ele>320.8</ele>
        <time>2016-06-03T06:31:13Z</time>
      </trkpt>
      <trkpt lat="48.46783" lon="7.21109">
        <ele>320.4</ele>
        <time>2016-06-03T06:31:17Z</time>
      </trkpt>
      <trkpt lat="48.46798" lon="7.21128">
        <ele>320.1</ele>
        <time>2016-06-03T06:31:21Z</time>
      </trkpt>
      <trkpt lat="48.46813" lon="7.21148">
        <ele>320.1</ele>
        <time>2016-06-03T06:31:25Z</time>
      </trkpt>
      <trkpt lat="48.46828" lon="7.21167">
        <ele>320</ele>
        <time>2016-06-03T06:31:29Z</time>
      </trkpt>
      <trkpt lat="48.46842" lon="7.21185">
        <ele>319.7</ele>
        <time>2016-06-03T06:31:33Z</time>
      </trkpt>
      <trkpt lat="48.46858" lon="7.21201">
        <ele>319.3</ele>
        <time>2016-06-03T06:31:37Z</time>
      </trkpt>
      <trkpt lat="48.46875" lon="7.21216">
        <ele>319.2</ele>
        <time>2016-06-03T06:31:41Z</time>
      </trkpt>
      <trkpt lat="48.46892" lon="7.21229">
        <ele>319.4</ele>
        <time>2016-06-03T06:31:45Z</time>
      </trkpt>
      <trkpt lat="48.46909" lon="7.2124">
        <ele>319.6</ele>
        <time>2016-06-03T06:31:49Z</time>
      </trkpt>
      <trkpt lat="48.46926" lon="7.2125">
        <ele>319.7</ele>
        <time>2016-06-03T06:31:53Z</time>
      </trkpt>
      <trkpt lat="48.46943" lon="7.2126">
        <ele>319.7</ele>
        <time>2016-06-03T06:31:57Z</time>
      </trkpt>
      <trkpt lat="48.46962" lon="7.21272">
        <ele>319.8</ele>
        <time>2016-06-03T06:32:02Z</time>
      </trkpt>
      <trkpt lat="48.46981" lon="7.21284">
        <ele>320</ele>
        <time>2016-06-03T06:32:07Z</time>
      </trkpt>
      <trkpt lat="48.46998" lon="7.21297">
        <ele>320</ele>
        <time>2016-06-03T06:32:12Z</time>
      </trkpt>
      <trkpt lat="48.47011" lon="7.21319">
        <ele>319.7</ele>
        <time>2016-06-03T06:32:17Z</time>
      </trkpt>
      <trkpt lat="48.47025" lon="7.21339">
        <ele>319.2</ele>
        <time>2016-06-03T06:32:21Z</time>
      </trkpt>
      <trkpt lat="48.47035" lon="7.21355">
        <ele>318.7</ele>
        <time>2016-06-03T06:32:24Z</time>
      </trkpt>
      <trkpt lat="48.47051" lon="7.2137">
        <ele>318.1</ele>
        <time>2016-06-03T06:32:28Z</time>
      </trkpt>
      <trkpt lat="48.47066" lon="7.21386">
        <ele>317.9</ele>
        <time>2016-06-03T06:32:32Z</time>
      </trkpt>
      <trkpt lat="48.47083" lon="7.21405">
        <ele>317.6</ele>
        <time>2016-06-03T06:32:37Z</time>
      </trkpt>
      <trkpt lat="48.47102" lon="7.21423">
        <ele>317.2</ele>
        <time>2016-06-03T06:32:42Z</time>
      </trkpt>
      <trkpt lat="48.4712" lon="7.2144">
        <ele>316.5</ele>
        <time>2016-06-03T06:32:47Z</time>
      </trkpt>
      <trkpt lat="48.47134" lon="7.21454">
        <ele>316</ele>
        <time>2016-06-03T06:32:51Z</time>
      </trkpt>
      <trkpt lat="48.47147" lon="7.21462">
        <ele>315.8</ele>
        <time>2016-06-03T06:32:54Z</time>
      </trkpt>
      <trkpt lat="48.47168" lon="7.21472">
        <ele>315.7</ele>
        <time>2016-06-03T06:32:59Z</time>
      </trkpt>
      <trkpt lat="48.47186" lon="7.21488">
        <ele>315.9</ele>
        <time>2016-06-03T06:33:04Z</time>
      </trkpt>
      <trkpt lat="48.47203" lon="7.21503">
        <ele>316.1</ele>
        <time>2016-06-03T06:33:09Z</time>
      </trkpt>
      <trkpt lat="48.47218" lon="7.21519">
        <ele>316.3</ele>
        <time>2016-06-03T06:33:14Z</time>
      </trkpt>
      <trkpt lat="48.47234" lon="7.21533">
        <ele>316.3</ele>
        <time>2016-06-03T06:33:19Z</time>
      </trkpt>
      <trkpt lat="48.47249" lon="7.2155">
        <ele>316</ele>
        <time>2016-06-03T06:33:26Z</time>
      </trkpt>
      <trkpt lat="48.47262" lon="7.21571">
        <ele>315.6</ele>
        <time>2016-06-03T06:33:36Z</time>
      </trkpt>
      <trkpt lat="48.4728" lon="7.21574">
        <ele>315</ele>
        <time>2016-06-03T06:33:49Z</time>
      </trkpt>
      <trkpt lat="48.47299" lon="7.21585">
        <ele>314.5</ele>
        <time>2016-06-03T06:33:59Z</time>
      </trkpt>
      <trkpt lat="48.47318" lon="7.21598">
        <ele>314.5</ele>
        <time>2016-06-03T06:34:05Z</time>
      </trkpt>
      <trkpt lat="48.47339" lon="7.21608">
        <ele>314.7</ele>
        <time>2016-06-03T06:34:10Z</time>
      </trkpt>
      <trkpt lat="48.4736" lon="7.21618">
        <ele>314.8</ele>
        <time>2016-06-03T06:34:15Z</time>
      </trkpt>
      <trkpt lat="48.47381" lon="7.21627">
        <ele>314.9</ele>
        <time>2016-06-03T06:34:20Z</time>
      </trkpt>
      <trkpt lat="48.47399" lon="7.21633">
        <ele>314.8</ele>
        <time>2016-06-03T06:34:24Z</time>
      </trkpt>
      <trkpt lat="48.4742" lon="7.21642">
        <ele>314.6</ele>
        <time>2016-06-03T06:34:29Z</time>
      </trkpt>
      <trkpt lat="48.47441" lon="7.21651">
        <ele>314.3</ele>
        <time>2016-06-03T06:34:34Z</time>
      </trkpt>
      <trkpt lat="48.4746" lon="7.21656">
        <ele>314</ele>
        <time>2016-06-03T06:34:38Z</time>
      </trkpt>
      <trkpt lat="48.47481" lon="7.21657">
        <ele>314.2</ele>
        <time>2016-06-03T06:34:42Z</time>
      </trkpt>
      <trkpt lat="48.47491" lon="7.21656">
        <ele>314.3</ele>
        <time>2016-06-03T06:34:44Z</time>
      </trkpt>
      <trkpt lat="48.4751" lon="7.21645">
        <ele>314.3</ele>
        <time>2016-06-03T06:34:48Z</time>
      </trkpt>
      <trkpt lat="48.47531" lon="7.21638">
        <ele>314.3</ele>
        <time>2016-06-03T06:34:52Z</time>
      </trkpt>
      <trkpt lat="48.47552" lon="7.21629">
        <ele>314</ele>
        <time>2016-06-03T06:34:56Z</time>
      </trkpt>
      <trkpt lat="48.47572" lon="7.21627">
        <ele>313.7</ele>
        <time>2016-06-03T06:35:00Z</time>
      </trkpt>
      <trkpt lat="48.47593" lon="7.21627">
        <ele>313.4</ele>
        <time>2016-06-03T06:35:04Z</time>
      </trkpt>
      <trkpt lat="48.47603" lon="7.21629">
        <ele>313.3</ele>
        <time>2016-06-03T06:35:06Z</time>
      </trkpt>
      <trkpt lat="48.47621" lon="7.21635">
        <ele>313.2</ele>
        <time>2016-06-03T06:35:10Z</time>
      </trkpt>
      <trkpt lat="48.47641" lon="7.21641">
        <ele>313.1</ele>
        <time>2016-06-03T06:35:14Z</time>
      </trkpt>
      <trkpt lat="48.4766" lon="7.21646">
        <ele>312.9</ele>
        <time>2016-06-03T06:35:18Z</time>
      </trkpt>
      <trkpt lat="48.47679" lon="7.21644">
        <ele>312.8</ele>
        <time>2016-06-03T06:35:22Z</time>
      </trkpt>
      <trkpt lat="48.47699" lon="7.21638">
        <ele>312.7</ele>
        <time>2016-06-03T06:35:27Z</time>
      </trkpt>
      <trkpt lat="48.47718" lon="7.21634">
        <ele>312.8</ele>
        <time>2016-06-03T06:35:32Z</time>
      </trkpt>
      <trkpt lat="48.47739" lon="7.21629">
        <ele>312.9</ele>
        <time>2016-06-03T06:35:38Z</time>
      </trkpt>
      <trkpt lat="48.47759" lon="7.21617">
        <ele>313</ele>
        <time>2016-06-03T06:35:44Z</time>
      </trkpt>
      <trkpt lat="48.47778" lon="7.21608">
        <ele>313</ele>
        <time>2016-06-03T06:35:49Z</time>
      </trkpt>
      <trkpt lat="48.47793" lon="7.21592">
        <ele>313</ele>
        <time>2016-06-03T06:35:55Z</time>
      </trkpt>
      <trkpt lat="48.47797" lon="7.21562">
        <ele>312.9</ele>
        <time>2016-06-03T06:36:02Z</time>
      </trkpt>
      <trkpt lat="48.47803" lon="7.21535">
        <ele>313.1</ele>
        <time>2016-06-03T06:36:08Z</time>
      </trkpt>
      <trkpt lat="48.47814" lon="7.21508">
        <ele>313.8</ele>
        <time>2016-06-03T06:36:15Z</time>
      </trkpt>
      <trkpt lat="48.47832" lon="7.21499">
        <ele>313.8</ele>
        <time>2016-06-03T06:36:23Z</time>
      </trkpt>
      <trkpt lat="48.4785" lon="7.21503">
        <ele>313.4</ele>
        <time>2016-06-03T06:36:30Z</time>
      </trkpt>
      <trkpt lat="48.47868" lon="7.21521">
        <ele>312.6</ele>
        <time>2016-06-03T06:36:36Z</time>
      </trkpt>
      <trkpt lat="48.47884" lon="7.21535">
        <ele>312.2</ele>
        <time>2016-06-03T06:36:41Z</time>
      </trkpt>
      <trkpt lat="48.47901" lon="7.21549">
        <ele>312</ele>
        <time>2016-06-03T06:36:46Z</time>
      </trkpt>
      <trkpt lat="48.47918" lon="7.21565">
        <ele>312.1</ele>
        <time>2016-06-03T06:36:51Z</time>
      </trkpt>
      <trkpt lat="48.47935" lon="7.21581">
        <ele>312.3</ele>
        <time>2016-06-03T06:36:56Z</time>
      </trkpt>
      <trkpt lat="48.47952" lon="7.21596">
        <ele>312.6</ele>
        <time>2016-06-03T06:37:01Z</time>
      </trkpt>
      <trkpt lat="48.47969" lon="7.21613">
        <ele>312.6</ele>
        <time>2016-06-03T06:37:06Z</time>
      </trkpt>
      <trkpt lat="48.47986" lon="7.21627">
        <ele>312.3</ele>
        <time>2016-06-03T06:37:11Z</time>
      </trkpt>
      <trkpt lat="48.48006" lon="7.21639">
        <ele>311.9</ele>
        <time>2016-06-03T06:37:16Z</time>
      </trkpt>
      <trkpt lat="48.48025" lon="7.21647">
        <ele>311.4</ele>
        <time>2016-06-03T06:37:21Z</time>
      </trkpt>
      <trkpt lat="48.48045" lon="7.21661">
        <ele>311</ele>
        <time>2016-06-03T06:37:26Z</time>
      </trkpt>
      <trkpt lat="48.48062" lon="7.21672">
        <ele>311</ele>
        <time>2016-06-03T06:37:31Z</time>
      </trkpt>
      <trkpt lat="48.48079" lon="7.21683">
        <ele>311</ele>
        <time>2016-06-03T06:37:36Z</time>
      </trkpt>
      <trkpt lat="48.48095" lon="7.21695">
        <ele>311</ele>
        <time>2016-06-03T06:37:41Z</time>
      </trkpt>
      <trkpt lat="48.48113" lon="7.21708">
        <ele>311</ele>
        <time>2016-06-03T06:37:47Z</time>
      </trkpt>
      <trkpt lat="48.48131" lon="7.21721">
        <ele>311.1</ele>
        <time>2016-06-03T06:37:52Z</time>
      </trkpt>
      <trkpt lat="48.48147" lon="7.21733">
        <ele>311.4</ele>
        <time>2016-06-03T06:37:56Z</time>
      </trkpt>
      <trkpt lat="48.48165" lon="7.21749">
        <ele>311.5</ele>
        <time>2016-06-03T06:38:01Z</time>
      </trkpt>
      <trkpt lat="48.48177" lon="7.21773">
        <ele>311.3</ele>
        <time>2016-06-03T06:38:06Z</time>
      </trkpt>
      <trkpt lat="48.4818" lon="7.21806">
        <ele>310.6</ele>
        <time>2016-06-03T06:38:10Z</time>
      </trkpt>
      <trkpt lat="48.48184" lon="7.21834">
        <ele>309.8</ele>
        <time>2016-06-03T06:38:13Z</time>
      </trkpt>
      <trkpt lat="48.48189" lon="7.21865">
        <ele>309</ele>
        <time>2016-06-03T06:38:16Z</time>
      </trkpt>
      <trkpt lat="48.48192" lon="7.21892">
        <ele>308.7</ele>
        <time>2016-06-03T06:38:19Z</time>
      </trkpt>
      <trkpt lat="48.48193" lon="7.2192">
        <ele>308.5</ele>
        <time>2016-06-03T06:38:23Z</time>
      </trkpt>
      <trkpt lat="48.48192" lon="7.21926">
        <ele>308.5</ele>
        <time>2016-06-03T06:38:24Z</time>
      </trkpt>
      <trkpt lat="48.48185" lon="7.21949">
        <ele>308</ele>
        <time>2016-06-03T06:38:28Z</time>
      </trkpt>
      <trkpt lat="48.48182" lon="7.21955">
        <ele>307.8</ele>
        <time>2016-06-03T06:38:29Z</time>
      </trkpt>
      <trkpt lat="48.48176" lon="7.21974">
        <ele>307.2</ele>
        <time>2016-06-03T06:38:32Z</time>
      </trkpt>
      <trkpt lat="48.48168" lon="7.21994">
        <ele>306.6</ele>
        <time>2016-06-03T06:38:35Z</time>
      </trkpt>
      <trkpt lat="48.48165" lon="7.22027">
        <ele>306.1</ele>
        <time>2016-06-03T06:38:39Z</time>
      </trkpt>
      <trkpt lat="48.48164" lon="7.22035">
        <ele>306</ele>
        <time>2016-06-03T06:38:40Z</time>
      </trkpt>
      <trkpt lat="48.48163" lon="7.22067">
        <ele>305.5</ele>
        <time>2016-06-03T06:38:44Z</time>
      </trkpt>
      <trkpt lat="48.48162" lon="7.22098">
        <ele>305</ele>
        <time>2016-06-03T06:38:49Z</time>
      </trkpt>
      <trkpt lat="48.48169" lon="7.22126">
        <ele>304.5</ele>
        <time>2016-06-03T06:38:55Z</time>
      </trkpt>
      <trkpt lat="48.48172" lon="7.2213">
        <ele>304.6</ele>
        <time>2016-06-03T06:38:56Z</time>
      </trkpt>
      <trkpt lat="48.48191" lon="7.22145">
        <ele>304.5</ele>
        <time>2016-06-03T06:39:01Z</time>
      </trkpt>
      <trkpt lat="48.48209" lon="7.22159">
        <ele>304</ele>
        <time>2016-06-03T06:39:05Z</time>
      </trkpt>
      <trkpt lat="48.48227" lon="7.22172">
        <ele>303.4</ele>
        <time>2016-06-03T06:39:09Z</time>
      </trkpt>
      <trkpt lat="48.48244" lon="7.22186">
        <ele>302.8</ele>
        <time>2016-06-03T06:39:13Z</time>
      </trkpt>
      <trkpt lat="48.4826" lon="7.22198">
        <ele>302.2</ele>
        <time>2016-06-03T06:39:17Z</time>
      </trkpt>
      <trkpt lat="48.48278" lon="7.22212">
        <ele>301.6</ele>
        <time>2016-06-03T06:39:22Z</time>
      </trkpt>
      <trkpt lat="48.48296" lon="7.22223">
        <ele>301.4</ele>
        <time>2016-06-03T06:39:27Z</time>
      </trkpt>
      <trkpt lat="48.48313" lon="7.22238">
        <ele>301.6</ele>
        <time>2016-06-03T06:39:32Z</time>
      </trkpt>
      <trkpt lat="48.48333" lon="7.22255">
        <ele>301.8</ele>
        <time>2016-06-03T06:39:37Z</time>
      </trkpt>
      <trkpt lat="48.4835" lon="7.2227">
        <ele>302</ele>
        <time>2016-06-03T06:39:42Z</time>
      </trkpt>
      <trkpt lat="48.48366" lon="7.22285">
        <ele>302</ele>
        <time>2016-06-03T06:39:47Z</time>
      </trkpt>
      <trkpt lat="48.48384" lon="7.223">
        <ele>302</ele>
        <time>2016-06-03T06:39:52Z</time>
      </trkpt>
      <trkpt lat="48.48401" lon="7.22315">
        <ele>301.9</ele>
        <time>2016-06-03T06:39:57Z</time>
      </trkpt>
      <trkpt lat="48.48419" lon="7.22332">
        <ele>301.7</ele>
        <time>2016-06-03T06:40:03Z</time>
      </trkpt>
      <trkpt lat="48.48437" lon="7.22347">
        <ele>301.4</ele>
        <time>2016-06-03T06:40:09Z</time>
      </trkpt>
      <trkpt lat="48.48455" lon="7.2236">
        <ele>301.1</ele>
        <time>2016-06-03T06:40:14Z</time>
      </trkpt>
      <trkpt lat="48.48471" lon="7.22372">
        <ele>300.9</ele>
        <time>2016-06-03T06:40:18Z</time>
      </trkpt>
      <trkpt lat="48.48488" lon="7.22384">
        <ele>300.7</ele>
        <time>2016-06-03T06:40:22Z</time>
      </trkpt>
      <trkpt lat="48.48504" lon="7.22396">
        <ele>300.7</ele>
        <time>2016-06-03T06:40:26Z</time>
      </trkpt>
      <trkpt lat="48.48525" lon="7.2241">
        <ele>300.9</ele>
        <time>2016-06-03T06:40:31Z</time>
      </trkpt>
      <trkpt lat="48.48543" lon="7.22421">
        <ele>301.1</ele>
        <time>2016-06-03T06:40:35Z</time>
      </trkpt>
      <trkpt lat="48.48563" lon="7.22435">
        <ele>301.2</ele>
        <time>2016-06-03T06:40:39Z</time>
      </trkpt>
      <trkpt lat="48.4858" lon="7.22449">
        <ele>301.4</ele>
        <time>2016-06-03T06:40:43Z</time>
      </trkpt>
      <trkpt lat="48.48597" lon="7.22466">
        <ele>301.2</ele>
        <time>2016-06-03T06:40:47Z</time>
      </trkpt>
      <trkpt lat="48.48612" lon="7.22483">
        <ele>300.7</ele>
        <time>2016-06-03T06:40:51Z</time>
      </trkpt>
      <trkpt lat="48.48625" lon="7.22502">
        <ele>299.9</ele>
        <time>2016-06-03T06:40:55Z</time>
      </trkpt>
      <trkpt lat="48.48638" lon="7.22525">
        <ele>300.2</ele>
        <time>2016-06-03T06:40:59Z</time>
      </trkpt>
      <trkpt lat="48.4865" lon="7.2255">
        <ele>300.5</ele>
        <time>2016-06-03T06:41:03Z</time>
      </trkpt>
      <trkpt lat="48.48661" lon="7.22578">
        <ele>300.7</ele>
        <time>2016-06-03T06:41:07Z</time>
      </trkpt>
      <trkpt lat="48.4867" lon="7.22607">
        <ele>300.4</ele>
        <time>2016-06-03T06:41:11Z</time>
      </trkpt>
      <trkpt lat="48.48677" lon="7.22638">
        <ele>300.1</ele>
        <time>2016-06-03T06:41:15Z</time>
      </trkpt>
      <trkpt lat="48.48682" lon="7.2267">
        <ele>300.2</ele>
        <time>2016-06-03T06:41:19Z</time>
      </trkpt>
      <trkpt lat="48.48687" lon="7.22699">
        <ele>300.2</ele>
        <time>2016-06-03T06:41:23Z</time>
      </trkpt>
      <trkpt lat="48.4869" lon="7.22728">
        <ele>300.3</ele>
        <time>2016-06-03T06:41:27Z</time>
      </trkpt>
      <trkpt lat="48.48694" lon="7.22759">
        <ele>300.3</ele>
        <time>2016-06-03T06:41:31Z</time>
      </trkpt>
      <trkpt lat="48.48697" lon="7.22791">
        <ele>300.3</ele>
        <time>2016-06-03T06:41:35Z</time>
      </trkpt>
      <trkpt lat="48.487" lon="7.22822">
        <ele>299.8</ele>
        <time>2016-06-03T06:41:39Z</time>
      </trkpt>
      <trkpt lat="48.48703" lon="7.22852">
        <ele>299.4</ele>
        <time>2016-06-03T06:41:43Z</time>
      </trkpt>
      <trkpt lat="48.48706" lon="7.22882">
        <ele>299</ele>
        <time>2016-06-03T06:41:47Z</time>
      </trkpt>
      <trkpt lat="48.48708" lon="7.22912">
        <ele>299</ele>
        <time>2016-06-03T06:41:51Z</time>
      </trkpt>
      <trkpt lat="48.4871" lon="7.22943">
        <ele>299</ele>
        <time>2016-06-03T06:41:55Z</time>
      </trkpt>
      <trkpt lat="48.48713" lon="7.22976">
        <ele>299.2</ele>
        <time>2016-06-03T06:41:59Z</time>
      </trkpt>
      <trkpt lat="48.48716" lon="7.23007">
        <ele>299.5</ele>
        <time>2016-06-03T06:42:03Z</time>
      </trkpt>
      <trkpt lat="48.48719" lon="7.23036">
        <ele>299.8</ele>
        <time>2016-06-03T06:42:07Z</time>
      </trkpt>
      <trkpt lat="48.48722" lon="7.23065">
        <ele>299.6</ele>
        <time>2016-06-03T06:42:11Z</time>
      </trkpt>
      <trkpt lat="48.48727" lon="7.23093">
        <ele>299.6</ele>
        <time>2016-06-03T06:42:15Z</time>
      </trkpt>
      <trkpt lat="48.48733" lon="7.23121">
        <ele>300.1</ele>
        <time>2016-06-03T06:42:19Z</time>
      </trkpt>
      <trkpt lat="48.48737" lon="7.2314">
        <ele>300.3</ele>
        <time>2016-06-03T06:42:22Z</time>
      </trkpt>
      <trkpt lat="48.48746" lon="7.23171">
        <ele>300.5</ele>
        <time>2016-06-03T06:42:27Z</time>
      </trkpt>
      <trkpt lat="48.48756" lon="7.23198">
        <ele>300.8</ele>
        <time>2016-06-03T06:42:31Z</time>
      </trkpt>
      <trkpt lat="48.48766" lon="7.23226">
        <ele>300.6</ele>
        <time>2016-06-03T06:42:35Z</time>
      </trkpt>
      <trkpt lat="48.48775" lon="7.23257">
        <ele>299.6</ele>
        <time>2016-06-03T06:42:39Z</time>
      </trkpt>
      <trkpt lat="48.48784" lon="7.23289">
        <ele>297.8</ele>
        <time>2016-06-03T06:42:43Z</time>
      </trkpt>
      <trkpt lat="48.48792" lon="7.23322">
        <ele>297.8</ele>
        <time>2016-06-03T06:42:47Z</time>
      </trkpt>
      <trkpt lat="48.48801" lon="7.23353">
        <ele>299</ele>
        <time>2016-06-03T06:42:51Z</time>
      </trkpt>
      <trkpt lat="48.48807" lon="7.23382">
        <ele>299.4</ele>
        <time>2016-06-03T06:42:55Z</time>
      </trkpt>
      <trkpt lat="48.48813" lon="7.23409">
        <ele>300.1</ele>
        <time>2016-06-03T06:42:59Z</time>
      </trkpt>
      <trkpt lat="48.48818" lon="7.23438">
        <ele>300.3</ele>
        <time>2016-06-03T06:43:03Z</time>
      </trkpt>
      <trkpt lat="48.4882" lon="7.23467">
        <ele>299.9</ele>
        <time>2016-06-03T06:43:07Z</time>
      </trkpt>
      <trkpt lat="48.48819" lon="7.23482">
        <ele>299.5</ele>
        <time>2016-06-03T06:43:09Z</time>
      </trkpt>
      <trkpt lat="48.48812" lon="7.23512">
        <ele>298.8</ele>
        <time>2016-06-03T06:43:13Z</time>
      </trkpt>
      <trkpt lat="48.48804" lon="7.23541">
        <ele>298.2</ele>
        <time>2016-06-03T06:43:17Z</time>
      </trkpt>
      <trkpt lat="48.48799" lon="7.23559">
        <ele>297</ele>
        <time>2016-06-03T06:43:20Z</time>
      </trkpt>
      <trkpt lat="48.48799" lon="7.23585">
        <ele>295.5</ele>
        <time>2016-06-03T06:43:25Z</time>
      </trkpt>
      <trkpt lat="48.48815" lon="7.23603">
        <ele>294.8</ele>
        <time>2016-06-03T06:43:30Z</time>
      </trkpt>
      <trkpt lat="48.48832" lon="7.23618">
        <ele>294.3</ele>
        <time>2016-06-03T06:43:34Z</time>
      </trkpt>
      <trkpt lat="48.48849" lon="7.23638">
        <ele>294.4</ele>
        <time>2016-06-03T06:43:38Z</time>
      </trkpt>
      <trkpt lat="48.48863" lon="7.23661">
        <ele>294.7</ele>
        <time>2016-06-03T06:43:41Z</time>
      </trkpt>
      <trkpt lat="48.48875" lon="7.23691">
        <ele>295</ele>
        <time>2016-06-03T06:43:44Z</time>
      </trkpt>
      <trkpt lat="48.48884" lon="7.23726">
        <ele>294.8</ele>
        <time>2016-06-03T06:43:47Z</time>
      </trkpt>
      <trkpt lat="48.48889" lon="7.23759">
        <ele>294.1</ele>
        <time>2016-06-03T06:43:50Z</time>
      </trkpt>
      <trkpt lat="48.48894" lon="7.23787">
        <ele>293.4</ele>
        <time>2016-06-03T06:43:53Z</time>
      </trkpt>
      <trkpt lat="48.48899" lon="7.23813">
        <ele>292.8</ele>
        <time>2016-06-03T06:43:56Z</time>
      </trkpt>
      <trkpt lat="48.48907" lon="7.23838">
        <ele>292.5</ele>
        <time>2016-06-03T06:43:59Z</time>
      </trkpt>
      <trkpt lat="48.48917" lon="7.2387">
        <ele>292.1</ele>
        <time>2016-06-03T06:44:03Z</time>
      </trkpt>
      <trkpt lat="48.48928" lon="7.23899">
        <ele>292.2</ele>
        <time>2016-06-03T06:44:07Z</time>
      </trkpt>
      <trkpt lat="48.48939" lon="7.23923">
        <ele>292.4</ele>
        <time>2016-06-03T06:44:11Z</time>
      </trkpt>
      <trkpt lat="48.4895" lon="7.23947">
        <ele>292.7</ele>
        <time>2016-06-03T06:44:15Z</time>
      </trkpt>
      <trkpt lat="48.48961" lon="7.23973">
        <ele>293.1</ele>
        <time>2016-06-03T06:44:19Z</time>
      </trkpt>
      <trkpt lat="48.48973" lon="7.24">
        <ele>293.7</ele>
        <time>2016-06-03T06:44:23Z</time>
      </trkpt>
      <trkpt lat="48.48985" lon="7.24027">
        <ele>293.8</ele>
        <time>2016-06-03T06:44:27Z</time>
      </trkpt>
      <trkpt lat="48.48997" lon="7.24053">
        <ele>293.2</ele>
        <time>2016-06-03T06:44:31Z</time>
      </trkpt>
      <trkpt lat="48.49007" lon="7.24078">
        <ele>292.4</ele>
        <time>2016-06-03T06:44:35Z</time>
      </trkpt>
      <trkpt lat="48.49018" lon="7.24103">
        <ele>291.2</ele>
        <time>2016-06-03T06:44:39Z</time>
      </trkpt>
      <trkpt lat="48.4903" lon="7.24129">
        <ele>289.6</ele>
        <time>2016-06-03T06:44:43Z</time>
      </trkpt>
      <trkpt lat="48.49043" lon="7.24155">
        <ele>288.4</ele>
        <time>2016-06-03T06:44:47Z</time>
      </trkpt>
      <trkpt lat="48.49054" lon="7.2418">
        <ele>288.7</ele>
        <time>2016-06-03T06:44:51Z</time>
      </trkpt>
      <trkpt lat="48.49064" lon="7.24205">
        <ele>288.5</ele>
        <time>2016-06-03T06:44:55Z</time>
      </trkpt>
      <trkpt lat="48.49075" lon="7.2423">
        <ele>289.6</ele>
        <time>2016-06-03T06:44:59Z</time>
      </trkpt>
      <trkpt lat="48.49086" lon="7.24256">
        <ele>290.4</ele>
        <time>2016-06-03T06:45:03Z</time>
      </trkpt>
      <trkpt lat="48.49096" lon="7.24282">
        <ele>290.5</ele>
        <time>2016-06-03T06:45:07Z</time>
      </trkpt>
      <trkpt lat="48.49105" lon="7.24307">
        <ele>290.1</ele>
        <time>2016-06-03T06:45:11Z</time>
      </trkpt>
      <trkpt lat="48.49114" lon="7.24338">
        <ele>288.9</ele>
        <time>2016-06-03T06:45:16Z</time>
      </trkpt>
      <trkpt lat="48.49125" lon="7.24366">
        <ele>287.6</ele>
        <time>2016-06-03T06:45:21Z</time>
      </trkpt>
      <trkpt lat="48.4914" lon="7.24389">
        <ele>288.4</ele>
        <time>2016-06-03T06:45:26Z</time>
      </trkpt>
      <trkpt lat="48.49155" lon="7.24405">
        <ele>289.3</ele>
        <time>2016-06-03T06:45:31Z</time>
      </trkpt>
      <trkpt lat="48.49173" lon="7.24414">
        <ele>290.4</ele>
        <time>2016-06-03T06:45:36Z</time>
      </trkpt>
      <trkpt lat="48.49192" lon="7.24417">
        <ele>291.7</ele>
        <time>2016-06-03T06:45:41Z</time>
      </trkpt>
      <trkpt lat="48.49212" lon="7.24422">
        <ele>292.9</ele>
        <time>2016-06-03T06:45:45Z</time>
      </trkpt>
      <trkpt lat="48.49234" lon="7.24426">
        <ele>295.2</ele>
        <time>2016-06-03T06:45:50Z</time>
      </trkpt>
      <trkpt lat="48.49255" lon="7.24432">
        <ele>296.9</ele>
        <time>2016-06-03T06:45:55Z</time>
      </trkpt>
      <trkpt lat="48.49272" lon="7.24442">
        <ele>297.4</ele>
        <time>2016-06-03T06:45:59Z</time>
      </trkpt>
      <trkpt lat="48.49291" lon="7.24459">
        <ele>296.9</ele>
        <time>2016-06-03T06:46:03Z</time>
      </trkpt>
      <trkpt lat="48.49311" lon="7.24479">
        <ele>297.8</ele>
        <time>2016-06-03T06:46:07Z</time>
      </trkpt>
      <trkpt lat="48.4933" lon="7.245">
        <ele>297.8</ele>
        <time>2016-06-03T06:46:11Z</time>
      </trkpt>
      <trkpt lat="48.49348" lon="7.24521">
        <ele>296.9</ele>
        <time>2016-06-03T06:46:15Z</time>
      </trkpt>
      <trkpt lat="48.49366" lon="7.24542">
        <ele>295.3</ele>
        <time>2016-06-03T06:46:19Z</time>
      </trkpt>
      <trkpt lat="48.49385" lon="7.24561">
        <ele>295.4</ele>
        <time>2016-06-03T06:46:23Z</time>
      </trkpt>
      <trkpt lat="48.49401" lon="7.24582">
        <ele>295.1</ele>
        <time>2016-06-03T06:46:27Z</time>
      </trkpt>
      <trkpt lat="48.49418" lon="7.24603">
        <ele>294</ele>
        <time>2016-06-03T06:46:31Z</time>
      </trkpt>
      <trkpt lat="48.49431" lon="7.24622">
        <ele>292.2</ele>
        <time>2016-06-03T06:46:34Z</time>
      </trkpt>
      <trkpt lat="48.49445" lon="7.24641">
        <ele>291.6</ele>
        <time>2016-06-03T06:46:37Z</time>
      </trkpt>
      <trkpt lat="48.49462" lon="7.24666">
        <ele>291.3</ele>
        <time>2016-06-03T06:46:41Z</time>
      </trkpt>
      <trkpt lat="48.49478" lon="7.24689">
        <ele>292.3</ele>
        <time>2016-06-03T06:46:45Z</time>
      </trkpt>
      <trkpt lat="48.49495" lon="7.24711">
        <ele>292.5</ele>
        <time>2016-06-03T06:46:49Z</time>
      </trkpt>
      <trkpt lat="48.49512" lon="7.24734">
        <ele>293.1</ele>
        <time>2016-06-03T06:46:53Z</time>
      </trkpt>
      <trkpt lat="48.49528" lon="7.24756">
        <ele>292.8</ele>
        <time>2016-06-03T06:46:57Z</time>
      </trkpt>
      <trkpt lat="48.49545" lon="7.24776">
        <ele>292.3</ele>
        <time>2016-06-03T06:47:01Z</time>
      </trkpt>
      <trkpt lat="48.49565" lon="7.24791">
        <ele>292.8</ele>
        <time>2016-06-03T06:47:06Z</time>
      </trkpt>
      <trkpt lat="48.49585" lon="7.24803">
        <ele>294.3</ele>
        <time>2016-06-03T06:47:11Z</time>
      </trkpt>
      <trkpt lat="48.49606" lon="7.24813">
        <ele>295.7</ele>
        <time>2016-06-03T06:47:16Z</time>
      </trkpt>
      <trkpt lat="48.49625" lon="7.24825">
        <ele>296.4</ele>
        <time>2016-06-03T06:47:20Z</time>
      </trkpt>
      <trkpt lat="48.49645" lon="7.24837">
        <ele>296.5</ele>
        <time>2016-06-03T06:47:24Z</time>
      </trkpt>
      <trkpt lat="48.49664" lon="7.24851">
        <ele>296.5</ele>
        <time>2016-06-03T06:47:28Z</time>
      </trkpt>
      <trkpt lat="48.49682" lon="7.24865">
        <ele>296.6</ele>
        <time>2016-06-03T06:47:32Z</time>
      </trkpt>
      <trkpt lat="48.49701" lon="7.24882">
        <ele>296.6</ele>
        <time>2016-06-03T06:47:36Z</time>
      </trkpt>
      <trkpt lat="48.4972" lon="7.24899">
        <ele>297.5</ele>
        <time>2016-06-03T06:47:40Z</time>
      </trkpt>
      <trkpt lat="48.49737" lon="7.24915">
        <ele>298.4</ele>
        <time>2016-06-03T06:47:44Z</time>
      </trkpt>
      <trkpt lat="48.49754" lon="7.24931">
        <ele>298.4</ele>
        <time>2016-06-03T06:47:48Z</time>
      </trkpt>
      <trkpt lat="48.49771" lon="7.2495">
        <ele>296.7</ele>
        <time>2016-06-03T06:47:53Z</time>
      </trkpt>
      <trkpt lat="48.49786" lon="7.24969">
        <ele>295.2</ele>
        <time>2016-06-03T06:47:58Z</time>
      </trkpt>
      <trkpt lat="48.49802" lon="7.2499">
        <ele>295.7</ele>
        <time>2016-06-03T06:48:03Z</time>
      </trkpt>
      <trkpt lat="48.49809" lon="7.24999">
        <ele>295.8</ele>
        <time>2016-06-03T06:48:05Z</time>
      </trkpt>
      <trkpt lat="48.49823" lon="7.2502">
        <ele>294.6</ele>
        <time>2016-06-03T06:48:09Z</time>
      </trkpt>
      <trkpt lat="48.49839" lon="7.25044">
        <ele>291.9</ele>
        <time>2016-06-03T06:48:13Z</time>
      </trkpt>
      <trkpt lat="48.49853" lon="7.25069">
        <ele>291.1</ele>
        <time>2016-06-03T06:48:17Z</time>
      </trkpt>
      <trkpt lat="48.49867" lon="7.25093">
        <ele>290.3</ele>
        <time>2016-06-03T06:48:21Z</time>
      </trkpt>
      <trkpt lat="48.4988" lon="7.25113">
        <ele>289.6</ele>
        <time>2016-06-03T06:48:24Z</time>
      </trkpt>
      <trkpt lat="48.49895" lon="7.25132">
        <ele>288.8</ele>
        <time>2016-06-03T06:48:27Z</time>
      </trkpt>
      <trkpt lat="48.4991" lon="7.25151">
        <ele>287.9</ele>
        <time>2016-06-03T06:48:31Z</time>
      </trkpt>
      <trkpt lat="48.49925" lon="7.25171">
        <ele>286.8</ele>
        <time>2016-06-03T06:48:36Z</time>
      </trkpt>
      <trkpt lat="48.49939" lon="7.25188">
        <ele>285.5</ele>
        <time>2016-06-03T06:48:40Z</time>
      </trkpt>
      <trkpt lat="48.49956" lon="7.25207">
        <ele>284.1</ele>
        <time>2016-06-03T06:48:44Z</time>
      </trkpt>
      <trkpt lat="48.49966" lon="7.25215">
        <ele>284.3</ele>
        <time>2016-06-03T06:48:46Z</time>
      </trkpt>
      <trkpt lat="48.49987" lon="7.25226">
        <ele>285.3</ele>
        <time>2016-06-03T06:48:50Z</time>
      </trkpt>
      <trkpt lat="48.50011" lon="7.2523">
        <ele>287.1</ele>
        <time>2016-06-03T06:48:54Z</time>
      </trkpt>
      <trkpt lat="48.5003" lon="7.25231">
        <ele>288.5</ele>
        <time>2016-06-03T06:48:57Z</time>
      </trkpt>
      <trkpt lat="48.50053" lon="7.25232">
        <ele>290.1</ele>
        <time>2016-06-03T06:49:01Z</time>
      </trkpt>
      <trkpt lat="48.50075" lon="7.25236">
        <ele>290.9</ele>
        <time>2016-06-03T06:49:05Z</time>
      </trkpt>
      <trkpt lat="48.50095" lon="7.25245">
        <ele>290.2</ele>
        <time>2016-06-03T06:49:09Z</time>
      </trkpt>
      <trkpt lat="48.50116" lon="7.25256">
        <ele>288.7</ele>
        <time>2016-06-03T06:49:14Z</time>
      </trkpt>
      <trkpt lat="48.50134" lon="7.25267">
        <ele>287.4</ele>
        <time>2016-06-03T06:49:18Z</time>
      </trkpt>
      <trkpt lat="48.50154" lon="7.25277">
        <ele>287.3</ele>
        <time>2016-06-03T06:49:22Z</time>
      </trkpt>
      <trkpt lat="48.50173" lon="7.25288">
        <ele>286.7</ele>
        <time>2016-06-03T06:49:26Z</time>
      </trkpt>
      <trkpt lat="48.50181" lon="7.25294">
        <ele>286.5</ele>
        <time>2016-06-03T06:49:28Z</time>
      </trkpt>
      <trkpt lat="48.50193" lon="7.25306">
        <ele>286.2</ele>
        <time>2016-06-03T06:49:31Z</time>
      </trkpt>
      <trkpt lat="48.5021" lon="7.25332">
        <ele>284.3</ele>
        <time>2016-06-03T06:49:35Z</time>
      </trkpt>
      <trkpt lat="48.50225" lon="7.25354">
        <ele>284.5</ele>
        <time>2016-06-03T06:49:38Z</time>
      </trkpt>
      <trkpt lat="48.5024" lon="7.25376">
        <ele>283.3</ele>
        <time>2016-06-03T06:49:41Z</time>
      </trkpt>
      <trkpt lat="48.50253" lon="7.25395">
        <ele>283.9</ele>
        <time>2016-06-03T06:49:44Z</time>
      </trkpt>
      <trkpt lat="48.50267" lon="7.25417">
        <ele>283.6</ele>
        <time>2016-06-03T06:49:48Z</time>
      </trkpt>
      <trkpt lat="48.50279" lon="7.25435">
        <ele>282.6</ele>
        <time>2016-06-03T06:49:52Z</time>
      </trkpt>
      <trkpt lat="48.50297" lon="7.25452">
        <ele>282.6</ele>
        <time>2016-06-03T06:49:57Z</time>
      </trkpt>
      <trkpt lat="48.50315" lon="7.25461">
        <ele>286</ele>
        <time>2016-06-03T06:50:01Z</time>
      </trkpt>
      <trkpt lat="48.50333" lon="7.25469">
        <ele>289.6</ele>
        <time>2016-06-03T06:50:05Z</time>
      </trkpt>
      <trkpt lat="48.50353" lon="7.25477">
        <ele>292.7</ele>
        <time>2016-06-03T06:50:10Z</time>
      </trkpt>
      <trkpt lat="48.50373" lon="7.25486">
        <ele>294.9</ele>
        <time>2016-06-03T06:50:15Z</time>
      </trkpt>
      <trkpt lat="48.5039" lon="7.25497">
        <ele>294.6</ele>
        <time>2016-06-03T06:50:19Z</time>
      </trkpt>
      <trkpt lat="48.50406" lon="7.25512">
        <ele>292.8</ele>
        <time>2016-06-03T06:50:23Z</time>
      </trkpt>
      <trkpt lat="48.5042" lon="7.25531">
        <ele>288.8</ele>
        <time>2016-06-03T06:50:27Z</time>
      </trkpt>
      <trkpt lat="48.50435" lon="7.25551">
        <ele>285.9</ele>
        <time>2016-06-03T06:50:31Z</time>
      </trkpt>
      <trkpt lat="48.50451" lon="7.25571">
        <ele>284.7</ele>
        <time>2016-06-03T06:50:35Z</time>
      </trkpt>
      <trkpt lat="48.50468" lon="7.25594">
        <ele>283.6</ele>
        <time>2016-06-03T06:50:39Z</time>
      </trkpt>
      <trkpt lat="48.50485" lon="7.25614">
        <ele>283.8</ele>
        <time>2016-06-03T06:50:43Z</time>
      </trkpt>
      <trkpt lat="48.50499" lon="7.25631">
        <ele>284.1</ele>
        <time>2016-06-03T06:50:47Z</time>
      </trkpt>
      <trkpt lat="48.50503" lon="7.25636">
        <ele>284.3</ele>
        <time>2016-06-03T06:50:48Z</time>
      </trkpt>
      <trkpt lat="48.50519" lon="7.25655">
        <ele>284.4</ele>
        <time>2016-06-03T06:50:52Z</time>
      </trkpt>
      <trkpt lat="48.50536" lon="7.25675">
        <ele>283.9</ele>
        <time>2016-06-03T06:50:56Z</time>
      </trkpt>
      <trkpt lat="48.50551" lon="7.25693">
        <ele>284</ele>
        <time>2016-06-03T06:51:00Z</time>
      </trkpt>
      <trkpt lat="48.5057" lon="7.25712">
        <ele>285.3</ele>
        <time>2016-06-03T06:51:04Z</time>
      </trkpt>
      <trkpt lat="48.50589" lon="7.25731">
        <ele>286.5</ele>
        <time>2016-06-03T06:51:08Z</time>
      </trkpt>
      <trkpt lat="48.50604" lon="7.25746">
        <ele>286.3</ele>
        <time>2016-06-03T06:51:11Z</time>
      </trkpt>
      <trkpt lat="48.5062" lon="7.25765">
        <ele>284.8</ele>
        <time>2016-06-03T06:51:15Z</time>
      </trkpt>
      <trkpt lat="48.50638" lon="7.25782">
        <ele>284.7</ele>
        <time>2016-06-03T06:51:19Z</time>
      </trkpt>
      <trkpt lat="48.50655" lon="7.25803">
        <ele>284.8</ele>
        <time>2016-06-03T06:51:23Z</time>
      </trkpt>
      <trkpt lat="48.50671" lon="7.25826">
        <ele>284.4</ele>
        <time>2016-06-03T06:51:27Z</time>
      </trkpt>
      <trkpt lat="48.50685" lon="7.2585">
        <ele>282.5</ele>
        <time>2016-06-03T06:51:31Z</time>
      </trkpt>
      <trkpt lat="48.50699" lon="7.25875">
        <ele>279.1</ele>
        <time>2016-06-03T06:51:35Z</time>
      </trkpt>
      <trkpt lat="48.50713" lon="7.25901">
        <ele>279.3</ele>
        <time>2016-06-03T06:51:39Z</time>
      </trkpt>
      <trkpt lat="48.50725" lon="7.25927">
        <ele>280.4</ele>
        <time>2016-06-03T06:51:43Z</time>
      </trkpt>
      <trkpt lat="48.50736" lon="7.25955">
        <ele>279.2</ele>
        <time>2016-06-03T06:51:47Z</time>
      </trkpt>
      <trkpt lat="48.50747" lon="7.25986">
        <ele>278.8</ele>
        <time>2016-06-03T06:51:51Z</time>
      </trkpt>
      <trkpt lat="48.50755" lon="7.26012">
        <ele>278</ele>
        <time>2016-06-03T06:51:54Z</time>
      </trkpt>
      <trkpt lat="48.50764" lon="7.2604">
        <ele>276.6</ele>
        <time>2016-06-03T06:51:57Z</time>
      </trkpt>
      <trkpt lat="48.50773" lon="7.26066">
        <ele>275.7</ele>
        <time>2016-06-03T06:52:00Z</time>
      </trkpt>
      <trkpt lat="48.50784" lon="7.26095">
        <ele>274.6</ele>
        <time>2016-06-03T06:52:04Z</time>
      </trkpt>
      <trkpt lat="48.50795" lon="7.26127">
        <ele>273.9</ele>
        <time>2016-06-03T06:52:08Z</time>
      </trkpt>
      <trkpt lat="48.50805" lon="7.26151">
        <ele>275.4</ele>
        <time>2016-06-03T06:52:11Z</time>
      </trkpt>
      <trkpt lat="48.50814" lon="7.26176">
        <ele>276.4</ele>
        <time>2016-06-03T06:52:14Z</time>
      </trkpt>
      <trkpt lat="48.50824" lon="7.26202">
        <ele>276.5</ele>
        <time>2016-06-03T06:52:17Z</time>
      </trkpt>
      <trkpt lat="48.50832" lon="7.26229">
        <ele>276.6</ele>
        <time>2016-06-03T06:52:20Z</time>
      </trkpt>
      <trkpt lat="48.50838" lon="7.26256">
        <ele>276.3</ele>
        <time>2016-06-03T06:52:23Z</time>
      </trkpt>
      <trkpt lat="48.50842" lon="7.2629">
        <ele>275.3</ele>
        <time>2016-06-03T06:52:27Z</time>
      </trkpt>
      <trkpt lat="48.50843" lon="7.26324">
        <ele>274.7</ele>
        <time>2016-06-03T06:52:31Z</time>
      </trkpt>
      <trkpt lat="48.50842" lon="7.26357">
        <ele>273.9</ele>
        <time>2016-06-03T06:52:35Z</time>
      </trkpt>
      <trkpt lat="48.50839" lon="7.26391">
        <ele>273.2</ele>
        <time>2016-06-03T06:52:39Z</time>
      </trkpt>
      <trkpt lat="48.50835" lon="7.26426">
        <ele>272.6</ele>
        <time>2016-06-03T06:52:43Z</time>
      </trkpt>
      <trkpt lat="48.50832" lon="7.26453">
        <ele>272</ele>
        <time>2016-06-03T06:52:46Z</time>
      </trkpt>
      <trkpt lat="48.50829" lon="7.26483">
        <ele>271.8</ele>
        <time>2016-06-03T06:52:49Z</time>
      </trkpt>
      <trkpt lat="48.50826" lon="7.26513">
        <ele>271.8</ele>
        <time>2016-06-03T06:52:52Z</time>
      </trkpt>
      <trkpt lat="48.50821" lon="7.2654">
        <ele>271.6</ele>
        <time>2016-06-03T06:52:55Z</time>
      </trkpt>
      <trkpt lat="48.50817" lon="7.26573">
        <ele>271.1</ele>
        <time>2016-06-03T06:52:59Z</time>
      </trkpt>
      <trkpt lat="48.50812" lon="7.26606">
        <ele>270.7</ele>
        <time>2016-06-03T06:53:03Z</time>
      </trkpt>
      <trkpt lat="48.50811" lon="7.26639">
        <ele>270.4</ele>
        <time>2016-06-03T06:53:07Z</time>
      </trkpt>
      <trkpt lat="48.50816" lon="7.26672">
        <ele>270.5</ele>
        <time>2016-06-03T06:53:11Z</time>
      </trkpt>
      <trkpt lat="48.50821" lon="7.26707">
        <ele>270.6</ele>
        <time>2016-06-03T06:53:15Z</time>
      </trkpt>
      <trkpt lat="48.50827" lon="7.26742">
        <ele>270.5</ele>
        <time>2016-06-03T06:53:19Z</time>
      </trkpt>
      <trkpt lat="48.50834" lon="7.26775">
        <ele>270.4</ele>
        <time>2016-06-03T06:53:23Z</time>
      </trkpt>
      <trkpt lat="48.5084" lon="7.26805">
        <ele>270.2</ele>
        <time>2016-06-03T06:53:27Z</time>
      </trkpt>
      <trkpt lat="48.50845" lon="7.26833">
        <ele>270</ele>
        <time>2016-06-03T06:53:31Z</time>
      </trkpt>
      <trkpt lat="48.50851" lon="7.26861">
        <ele>269.7</ele>
        <time>2016-06-03T06:53:35Z</time>
      </trkpt>
      <trkpt lat="48.50859" lon="7.26889">
        <ele>269.6</ele>
        <time>2016-06-03T06:53:39Z</time>
      </trkpt>
      <trkpt lat="48.50863" lon="7.26902">
        <ele>269.7</ele>
        <time>2016-06-03T06:53:41Z</time>
      </trkpt>
      <trkpt lat="48.50876" lon="7.26922">
        <ele>269.9</ele>
        <time>2016-06-03T06:53:45Z</time>
      </trkpt>
      <trkpt lat="48.50888" lon="7.26931">
        <ele>269.7</ele>
        <time>2016-06-03T06:53:48Z</time>
      </trkpt>
      <trkpt lat="48.50907" lon="7.26943">
        <ele>269.4</ele>
        <time>2016-06-03T06:53:53Z</time>
      </trkpt>
      <trkpt lat="48.50925" lon="7.26956">
        <ele>269.1</ele>
        <time>2016-06-03T06:53:58Z</time>
      </trkpt>
      <trkpt lat="48.50943" lon="7.26967">
        <ele>268.9</ele>
        <time>2016-06-03T06:54:03Z</time>
      </trkpt>
      <trkpt lat="48.50962" lon="7.26976">
        <ele>268.8</ele>
        <time>2016-06-03T06:54:07Z</time>
      </trkpt>
      <trkpt lat="48.50979" lon="7.2699">
        <ele>268.8</ele>
        <time>2016-06-03T06:54:11Z</time>
      </trkpt>
      <trkpt lat="48.50989" lon="7.27001">
        <ele>268.9</ele>
        <time>2016-06-03T06:54:14Z</time>
      </trkpt>
      <trkpt lat="48.50998" lon="7.27026">
        <ele>269</ele>
        <time>2016-06-03T06:54:18Z</time>
      </trkpt>
      <trkpt lat="48.50998" lon="7.27047">
        <ele>269.1</ele>
        <time>2016-06-03T06:54:21Z</time>
      </trkpt>
      <trkpt lat="48.50997" lon="7.27078">
        <ele>269.7</ele>
        <time>2016-06-03T06:54:25Z</time>
      </trkpt>
      <trkpt lat="48.50996" lon="7.27109">
        <ele>270.3</ele>
        <time>2016-06-03T06:54:29Z</time>
      </trkpt>
      <trkpt lat="48.50993" lon="7.27141">
        <ele>270.8</ele>
        <time>2016-06-03T06:54:33Z</time>
      </trkpt>
      <trkpt lat="48.5099" lon="7.27172">
        <ele>271.5</ele>
        <time>2016-06-03T06:54:37Z</time>
      </trkpt>
      <trkpt lat="48.5099" lon="7.27202">
        <ele>272.5</ele>
        <time>2016-06-03T06:54:41Z</time>
      </trkpt>
      <trkpt lat="48.50991" lon="7.27232">
        <ele>272.5</ele>
        <time>2016-06-03T06:54:45Z</time>
      </trkpt>
      <trkpt lat="48.50993" lon="7.27266">
        <ele>272.3</ele>
        <time>2016-06-03T06:54:49Z</time>
      </trkpt>
      <trkpt lat="48.50994" lon="7.27302">
        <ele>271.8</ele>
        <time>2016-06-03T06:54:53Z</time>
      </trkpt>
      <trkpt lat="48.50997" lon="7.27329">
        <ele>270.9</ele>
        <time>2016-06-03T06:54:56Z</time>
      </trkpt>
      <trkpt lat="48.51" lon="7.27348">
        <ele>270.5</ele>
        <time>2016-06-03T06:54:58Z</time>
      </trkpt>
      <trkpt lat="48.51008" lon="7.27376">
        <ele>269.9</ele>
        <time>2016-06-03T06:55:01Z</time>
      </trkpt>
      <trkpt lat="48.51018" lon="7.27402">
        <ele>269.3</ele>
        <time>2016-06-03T06:55:04Z</time>
      </trkpt>
      <trkpt lat="48.51028" lon="7.27426">
        <ele>268.5</ele>
        <time>2016-06-03T06:55:07Z</time>
      </trkpt>
      <trkpt lat="48.51038" lon="7.27449">
        <ele>267.5</ele>
        <time>2016-06-03T06:55:10Z</time>
      </trkpt>
      <trkpt lat="48.51051" lon="7.27479">
        <ele>268.4</ele>
        <time>2016-06-03T06:55:14Z</time>
      </trkpt>
      <trkpt lat="48.51061" lon="7.27506">
        <ele>269.4</ele>
        <time>2016-06-03T06:55:18Z</time>
      </trkpt>
      <trkpt lat="48.51069" lon="7.27531">
        <ele>269.9</ele>
        <time>2016-06-03T06:55:22Z</time>
      </trkpt>
      <trkpt lat="48.51077" lon="7.27556">
        <ele>270.2</ele>
        <time>2016-06-03T06:55:27Z</time>
      </trkpt>
      <trkpt lat="48.51085" lon="7.27581">
        <ele>270.4</ele>
        <time>2016-06-03T06:55:33Z</time>
      </trkpt>
      <trkpt lat="48.51095" lon="7.27606">
        <ele>270.3</ele>
        <time>2016-06-03T06:55:40Z</time>
      </trkpt>
      <trkpt lat="48.51107" lon="7.27631">
        <ele>270.1</ele>
        <time>2016-06-03T06:55:46Z</time>
      </trkpt>
      <trkpt lat="48.51118" lon="7.27653">
        <ele>270.4</ele>
        <time>2016-06-03T06:55:51Z</time>
      </trkpt>
      <trkpt lat="48.51129" lon="7.27678">
        <ele>271</ele>
        <time>2016-06-03T06:55:57Z</time>
      </trkpt>
      <trkpt lat="48.5114" lon="7.277">
        <ele>272.1</ele>
        <time>2016-06-03T06:56:02Z</time>
      </trkpt>
      <trkpt lat="48.51151" lon="7.27724">
        <ele>272.8</ele>
        <time>2016-06-03T06:56:08Z</time>
      </trkpt>
      <trkpt lat="48.51163" lon="7.27749">
        <ele>273.3</ele>
        <time>2016-06-03T06:56:14Z</time>
      </trkpt>
      <trkpt lat="48.51174" lon="7.27773">
        <ele>273.2</ele>
        <time>2016-06-03T06:56:19Z</time>
      </trkpt>
      <trkpt lat="48.51187" lon="7.27799">
        <ele>272.8</ele>
        <time>2016-06-03T06:56:24Z</time>
      </trkpt>
      <trkpt lat="48.51198" lon="7.27821">
        <ele>272.2</ele>
        <time>2016-06-03T06:56:28Z</time>
      </trkpt>
      <trkpt lat="48.51212" lon="7.27848">
        <ele>271.1</ele>
        <time>2016-06-03T06:56:33Z</time>
      </trkpt>
      <trkpt lat="48.51223" lon="7.27869">
        <ele>271.1</ele>
        <time>2016-06-03T06:56:37Z</time>
      </trkpt>
      <trkpt lat="48.51237" lon="7.27893">
        <ele>271.7</ele>
        <time>2016-06-03T06:56:41Z</time>
      </trkpt>
      <trkpt lat="48.51246" lon="7.27913">
        <ele>271.7</ele>
        <time>2016-06-03T06:56:44Z</time>
      </trkpt>
      <trkpt lat="48.51257" lon="7.27946">
        <ele>270.7</ele>
        <time>2016-06-03T06:56:48Z</time>
      </trkpt>
      <trkpt lat="48.51266" lon="7.27971">
        <ele>269.8</ele>
        <time>2016-06-03T06:56:51Z</time>
      </trkpt>
      <trkpt lat="48.51276" lon="7.28004">
        <ele>268.6</ele>
        <time>2016-06-03T06:56:55Z</time>
      </trkpt>
      <trkpt lat="48.51285" lon="7.2803">
        <ele>267.5</ele>
        <time>2016-06-03T06:56:58Z</time>
      </trkpt>
      <trkpt lat="48.51296" lon="7.28057">
        <ele>266.9</ele>
        <time>2016-06-03T06:57:01Z</time>
      </trkpt>
      <trkpt lat="48.51309" lon="7.28084">
        <ele>267.6</ele>
        <time>2016-06-03T06:57:04Z</time>
      </trkpt>
      <trkpt lat="48.51322" lon="7.28109">
        <ele>267.7</ele>
        <time>2016-06-03T06:57:07Z</time>
      </trkpt>
      <trkpt lat="48.51334" lon="7.28131">
        <ele>267.5</ele>
        <time>2016-06-03T06:57:10Z</time>
      </trkpt>
      <trkpt lat="48.5135" lon="7.28157">
        <ele>267.5</ele>
        <time>2016-06-03T06:57:14Z</time>
      </trkpt>
      <trkpt lat="48.51365" lon="7.28179">
        <ele>267.1</ele>
        <time>2016-06-03T06:57:18Z</time>
      </trkpt>
      <trkpt lat="48.51381" lon="7.282">
        <ele>267</ele>
        <time>2016-06-03T06:57:23Z</time>
      </trkpt>
      <trkpt lat="48.51396" lon="7.28219">
        <ele>268.4</ele>
        <time>2016-06-03T06:57:28Z</time>
      </trkpt>
      <trkpt lat="48.51412" lon="7.28234">
        <ele>270.2</ele>
        <time>2016-06-03T06:57:33Z</time>
      </trkpt>
      <trkpt lat="48.51431" lon="7.28248">
        <ele>272</ele>
        <time>2016-06-03T06:57:39Z</time>
      </trkpt>
      <trkpt lat="48.51449" lon="7.28257">
        <ele>273.5</ele>
        <time>2016-06-03T06:57:44Z</time>
      </trkpt>
      <trkpt lat="48.51467" lon="7.28268">
        <ele>274.9</ele>
        <time>2016-06-03T06:57:50Z</time>
      </trkpt>
      <trkpt lat="48.51485" lon="7.28276">
        <ele>277</ele>
        <time>2016-06-03T06:57:56Z</time>
      </trkpt>
      <trkpt lat="48.51505" lon="7.28288">
        <ele>278.8</ele>
        <time>2016-06-03T06:58:02Z</time>
      </trkpt>
      <trkpt lat="48.51524" lon="7.28299">
        <ele>280.8</ele>
        <time>2016-06-03T06:58:07Z</time>
      </trkpt>
      <trkpt lat="48.51542" lon="7.28312">
        <ele>282.2</ele>
        <time>2016-06-03T06:58:12Z</time>
      </trkpt>
      <trkpt lat="48.5156" lon="7.28322">
        <ele>281.6</ele>
        <time>2016-06-03T06:58:17Z</time>
      </trkpt>
      <trkpt lat="48.51577" lon="7.28336">
        <ele>280.8</ele>
        <time>2016-06-03T06:58:22Z</time>
      </trkpt>
      <trkpt lat="48.51594" lon="7.28351">
        <ele>280.1</ele>
        <time>2016-06-03T06:58:27Z</time>
      </trkpt>
      <trkpt lat="48.51609" lon="7.28371">
        <ele>279.1</ele>
        <time>2016-06-03T06:58:31Z</time>
      </trkpt>
      <trkpt lat="48.51623" lon="7.28392">
        <ele>278.8</ele>
        <time>2016-06-03T06:58:35Z</time>
      </trkpt>
      <trkpt lat="48.51636" lon="7.28412">
        <ele>278.5</ele>
        <time>2016-06-03T06:58:39Z</time>
      </trkpt>
      <trkpt lat="48.51648" lon="7.28433">
        <ele>278</ele>
        <time>2016-06-03T06:58:44Z</time>
      </trkpt>
      <trkpt lat="48.51661" lon="7.28456">
        <ele>277.7</ele>
        <time>2016-06-03T06:58:50Z</time>
      </trkpt>
      <trkpt lat="48.51674" lon="7.28478">
        <ele>277.7</ele>
        <time>2016-06-03T06:58:56Z</time>
      </trkpt>
      <trkpt lat="48.51688" lon="7.28497">
        <ele>278.1</ele>
        <time>2016-06-03T06:59:02Z</time>
      </trkpt>
      <trkpt lat="48.51703" lon="7.28517">
        <ele>279</ele>
        <time>2016-06-03T06:59:08Z</time>
      </trkpt>
      <trkpt lat="48.51718" lon="7.28538">
        <ele>279.8</ele>
        <time>2016-06-03T06:59:14Z</time>
      </trkpt>
      <trkpt lat="48.51732" lon="7.28555">
        <ele>280.3</ele>
        <time>2016-06-03T06:59:19Z</time>
      </trkpt>
      <trkpt lat="48.51747" lon="7.28578">
        <ele>280.7</ele>
        <time>2016-06-03T06:59:25Z</time>
      </trkpt>
      <trkpt lat="48.51762" lon="7.28603">
        <ele>281.1</ele>
        <time>2016-06-03T06:59:30Z</time>
      </trkpt>
      <trkpt lat="48.51777" lon="7.28627">
        <ele>281.7</ele>
        <time>2016-06-03T06:59:34Z</time>
      </trkpt>
      <trkpt lat="48.51782" lon="7.28633">
        <ele>281.8</ele>
        <time>2016-06-03T06:59:35Z</time>
      </trkpt>
      <trkpt lat="48.51797" lon="7.28651">
        <ele>281.7</ele>
        <time>2016-06-03T06:59:38Z</time>
      </trkpt>
      <trkpt lat="48.51812" lon="7.28668">
        <ele>280.6</ele>
        <time>2016-06-03T06:59:41Z</time>
      </trkpt>
      <trkpt lat="48.5183" lon="7.28686">
        <ele>279.3</ele>
        <time>2016-06-03T06:59:44Z</time>
      </trkpt>
      <trkpt lat="48.5185" lon="7.28703">
        <ele>277.9</ele>
        <time>2016-06-03T06:59:47Z</time>
      </trkpt>
      <trkpt lat="48.51869" lon="7.28718">
        <ele>276.5</ele>
        <time>2016-06-03T06:59:50Z</time>
      </trkpt>
      <trkpt lat="48.51889" lon="7.28733">
        <ele>275.6</ele>
        <time>2016-06-03T06:59:53Z</time>
      </trkpt>
      <trkpt lat="48.51908" lon="7.28745">
        <ele>275.1</ele>
        <time>2016-06-03T06:59:56Z</time>
      </trkpt>
      <trkpt lat="48.51928" lon="7.28761">
        <ele>274.7</ele>
        <time>2016-06-03T07:00:00Z</time>
      </trkpt>
      <trkpt lat="48.51946" lon="7.28774">
        <ele>274.4</ele>
        <time>2016-06-03T07:00:04Z</time>
      </trkpt>
      <trkpt lat="48.51954" lon="7.28782">
        <ele>274.3</ele>
        <time>2016-06-03T07:00:06Z</time>
      </trkpt>
      <trkpt lat="48.51969" lon="7.28801">
        <ele>273.5</ele>
        <time>2016-06-03T07:00:10Z</time>
      </trkpt>
      <trkpt lat="48.51973" lon="7.28808">
        <ele>273.1</ele>
        <time>2016-06-03T07:00:11Z</time>
      </trkpt>
      <trkpt lat="48.51983" lon="7.28831">
        <ele>271.7</ele>
        <time>2016-06-03T07:00:14Z</time>
      </trkpt>
      <trkpt lat="48.51993" lon="7.28859">
        <ele>270.2</ele>
        <time>2016-06-03T07:00:17Z</time>
      </trkpt>
      <trkpt lat="48.52" lon="7.28891">
        <ele>268.8</ele>
        <time>2016-06-03T07:00:20Z</time>
      </trkpt>
      <trkpt lat="48.52006" lon="7.28925">
        <ele>267.7</ele>
        <time>2016-06-03T07:00:23Z</time>
      </trkpt>
      <trkpt lat="48.52011" lon="7.28959">
        <ele>266.5</ele>
        <time>2016-06-03T07:00:26Z</time>
      </trkpt>
      <trkpt lat="48.52016" lon="7.28995">
        <ele>264.6</ele>
        <time>2016-06-03T07:00:29Z</time>
      </trkpt>
      <trkpt lat="48.52022" lon="7.2902">
        <ele>263.3</ele>
        <time>2016-06-03T07:00:31Z</time>
      </trkpt>
      <trkpt lat="48.52036" lon="7.29054">
        <ele>262.1</ele>
        <time>2016-06-03T07:00:34Z</time>
      </trkpt>
      <trkpt lat="48.52056" lon="7.29081">
        <ele>260.6</ele>
        <time>2016-06-03T07:00:37Z</time>
      </trkpt>
      <trkpt lat="48.52063" lon="7.2909">
        <ele>260</ele>
        <time>2016-06-03T07:00:38Z</time>
      </trkpt>
      <trkpt lat="48.52077" lon="7.29107">
        <ele>258.8</ele>
        <time>2016-06-03T07:00:40Z</time>
      </trkpt>
      <trkpt lat="48.52097" lon="7.29131">
        <ele>257.5</ele>
        <time>2016-06-03T07:00:43Z</time>
      </trkpt>
      <trkpt lat="48.52114" lon="7.29157">
        <ele>256.4</ele>
        <time>2016-06-03T07:00:46Z</time>
      </trkpt>
      <trkpt lat="48.52122" lon="7.29176">
        <ele>255.8</ele>
        <time>2016-06-03T07:00:48Z</time>
      </trkpt>
      <trkpt lat="48.52128" lon="7.29206">
        <ele>255.4</ele>
        <time>2016-06-03T07:00:51Z</time>
      </trkpt>
      <trkpt lat="48.52134" lon="7.29234">
        <ele>255.9</ele>
        <time>2016-06-03T07:00:54Z</time>
      </trkpt>
      <trkpt lat="48.52141" lon="7.29264">
        <ele>256.7</ele>
        <time>2016-06-03T07:00:58Z</time>
      </trkpt>
      <trkpt lat="48.52149" lon="7.29289">
        <ele>257.6</ele>
        <time>2016-06-03T07:01:03Z</time>
      </trkpt>
      <trkpt lat="48.52161" lon="7.29315">
        <ele>258.4</ele>
        <time>2016-06-03T07:01:09Z</time>
      </trkpt>
      <trkpt lat="48.52173" lon="7.29339">
        <ele>259.3</ele>
        <time>2016-06-03T07:01:15Z</time>
      </trkpt>
      <trkpt lat="48.52184" lon="7.29367">
        <ele>260.1</ele>
        <time>2016-06-03T07:01:21Z</time>
      </trkpt>
      <trkpt lat="48.52193" lon="7.29392">
        <ele>260.4</ele>
        <time>2016-06-03T07:01:26Z</time>
      </trkpt>
      <trkpt lat="48.522" lon="7.29418">
        <ele>260</ele>
        <time>2016-06-03T07:01:31Z</time>
      </trkpt>
      <trkpt lat="48.52207" lon="7.29449">
        <ele>259.3</ele>
        <time>2016-06-03T07:01:36Z</time>
      </trkpt>
      <trkpt lat="48.5221" lon="7.29462">
        <ele>259.2</ele>
        <time>2016-06-03T07:01:38Z</time>
      </trkpt>
      <trkpt lat="48.52214" lon="7.29489">
        <ele>259.1</ele>
        <time>2016-06-03T07:01:42Z</time>
      </trkpt>
      <trkpt lat="48.52218" lon="7.2952">
        <ele>258.9</ele>
        <time>2016-06-03T07:01:47Z</time>
      </trkpt>
      <trkpt lat="48.52221" lon="7.29549">
        <ele>258.6</ele>
        <time>2016-06-03T07:01:52Z</time>
      </trkpt>
      <trkpt lat="48.52226" lon="7.29582">
        <ele>258.7</ele>
        <time>2016-06-03T07:01:57Z</time>
      </trkpt>
      <trkpt lat="48.5223" lon="7.29611">
        <ele>258.8</ele>
        <time>2016-06-03T07:02:01Z</time>
      </trkpt>
      <trkpt lat="48.52237" lon="7.29641">
        <ele>258.9</ele>
        <time>2016-06-03T07:02:05Z</time>
      </trkpt>
      <trkpt lat="48.52244" lon="7.29671">
        <ele>258.6</ele>
        <time>2016-06-03T07:02:09Z</time>
      </trkpt>
      <trkpt lat="48.52252" lon="7.29699">
        <ele>258.4</ele>
        <time>2016-06-03T07:02:13Z</time>
      </trkpt>
      <trkpt lat="48.52262" lon="7.29724">
        <ele>258.6</ele>
        <time>2016-06-03T07:02:17Z</time>
      </trkpt>
      <trkpt lat="48.52266" lon="7.29737">
        <ele>258.5</ele>
        <time>2016-06-03T07:02:19Z</time>
      </trkpt>
      <trkpt lat="48.52275" lon="7.29764">
        <ele>258</ele>
        <time>2016-06-03T07:02:23Z</time>
      </trkpt>
      <trkpt lat="48.52283" lon="7.29793">
        <ele>257</ele>
        <time>2016-06-03T07:02:27Z</time>
      </trkpt>
      <trkpt lat="48.52286" lon="7.29821">
        <ele>256</ele>
        <time>2016-06-03T07:02:31Z</time>
      </trkpt>
      <trkpt lat="48.52288" lon="7.29855">
        <ele>254.6</ele>
        <time>2016-06-03T07:02:36Z</time>
      </trkpt>
      <trkpt lat="48.52288" lon="7.29885">
        <ele>253.7</ele>
        <time>2016-06-03T07:02:40Z</time>
      </trkpt>
      <trkpt lat="48.52293" lon="7.29916">
        <ele>254.4</ele>
        <time>2016-06-03T07:02:44Z</time>
      </trkpt>
      <trkpt lat="48.52302" lon="7.29946">
        <ele>256.4</ele>
        <time>2016-06-03T07:02:48Z</time>
      </trkpt>
      <trkpt lat="48.52311" lon="7.29974">
        <ele>258</ele>
        <time>2016-06-03T07:02:52Z</time>
      </trkpt>
      <trkpt lat="48.52322" lon="7.30001">
        <ele>259.3</ele>
        <time>2016-06-03T07:02:56Z</time>
      </trkpt>
      <trkpt lat="48.52327" lon="7.30013">
        <ele>259.6</ele>
        <time>2016-06-03T07:02:58Z</time>
      </trkpt>
      <trkpt lat="48.52337" lon="7.30039">
        <ele>260.1</ele>
        <time>2016-06-03T07:03:02Z</time>
      </trkpt>
      <trkpt lat="48.52347" lon="7.30064">
        <ele>259.9</ele>
        <time>2016-06-03T07:03:06Z</time>
      </trkpt>
      <trkpt lat="48.52356" lon="7.30079">
        <ele>259.9</ele>
        <time>2016-06-03T07:03:09Z</time>
      </trkpt>
      <trkpt lat="48.52367" lon="7.30104">
        <ele>259.1</ele>
        <time>2016-06-03T07:03:15Z</time>
      </trkpt>
      <trkpt lat="48.52378" lon="7.30133">
        <ele>258</ele>
        <time>2016-06-03T07:03:20Z</time>
      </trkpt>
      <trkpt lat="48.52381" lon="7.30148">
        <ele>258</ele>
        <time>2016-06-03T07:03:22Z</time>
      </trkpt>
      <trkpt lat="48.52385" lon="7.30178">
        <ele>256.7</ele>
        <time>2016-06-03T07:03:26Z</time>
      </trkpt>
      <trkpt lat="48.52384" lon="7.30185">
        <ele>256.1</ele>
        <time>2016-06-03T07:03:27Z</time>
      </trkpt>
      <trkpt lat="48.52387" lon="7.30215">
        <ele>255.1</ele>
        <time>2016-06-03T07:03:31Z</time>
      </trkpt>
      <trkpt lat="48.52387" lon="7.30245">
        <ele>254.9</ele>
        <time>2016-06-03T07:03:35Z</time>
      </trkpt>
      <trkpt lat="48.52392" lon="7.30268">
        <ele>255.9</ele>
        <time>2016-06-03T07:03:38Z</time>
      </trkpt>
      <trkpt lat="48.52398" lon="7.30299">
        <ele>257</ele>
        <time>2016-06-03T07:03:42Z</time>
      </trkpt>
      <trkpt lat="48.52397" lon="7.30328">
        <ele>256.8</ele>
        <time>2016-06-03T07:03:46Z</time>
      </trkpt>
      <trkpt lat="48.52397" lon="7.30356">
        <ele>256.6</ele>
        <time>2016-06-03T07:03:50Z</time>
      </trkpt>
      <trkpt lat="48.52393" lon="7.30385">
        <ele>255.6</ele>
        <time>2016-06-03T07:03:54Z</time>
      </trkpt>
      <trkpt lat="48.52387" lon="7.30413">
        <ele>253.8</ele>
        <time>2016-06-03T07:03:58Z</time>
      </trkpt>
      <trkpt lat="48.52383" lon="7.30441">
        <ele>252.5</ele>
        <time>2016-06-03T07:04:02Z</time>
      </trkpt>
      <trkpt lat="48.52375" lon="7.30468">
        <ele>250.6</ele>
        <time>2016-06-03T07:04:06Z</time>
      </trkpt>
      <trkpt lat="48.52368" lon="7.30497">
        <ele>251.7</ele>
        <time>2016-06-03T07:04:11Z</time>
      </trkpt>
      <trkpt lat="48.5236" lon="7.30527">
        <ele>252.5</ele>
        <time>2016-06-03T07:04:16Z</time>
      </trkpt>
      <trkpt lat="48.52354" lon="7.30556">
        <ele>252.6</ele>
        <time>2016-06-03T07:04:20Z</time>
      </trkpt>
      <trkpt lat="48.52354" lon="7.30593">
        <ele>253.3</ele>
        <time>2016-06-03T07:04:24Z</time>
      </trkpt>
      <trkpt lat="48.52359" lon="7.30624">
        <ele>254.5</ele>
        <time>2016-06-03T07:04:27Z</time>
      </trkpt>
      <trkpt lat="48.52365" lon="7.30657">
        <ele>253.7</ele>
        <time>2016-06-03T07:04:30Z</time>
      </trkpt>
      <trkpt lat="48.52371" lon="7.3069">
        <ele>252.7</ele>
        <time>2016-06-03T07:04:33Z</time>
      </trkpt>
      <trkpt lat="48.5238" lon="7.30719">
        <ele>252.7</ele>
        <time>2016-06-03T07:04:36Z</time>
      </trkpt>
      <trkpt lat="48.52383" lon="7.30729">
        <ele>253.2</ele>
        <time>2016-06-03T07:04:37Z</time>
      </trkpt>
      <trkpt lat="48.52395" lon="7.30759">
        <ele>254</ele>
        <time>2016-06-03T07:04:40Z</time>
      </trkpt>
      <trkpt lat="48.5241" lon="7.3079">
        <ele>254.8</ele>
        <time>2016-06-03T07:04:43Z</time>
      </trkpt>
      <trkpt lat="48.52425" lon="7.30823">
        <ele>254.1</ele>
        <time>2016-06-03T07:04:46Z</time>
      </trkpt>
      <trkpt lat="48.52438" lon="7.30855">
        <ele>252.2</ele>
        <time>2016-06-03T07:04:49Z</time>
      </trkpt>
      <trkpt lat="48.52451" lon="7.30888">
        <ele>250.1</ele>
        <time>2016-06-03T07:04:52Z</time>
      </trkpt>
      <trkpt lat="48.52461" lon="7.30922">
        <ele>248.8</ele>
        <time>2016-06-03T07:04:55Z</time>
      </trkpt>
      <trkpt lat="48.52471" lon="7.30957">
        <ele>248.1</ele>
        <time>2016-06-03T07:04:58Z</time>
      </trkpt>
      <trkpt lat="48.5248" lon="7.30995">
        <ele>247.8</ele>
        <time>2016-06-03T07:05:01Z</time>
      </trkpt>
      <trkpt lat="48.52484" lon="7.31022">
        <ele>247</ele>
        <time>2016-06-03T07:05:03Z</time>
      </trkpt>
      <trkpt lat="48.52491" lon="7.31061">
        <ele>246.3</ele>
        <time>2016-06-03T07:05:06Z</time>
      </trkpt>
      <trkpt lat="48.52496" lon="7.31087">
        <ele>246.2</ele>
        <time>2016-06-03T07:05:08Z</time>
      </trkpt>
      <trkpt lat="48.52501" lon="7.31126">
        <ele>245.6</ele>
        <time>2016-06-03T07:05:11Z</time>
      </trkpt>
      <trkpt lat="48.52508" lon="7.31162">
        <ele>246</ele>
        <time>2016-06-03T07:05:14Z</time>
      </trkpt>
      <trkpt lat="48.52511" lon="7.31196">
        <ele>246.2</ele>
        <time>2016-06-03T07:05:17Z</time>
      </trkpt>
      <trkpt lat="48.52515" lon="7.31225">
        <ele>246.5</ele>
        <time>2016-06-03T07:05:20Z</time>
      </trkpt>
      <trkpt lat="48.5252" lon="7.31254">
        <ele>246.8</ele>
        <time>2016-06-03T07:05:24Z</time>
      </trkpt>
      <trkpt lat="48.52523" lon="7.31282">
        <ele>247.1</ele>
        <time>2016-06-03T07:05:29Z</time>
      </trkpt>
      <trkpt lat="48.52526" lon="7.31311">
        <ele>247</ele>
        <time>2016-06-03T07:05:34Z</time>
      </trkpt>
      <trkpt lat="48.52529" lon="7.3134">
        <ele>246.8</ele>
        <time>2016-06-03T07:05:39Z</time>
      </trkpt>
      <trkpt lat="48.52533" lon="7.31368">
        <ele>246.7</ele>
        <time>2016-06-03T07:05:44Z</time>
      </trkpt>
      <trkpt lat="48.52539" lon="7.31397">
        <ele>246.6</ele>
        <time>2016-06-03T07:05:49Z</time>
      </trkpt>
      <trkpt lat="48.52545" lon="7.31428">
        <ele>246.8</ele>
        <time>2016-06-03T07:05:54Z</time>
      </trkpt>
      <trkpt lat="48.52551" lon="7.31454">
        <ele>247.2</ele>
        <time>2016-06-03T07:05:59Z</time>
      </trkpt>
      <trkpt lat="48.52558" lon="7.31481">
        <ele>247.1</ele>
        <time>2016-06-03T07:06:04Z</time>
      </trkpt>
      <trkpt lat="48.52565" lon="7.3151">
        <ele>247</ele>
        <time>2016-06-03T07:06:09Z</time>
      </trkpt>
      <trkpt lat="48.52572" lon="7.31539">
        <ele>246.7</ele>
        <time>2016-06-03T07:06:14Z</time>
      </trkpt>
      <trkpt lat="48.5258" lon="7.31572">
        <ele>246.5</ele>
        <time>2016-06-03T07:06:19Z</time>
      </trkpt>
      <trkpt lat="48.52586" lon="7.31603">
        <ele>246.1</ele>
        <time>2016-06-03T07:06:24Z</time>
      </trkpt>
      <trkpt lat="48.52593" lon="7.31632">
        <ele>245.7</ele>
        <time>2016-06-03T07:06:29Z</time>
      </trkpt>
      <trkpt lat="48.52596" lon="7.31661">
        <ele>245.4</ele>
        <time>2016-06-03T07:06:34Z</time>
      </trkpt>
      <trkpt lat="48.52597" lon="7.31689">
        <ele>244.8</ele>
        <time>2016-06-03T07:06:38Z</time>
      </trkpt>
      <trkpt lat="48.52601" lon="7.31722">
        <ele>244.2</ele>
        <time>2016-06-03T07:06:42Z</time>
      </trkpt>
      <trkpt lat="48.52605" lon="7.31754">
        <ele>243.4</ele>
        <time>2016-06-03T07:06:46Z</time>
      </trkpt>
      <trkpt lat="48.52607" lon="7.31785">
        <ele>242.6</ele>
        <time>2016-06-03T07:06:50Z</time>
      </trkpt>
      <trkpt lat="48.52608" lon="7.31819">
        <ele>242.1</ele>
        <time>2016-06-03T07:06:54Z</time>
      </trkpt>
      <trkpt lat="48.52606" lon="7.31847">
        <ele>241.8</ele>
        <time>2016-06-03T07:06:57Z</time>
      </trkpt>
      <trkpt lat="48.52605" lon="7.31876">
        <ele>241.5</ele>
        <time>2016-06-03T07:07:00Z</time>
      </trkpt>
      <trkpt lat="48.52606" lon="7.31906">
        <ele>241.1</ele>
        <time>2016-06-03T07:07:03Z</time>
      </trkpt>
      <trkpt lat="48.52609" lon="7.31934">
        <ele>240.8</ele>
        <time>2016-06-03T07:07:06Z</time>
      </trkpt>
      <trkpt lat="48.52616" lon="7.31961">
        <ele>240.7</ele>
        <time>2016-06-03T07:07:09Z</time>
      </trkpt>
      <trkpt lat="48.52622" lon="7.31995">
        <ele>240.5</ele>
        <time>2016-06-03T07:07:13Z</time>
      </trkpt>
      <trkpt lat="48.52628" lon="7.32027">
        <ele>240.4</ele>
        <time>2016-06-03T07:07:17Z</time>
      </trkpt>
      <trkpt lat="48.52636" lon="7.32052">
        <ele>240.8</ele>
        <time>2016-06-03T07:07:20Z</time>
      </trkpt>
      <trkpt lat="48.52643" lon="7.32084">
        <ele>241</ele>
        <time>2016-06-03T07:07:24Z</time>
      </trkpt>
      <trkpt lat="48.52646" lon="7.32113">
        <ele>240.9</ele>
        <time>2016-06-03T07:07:28Z</time>
      </trkpt>
      <trkpt lat="48.52649" lon="7.32143">
        <ele>240.9</ele>
        <time>2016-06-03T07:07:32Z</time>
      </trkpt>
      <trkpt lat="48.52649" lon="7.32175">
        <ele>240.7</ele>
        <time>2016-06-03T07:07:36Z</time>
      </trkpt>
      <trkpt lat="48.52648" lon="7.3221">
        <ele>240.4</ele>
        <time>2016-06-03T07:07:40Z</time>
      </trkpt>
      <trkpt lat="48.52647" lon="7.32244">
        <ele>240</ele>
        <time>2016-06-03T07:07:44Z</time>
      </trkpt>
      <trkpt lat="48.52647" lon="7.32275">
        <ele>239.7</ele>
        <time>2016-06-03T07:07:48Z</time>
      </trkpt>
      <trkpt lat="48.52649" lon="7.32306">
        <ele>239.4</ele>
        <time>2016-06-03T07:07:52Z</time>
      </trkpt>
      <trkpt lat="48.52652" lon="7.32338">
        <ele>239.1</ele>
        <time>2016-06-03T07:07:56Z</time>
      </trkpt>
      <trkpt lat="48.52658" lon="7.3237">
        <ele>238.9</ele>
        <time>2016-06-03T07:08:00Z</time>
      </trkpt>
      <trkpt lat="48.52664" lon="7.324">
        <ele>239.2</ele>
        <time>2016-06-03T07:08:04Z</time>
      </trkpt>
      <trkpt lat="48.52671" lon="7.3243">
        <ele>239.8</ele>
        <time>2016-06-03T07:08:08Z</time>
      </trkpt>
      <trkpt lat="48.52676" lon="7.32459">
        <ele>240.4</ele>
        <time>2016-06-03T07:08:12Z</time>
      </trkpt>
      <trkpt lat="48.52677" lon="7.32489">
        <ele>240.4</ele>
        <time>2016-06-03T07:08:16Z</time>
      </trkpt>
      <trkpt lat="48.52675" lon="7.32521">
        <ele>240.3</ele>
        <time>2016-06-03T07:08:20Z</time>
      </trkpt>
      <trkpt lat="48.52672" lon="7.32544">
        <ele>240.1</ele>
        <time>2016-06-03T07:08:23Z</time>
      </trkpt>
      <trkpt lat="48.52664" lon="7.32573">
        <ele>239.4</ele>
        <time>2016-06-03T07:08:27Z</time>
      </trkpt>
      <trkpt lat="48.52656" lon="7.32602">
        <ele>238.6</ele>
        <time>2016-06-03T07:08:31Z</time>
      </trkpt>
      <trkpt lat="48.52649" lon="7.3263">
        <ele>237.9</ele>
        <time>2016-06-03T07:08:35Z</time>
      </trkpt>
      <trkpt lat="48.52646" lon="7.32658">
        <ele>237.8</ele>
        <time>2016-06-03T07:08:39Z</time>
      </trkpt>
      <trkpt lat="48.5264" lon="7.32689">
        <ele>237.7</ele>
        <time>2016-06-03T07:08:44Z</time>
      </trkpt>
      <trkpt lat="48.52638" lon="7.32695">
        <ele>237.6</ele>
        <time>2016-06-03T07:08:45Z</time>
      </trkpt>
      <trkpt lat="48.52635" lon="7.32708">
        <ele>237.5</ele>
        <time>2016-06-03T07:08:47Z</time>
      </trkpt>
      <trkpt lat="48.52629" lon="7.32736">
        <ele>237.2</ele>
        <time>2016-06-03T07:08:51Z</time>
      </trkpt>
      <trkpt lat="48.52626" lon="7.32762">
        <ele>237</ele>
        <time>2016-06-03T07:08:55Z</time>
      </trkpt>
      <trkpt lat="48.52625" lon="7.32792">
        <ele>237</ele>
        <time>2016-06-03T07:08:59Z</time>
      </trkpt>
      <trkpt lat="48.52622" lon="7.32822">
        <ele>236.9</ele>
        <time>2016-06-03T07:09:03Z</time>
      </trkpt>
      <trkpt lat="48.52617" lon="7.32855">
        <ele>236.8</ele>
        <time>2016-06-03T07:09:07Z</time>
      </trkpt>
      <trkpt lat="48.5261" lon="7.32889">
        <ele>236.6</ele>
        <time>2016-06-03T07:09:11Z</time>
      </trkpt>
      <trkpt lat="48.52605" lon="7.32916">
        <ele>236.5</ele>
        <time>2016-06-03T07:09:14Z</time>
      </trkpt>
      <trkpt lat="48.52602" lon="7.32945">
        <ele>236.4</ele>
        <time>2016-06-03T07:09:17Z</time>
      </trkpt>
      <trkpt lat="48.526" lon="7.32972">
        <ele>236.3</ele>
        <time>2016-06-03T07:09:20Z</time>
      </trkpt>
      <trkpt lat="48.52598" lon="7.33001">
        <ele>236</ele>
        <time>2016-06-03T07:09:24Z</time>
      </trkpt>
      <trkpt lat="48.52596" lon="7.33029">
        <ele>235.7</ele>
        <time>2016-06-03T07:09:28Z</time>
      </trkpt>
      <trkpt lat="48.52595" lon="7.33059">
        <ele>235.8</ele>
        <time>2016-06-03T07:09:32Z</time>
      </trkpt>
      <trkpt lat="48.52594" lon="7.33089">
        <ele>236.2</ele>
        <time>2016-06-03T07:09:36Z</time>
      </trkpt>
      <trkpt lat="48.52594" lon="7.33121">
        <ele>236.6</ele>
        <time>2016-06-03T07:09:40Z</time>
      </trkpt>
      <trkpt lat="48.52594" lon="7.33154">
        <ele>236.6</ele>
        <time>2016-06-03T07:09:44Z</time>
      </trkpt>
      <trkpt lat="48.52596" lon="7.33187">
        <ele>236.6</ele>
        <time>2016-06-03T07:09:48Z</time>
      </trkpt>
      <trkpt lat="48.526" lon="7.33218">
        <ele>236.7</ele>
        <time>2016-06-03T07:09:52Z</time>
      </trkpt>
      <trkpt lat="48.52605" lon="7.33247">
        <ele>236.8</ele>
        <time>2016-06-03T07:09:56Z</time>
      </trkpt>
      <trkpt lat="48.52611" lon="7.33275">
        <ele>236.8</ele>
        <time>2016-06-03T07:10:00Z</time>
      </trkpt>
      <trkpt lat="48.52618" lon="7.33301">
        <ele>236.7</ele>
        <time>2016-06-03T07:10:04Z</time>
      </trkpt>
      <trkpt lat="48.52625" lon="7.33328">
        <ele>236.1</ele>
        <time>2016-06-03T07:10:08Z</time>
      </trkpt>
      <trkpt lat="48.52632" lon="7.33355">
        <ele>235.8</ele>
        <time>2016-06-03T07:10:12Z</time>
      </trkpt>
      <trkpt lat="48.52637" lon="7.33376">
        <ele>235.6</ele>
        <time>2016-06-03T07:10:15Z</time>
      </trkpt>
      <trkpt lat="48.5264" lon="7.33403">
        <ele>235.5</ele>
        <time>2016-06-03T07:10:19Z</time>
      </trkpt>
      <trkpt lat="48.52642" lon="7.33431">
        <ele>235.4</ele>
        <time>2016-06-03T07:10:23Z</time>
      </trkpt>
      <trkpt lat="48.52645" lon="7.3346">
        <ele>235.4</ele>
        <time>2016-06-03T07:10:27Z</time>
      </trkpt>
      <trkpt lat="48.52649" lon="7.33494">
        <ele>235.3</ele>
        <time>2016-06-03T07:10:31Z</time>
      </trkpt>
      <trkpt lat="48.52653" lon="7.33528">
        <ele>235.2</ele>
        <time>2016-06-03T07:10:35Z</time>
      </trkpt>
      <trkpt lat="48.52658" lon="7.3356">
        <ele>235.2</ele>
        <time>2016-06-03T07:10:39Z</time>
      </trkpt>
      <trkpt lat="48.52661" lon="7.3359">
        <ele>235.1</ele>
        <time>2016-06-03T07:10:43Z</time>
      </trkpt>
      <trkpt lat="48.52666" lon="7.33618">
        <ele>235</ele>
        <time>2016-06-03T07:10:47Z</time>
      </trkpt>
      <trkpt lat="48.52671" lon="7.33645">
        <ele>235.3</ele>
        <time>2016-06-03T07:10:51Z</time>
      </trkpt>
      <trkpt lat="48.52676" lon="7.33671">
        <ele>235.8</ele>
        <time>2016-06-03T07:10:55Z</time>
      </trkpt>
      <trkpt lat="48.52681" lon="7.33698">
        <ele>236.3</ele>
        <time>2016-06-03T07:10:59Z</time>
      </trkpt>
      <trkpt lat="48.52686" lon="7.3373">
        <ele>236.9</ele>
        <time>2016-06-03T07:11:04Z</time>
      </trkpt>
      <trkpt lat="48.52688" lon="7.33757">
        <ele>237.2</ele>
        <time>2016-06-03T07:11:08Z</time>
      </trkpt>
      <trkpt lat="48.52688" lon="7.3379">
        <ele>237.5</ele>
        <time>2016-06-03T07:11:13Z</time>
      </trkpt>
      <trkpt lat="48.52685" lon="7.33817">
        <ele>237.1</ele>
        <time>2016-06-03T07:11:17Z</time>
      </trkpt>
      <trkpt lat="48.52682" lon="7.33845">
        <ele>236.7</ele>
        <time>2016-06-03T07:11:21Z</time>
      </trkpt>
      <trkpt lat="48.5268" lon="7.33874">
        <ele>236.3</ele>
        <time>2016-06-03T07:11:25Z</time>
      </trkpt>
      <trkpt lat="48.52679" lon="7.33905">
        <ele>236.1</ele>
        <time>2016-06-03T07:11:29Z</time>
      </trkpt>
      <trkpt lat="48.52679" lon="7.33937">
        <ele>236</ele>
        <time>2016-06-03T07:11:33Z</time>
      </trkpt>
      <trkpt lat="48.5268" lon="7.33965">
        <ele>236</ele>
        <time>2016-06-03T07:11:37Z</time>
      </trkpt>
      <trkpt lat="48.52681" lon="7.33998">
        <ele>236.2</ele>
        <time>2016-06-03T07:11:42Z</time>
      </trkpt>
      <trkpt lat="48.52683" lon="7.34031">
        <ele>236.4</ele>
        <time>2016-06-03T07:11:47Z</time>
      </trkpt>
      <trkpt lat="48.52684" lon="7.34062">
        <ele>236.4</ele>
        <time>2016-06-03T07:11:52Z</time>
      </trkpt>
      <trkpt lat="48.52683" lon="7.34089">
        <ele>236.1</ele>
        <time>2016-06-03T07:11:59Z</time>
      </trkpt>
      <trkpt lat="48.52683" lon="7.34093">
        <ele>236.1</ele>
        <time>2016-06-03T07:12:03Z</time>
      </trkpt>
      <trkpt lat="48.52684" lon="7.34105">
        <ele>236.1</ele>
        <time>2016-06-03T07:49:18Z</time>
      </trkpt>
      <trkpt lat="48.52684" lon="7.34105">
        <ele>236.1</ele>
        <time>2016-06-03T07:49:19Z</time>
      </trkpt>
      <trkpt lat="48.52684" lon="7.3411">
        <ele>236.1</ele>
        <time>2016-06-03T07:49:23Z</time>
      </trkpt>
      <trkpt lat="48.52681" lon="7.34139">
        <ele>235.7</ele>
        <time>2016-06-03T07:49:33Z</time>
      </trkpt>
      <trkpt lat="48.52679" lon="7.34166">
        <ele>235.5</ele>
        <time>2016-06-03T07:49:41Z</time>
      </trkpt>
      <trkpt lat="48.52679" lon="7.34195">
        <ele>235.6</ele>
        <time>2016-06-03T07:49:51Z</time>
      </trkpt>
      <trkpt lat="48.52678" lon="7.34223">
        <ele>235.6</ele>
        <time>2016-06-03T07:49:59Z</time>
      </trkpt>
      <trkpt lat="48.52676" lon="7.3425">
        <ele>235.7</ele>
        <time>2016-06-03T07:50:06Z</time>
      </trkpt>
      <trkpt lat="48.52676" lon="7.34281">
        <ele>236</ele>
        <time>2016-06-03T07:50:13Z</time>
      </trkpt>
      <trkpt lat="48.52676" lon="7.34311">
        <ele>235.9</ele>
        <time>2016-06-03T07:50:19Z</time>
      </trkpt>
      <trkpt lat="48.52676" lon="7.34342">
        <ele>235.8</ele>
        <time>2016-06-03T07:50:25Z</time>
      </trkpt>
      <trkpt lat="48.52677" lon="7.34372">
        <ele>235.7</ele>
        <time>2016-06-03T07:50:31Z</time>
      </trkpt>
      <trkpt lat="48.52677" lon="7.34402">
        <ele>235.9</ele>
        <time>2016-06-03T07:50:37Z</time>
      </trkpt>
      <trkpt lat="48.52677" lon="7.34433">
        <ele>236</ele>
        <time>2016-06-03T07:50:43Z</time>
      </trkpt>
      <trkpt lat="48.52674" lon="7.34465">
        <ele>235.9</ele>
        <time>2016-06-03T07:50:49Z</time>
      </trkpt>
      <trkpt lat="48.52668" lon="7.34493">
        <ele>235.2</ele>
        <time>2016-06-03T07:50:54Z</time>
      </trkpt>
      <trkpt lat="48.52658" lon="7.34521">
        <ele>234.2</ele>
        <time>2016-06-03T07:50:59Z</time>
      </trkpt>
      <trkpt lat="48.52648" lon="7.34545">
        <ele>233.4</ele>
        <time>2016-06-03T07:51:03Z</time>
      </trkpt>
      <trkpt lat="48.52636" lon="7.34571">
        <ele>233</ele>
        <time>2016-06-03T07:51:08Z</time>
      </trkpt>
      <trkpt lat="48.52624" lon="7.34597">
        <ele>232.6</ele>
        <time>2016-06-03T07:51:13Z</time>
      </trkpt>
      <trkpt lat="48.52614" lon="7.34624">
        <ele>232.7</ele>
        <time>2016-06-03T07:51:21Z</time>
      </trkpt>
      <trkpt lat="48.52604" lon="7.34646">
        <ele>232.4</ele>
        <time>2016-06-03T07:51:27Z</time>
      </trkpt>
      <trkpt lat="48.52594" lon="7.34657">
        <ele>232</ele>
        <time>2016-06-03T07:51:30Z</time>
      </trkpt>
      <trkpt lat="48.52582" lon="7.3468">
        <ele>231.3</ele>
        <time>2016-06-03T07:51:34Z</time>
      </trkpt>
      <trkpt lat="48.52571" lon="7.3471">
        <ele>230.4</ele>
        <time>2016-06-03T07:51:38Z</time>
      </trkpt>
      <trkpt lat="48.52562" lon="7.3474">
        <ele>229.7</ele>
        <time>2016-06-03T07:51:42Z</time>
      </trkpt>
      <trkpt lat="48.52551" lon="7.34769">
        <ele>228.8</ele>
        <time>2016-06-03T07:51:46Z</time>
      </trkpt>
      <trkpt lat="48.5254" lon="7.34798">
        <ele>228</ele>
        <time>2016-06-03T07:51:50Z</time>
      </trkpt>
      <trkpt lat="48.52529" lon="7.34827">
        <ele>227.8</ele>
        <time>2016-06-03T07:51:54Z</time>
      </trkpt>
      <trkpt lat="48.5252" lon="7.34856">
        <ele>227.5</ele>
        <time>2016-06-03T07:51:58Z</time>
      </trkpt>
      <trkpt lat="48.52514" lon="7.34885">
        <ele>227.4</ele>
        <time>2016-06-03T07:52:02Z</time>
      </trkpt>
      <trkpt lat="48.52509" lon="7.34913">
        <ele>227.4</ele>
        <time>2016-06-03T07:52:06Z</time>
      </trkpt>
      <trkpt lat="48.52505" lon="7.34941">
        <ele>227.5</ele>
        <time>2016-06-03T07:52:10Z</time>
      </trkpt>
      <trkpt lat="48.525" lon="7.34969">
        <ele>227.7</ele>
        <time>2016-06-03T07:52:14Z</time>
      </trkpt>
      <trkpt lat="48.52495" lon="7.34996">
        <ele>228.4</ele>
        <time>2016-06-03T07:52:18Z</time>
      </trkpt>
      <trkpt lat="48.52489" lon="7.35027">
        <ele>229.2</ele>
        <time>2016-06-03T07:52:23Z</time>
      </trkpt>
      <trkpt lat="48.52484" lon="7.35056">
        <ele>229.9</ele>
        <time>2016-06-03T07:52:28Z</time>
      </trkpt>
      <trkpt lat="48.52478" lon="7.35087">
        <ele>230.4</ele>
        <time>2016-06-03T07:52:33Z</time>
      </trkpt>
      <trkpt lat="48.52473" lon="7.35119">
        <ele>230.9</ele>
        <time>2016-06-03T07:52:38Z</time>
      </trkpt>
      <trkpt lat="48.52469" lon="7.35151">
        <ele>230.9</ele>
        <time>2016-06-03T07:52:43Z</time>
      </trkpt>
      <trkpt lat="48.52467" lon="7.35182">
        <ele>230.8</ele>
        <time>2016-06-03T07:52:48Z</time>
      </trkpt>
      <trkpt lat="48.52468" lon="7.35216">
        <ele>230.7</ele>
        <time>2016-06-03T07:52:53Z</time>
      </trkpt>
      <trkpt lat="48.5247" lon="7.35245">
        <ele>230.6</ele>
        <time>2016-06-03T07:52:57Z</time>
      </trkpt>
      <trkpt lat="48.52473" lon="7.35275">
        <ele>230.7</ele>
        <time>2016-06-03T07:53:01Z</time>
      </trkpt>
      <trkpt lat="48.52479" lon="7.35305">
        <ele>231.1</ele>
        <time>2016-06-03T07:53:05Z</time>
      </trkpt>
      <trkpt lat="48.52486" lon="7.35335">
        <ele>231.8</ele>
        <time>2016-06-03T07:53:09Z</time>
      </trkpt>
      <trkpt lat="48.52492" lon="7.35366">
        <ele>232.5</ele>
        <time>2016-06-03T07:53:13Z</time>
      </trkpt>
      <trkpt lat="48.52499" lon="7.35396">
        <ele>232.8</ele>
        <time>2016-06-03T07:53:17Z</time>
      </trkpt>
      <trkpt lat="48.52507" lon="7.35425">
        <ele>233</ele>
        <time>2016-06-03T07:53:21Z</time>
      </trkpt>
      <trkpt lat="48.52514" lon="7.35456">
        <ele>233.1</ele>
        <time>2016-06-03T07:53:25Z</time>
      </trkpt>
      <trkpt lat="48.52517" lon="7.35479">
        <ele>233.6</ele>
        <time>2016-06-03T07:53:28Z</time>
      </trkpt>
      <trkpt lat="48.52515" lon="7.35511">
        <ele>233.6</ele>
        <time>2016-06-03T07:53:32Z</time>
      </trkpt>
      <trkpt lat="48.52515" lon="7.35543">
        <ele>233.7</ele>
        <time>2016-06-03T07:53:36Z</time>
      </trkpt>
      <trkpt lat="48.52514" lon="7.35551">
        <ele>233.6</ele>
        <time>2016-06-03T07:53:37Z</time>
      </trkpt>
      <trkpt lat="48.52511" lon="7.35578">
        <ele>233.2</ele>
        <time>2016-06-03T07:53:41Z</time>
      </trkpt>
      <trkpt lat="48.52507" lon="7.35608">
        <ele>232.6</ele>
        <time>2016-06-03T07:53:47Z</time>
      </trkpt>
      <trkpt lat="48.52499" lon="7.3564">
        <ele>231.9</ele>
        <time>2016-06-03T07:53:52Z</time>
      </trkpt>
      <trkpt lat="48.52493" lon="7.35652">
        <ele>231.4</ele>
        <time>2016-06-03T07:53:54Z</time>
      </trkpt>
      <trkpt lat="48.5248" lon="7.35676">
        <ele>230</ele>
        <time>2016-06-03T07:53:58Z</time>
      </trkpt>
      <trkpt lat="48.52469" lon="7.357">
        <ele>228.4</ele>
        <time>2016-06-03T07:54:02Z</time>
      </trkpt>
      <trkpt lat="48.52459" lon="7.35726">
        <ele>227.7</ele>
        <time>2016-06-03T07:54:06Z</time>
      </trkpt>
      <trkpt lat="48.52449" lon="7.35753">
        <ele>228.2</ele>
        <time>2016-06-03T07:54:10Z</time>
      </trkpt>
      <trkpt lat="48.52438" lon="7.3578">
        <ele>228.7</ele>
        <time>2016-06-03T07:54:15Z</time>
      </trkpt>
      <trkpt lat="48.52434" lon="7.35809">
        <ele>229.2</ele>
        <time>2016-06-03T07:54:20Z</time>
      </trkpt>
      <trkpt lat="48.52434" lon="7.35843">
        <ele>229.9</ele>
        <time>2016-06-03T07:54:25Z</time>
      </trkpt>
      <trkpt lat="48.52432" lon="7.35871">
        <ele>230.3</ele>
        <time>2016-06-03T07:54:29Z</time>
      </trkpt>
      <trkpt lat="48.52427" lon="7.35901">
        <ele>230.5</ele>
        <time>2016-06-03T07:54:33Z</time>
      </trkpt>
      <trkpt lat="48.52421" lon="7.35933">
        <ele>230.3</ele>
        <time>2016-06-03T07:54:37Z</time>
      </trkpt>
      <trkpt lat="48.52415" lon="7.35967">
        <ele>230.1</ele>
        <time>2016-06-03T07:54:41Z</time>
      </trkpt>
      <trkpt lat="48.5241" lon="7.3599">
        <ele>230.4</ele>
        <time>2016-06-03T07:54:44Z</time>
      </trkpt>
      <trkpt lat="48.52403" lon="7.36017">
        <ele>230.4</ele>
        <time>2016-06-03T07:54:47Z</time>
      </trkpt>
      <trkpt lat="48.52395" lon="7.36045">
        <ele>230</ele>
        <time>2016-06-03T07:54:50Z</time>
      </trkpt>
      <trkpt lat="48.52387" lon="7.36073">
        <ele>229.2</ele>
        <time>2016-06-03T07:54:53Z</time>
      </trkpt>
      <trkpt lat="48.52375" lon="7.36098">
        <ele>227.4</ele>
        <time>2016-06-03T07:54:56Z</time>
      </trkpt>
      <trkpt lat="48.52361" lon="7.36123">
        <ele>228.4</ele>
        <time>2016-06-03T07:54:59Z</time>
      </trkpt>
      <trkpt lat="48.52346" lon="7.36145">
        <ele>231.3</ele>
        <time>2016-06-03T07:55:02Z</time>
      </trkpt>
      <trkpt lat="48.52329" lon="7.36164">
        <ele>233.2</ele>
        <time>2016-06-03T07:55:05Z</time>
      </trkpt>
      <trkpt lat="48.52313" lon="7.36179">
        <ele>233.8</ele>
        <time>2016-06-03T07:55:08Z</time>
      </trkpt>
      <trkpt lat="48.52298" lon="7.36197">
        <ele>234</ele>
        <time>2016-06-03T07:55:11Z</time>
      </trkpt>
      <trkpt lat="48.52284" lon="7.36215">
        <ele>233.8</ele>
        <time>2016-06-03T07:55:14Z</time>
      </trkpt>
      <trkpt lat="48.52269" lon="7.36234">
        <ele>233.3</ele>
        <time>2016-06-03T07:55:17Z</time>
      </trkpt>
      <trkpt lat="48.52252" lon="7.36255">
        <ele>232.3</ele>
        <time>2016-06-03T07:55:20Z</time>
      </trkpt>
      <trkpt lat="48.52236" lon="7.36276">
        <ele>230.7</ele>
        <time>2016-06-03T07:55:23Z</time>
      </trkpt>
      <trkpt lat="48.52221" lon="7.36301">
        <ele>229.1</ele>
        <time>2016-06-03T07:55:27Z</time>
      </trkpt>
      <trkpt lat="48.52208" lon="7.36324">
        <ele>227.4</ele>
        <time>2016-06-03T07:55:31Z</time>
      </trkpt>
      <trkpt lat="48.52195" lon="7.36348">
        <ele>226.9</ele>
        <time>2016-06-03T07:55:35Z</time>
      </trkpt>
      <trkpt lat="48.52192" lon="7.36355">
        <ele>226.8</ele>
        <time>2016-06-03T07:55:36Z</time>
      </trkpt>
      <trkpt lat="48.5218" lon="7.36382">
        <ele>226.6</ele>
        <time>2016-06-03T07:55:40Z</time>
      </trkpt>
      <trkpt lat="48.5217" lon="7.36407">
        <ele>226.6</ele>
        <time>2016-06-03T07:55:44Z</time>
      </trkpt>
      <trkpt lat="48.52166" lon="7.36439">
        <ele>226.9</ele>
        <time>2016-06-03T07:55:49Z</time>
      </trkpt>
      <trkpt lat="48.52163" lon="7.3647">
        <ele>227.1</ele>
        <time>2016-06-03T07:55:53Z</time>
      </trkpt>
      <trkpt lat="48.5216" lon="7.36505">
        <ele>227.4</ele>
        <time>2016-06-03T07:55:57Z</time>
      </trkpt>
      <trkpt lat="48.52163" lon="7.36533">
        <ele>228.6</ele>
        <time>2016-06-03T07:56:00Z</time>
      </trkpt>
      <trkpt lat="48.52167" lon="7.36561">
        <ele>228.7</ele>
        <time>2016-06-03T07:56:03Z</time>
      </trkpt>
      <trkpt lat="48.52173" lon="7.36586">
        <ele>228.4</ele>
        <time>2016-06-03T07:56:06Z</time>
      </trkpt>
      <trkpt lat="48.52181" lon="7.36612">
        <ele>228.2</ele>
        <time>2016-06-03T07:56:09Z</time>
      </trkpt>
      <trkpt lat="48.52191" lon="7.36635">
        <ele>228</ele>
        <time>2016-06-03T07:56:12Z</time>
      </trkpt>
      <trkpt lat="48.52199" lon="7.36648">
        <ele>228.1</ele>
        <time>2016-06-03T07:56:14Z</time>
      </trkpt>
      <trkpt lat="48.52213" lon="7.36673">
        <ele>228.8</ele>
        <time>2016-06-03T07:56:18Z</time>
      </trkpt>
      <trkpt lat="48.52231" lon="7.36698">
        <ele>232</ele>
        <time>2016-06-03T07:56:22Z</time>
      </trkpt>
      <trkpt lat="48.52246" lon="7.36722">
        <ele>234.1</ele>
        <time>2016-06-03T07:56:26Z</time>
      </trkpt>
      <trkpt lat="48.5226" lon="7.36748">
        <ele>234.6</ele>
        <time>2016-06-03T07:56:30Z</time>
      </trkpt>
      <trkpt lat="48.52273" lon="7.3677">
        <ele>233.9</ele>
        <time>2016-06-03T07:56:34Z</time>
      </trkpt>
      <trkpt lat="48.52282" lon="7.36795">
        <ele>231.6</ele>
        <time>2016-06-03T07:56:38Z</time>
      </trkpt>
      <trkpt lat="48.52288" lon="7.36821">
        <ele>229.2</ele>
        <time>2016-06-03T07:56:43Z</time>
      </trkpt>
      <trkpt lat="48.52289" lon="7.36829">
        <ele>228.3</ele>
        <time>2016-06-03T07:56:46Z</time>
      </trkpt>
      <trkpt lat="48.52298" lon="7.36831">
        <ele>230</ele>
        <time>2016-06-03T07:56:53Z</time>
      </trkpt>
      <trkpt lat="48.52317" lon="7.36842">
        <ele>233.1</ele>
        <time>2016-06-03T07:56:59Z</time>
      </trkpt>
      <trkpt lat="48.52331" lon="7.36861">
        <ele>232.7</ele>
        <time>2016-06-03T07:57:03Z</time>
      </trkpt>
      <trkpt lat="48.52346" lon="7.36881">
        <ele>232.2</ele>
        <time>2016-06-03T07:57:07Z</time>
      </trkpt>
      <trkpt lat="48.52356" lon="7.36894">
        <ele>232.6</ele>
        <time>2016-06-03T07:57:10Z</time>
      </trkpt>
      <trkpt lat="48.52371" lon="7.36913">
        <ele>232.4</ele>
        <time>2016-06-03T07:57:14Z</time>
      </trkpt>
      <trkpt lat="48.52385" lon="7.36934">
        <ele>233.3</ele>
        <time>2016-06-03T07:57:18Z</time>
      </trkpt>
      <trkpt lat="48.52388" lon="7.3694">
        <ele>233.6</ele>
        <time>2016-06-03T07:57:19Z</time>
      </trkpt>
      <trkpt lat="48.52403" lon="7.36963">
        <ele>234.2</ele>
        <time>2016-06-03T07:57:23Z</time>
      </trkpt>
      <trkpt lat="48.52418" lon="7.36987">
        <ele>234.1</ele>
        <time>2016-06-03T07:57:27Z</time>
      </trkpt>
      <trkpt lat="48.52432" lon="7.37013">
        <ele>232.2</ele>
        <time>2016-06-03T07:57:31Z</time>
      </trkpt>
      <trkpt lat="48.52444" lon="7.37038">
        <ele>229</ele>
        <time>2016-06-03T07:57:35Z</time>
      </trkpt>
      <trkpt lat="48.52454" lon="7.37062">
        <ele>227.2</ele>
        <time>2016-06-03T07:57:39Z</time>
      </trkpt>
      <trkpt lat="48.52467" lon="7.37088">
        <ele>227.9</ele>
        <time>2016-06-03T07:57:44Z</time>
      </trkpt>
      <trkpt lat="48.52478" lon="7.37113">
        <ele>228.3</ele>
        <time>2016-06-03T07:57:48Z</time>
      </trkpt>
      <trkpt lat="48.52489" lon="7.37138">
        <ele>228.7</ele>
        <time>2016-06-03T07:57:52Z</time>
      </trkpt>
      <trkpt lat="48.525" lon="7.37162">
        <ele>229.5</ele>
        <time>2016-06-03T07:57:56Z</time>
      </trkpt>
      <trkpt lat="48.52511" lon="7.3719">
        <ele>228.6</ele>
        <time>2016-06-03T07:58:01Z</time>
      </trkpt>
      <trkpt lat="48.5252" lon="7.37205">
        <ele>228</ele>
        <time>2016-06-03T07:58:04Z</time>
      </trkpt>
      <trkpt lat="48.52534" lon="7.37231">
        <ele>227.8</ele>
        <time>2016-06-03T07:58:09Z</time>
      </trkpt>
      <trkpt lat="48.52548" lon="7.37255">
        <ele>229.6</ele>
        <time>2016-06-03T07:58:13Z</time>
      </trkpt>
      <trkpt lat="48.52565" lon="7.37281">
        <ele>233.6</ele>
        <time>2016-06-03T07:58:17Z</time>
      </trkpt>
      <trkpt lat="48.52579" lon="7.37303">
        <ele>235.6</ele>
        <time>2016-06-03T07:58:21Z</time>
      </trkpt>
      <trkpt lat="48.52592" lon="7.37328">
        <ele>236.4</ele>
        <time>2016-06-03T07:58:25Z</time>
      </trkpt>
      <trkpt lat="48.526" lon="7.37339">
        <ele>237</ele>
        <time>2016-06-03T07:58:27Z</time>
      </trkpt>
      <trkpt lat="48.52608" lon="7.37351">
        <ele>237</ele>
        <time>2016-06-03T07:58:29Z</time>
      </trkpt>
      <trkpt lat="48.52622" lon="7.37376">
        <ele>235.3</ele>
        <time>2016-06-03T07:58:33Z</time>
      </trkpt>
      <trkpt lat="48.5263" lon="7.37389">
        <ele>236.5</ele>
        <time>2016-06-03T07:58:35Z</time>
      </trkpt>
      <trkpt lat="48.52644" lon="7.37411">
        <ele>238.7</ele>
        <time>2016-06-03T07:58:39Z</time>
      </trkpt>
      <trkpt lat="48.52655" lon="7.37426">
        <ele>240.3</ele>
        <time>2016-06-03T07:58:42Z</time>
      </trkpt>
      <trkpt lat="48.52674" lon="7.37443">
        <ele>243.2</ele>
        <time>2016-06-03T07:58:46Z</time>
      </trkpt>
      <trkpt lat="48.52691" lon="7.3746">
        <ele>244.1</ele>
        <time>2016-06-03T07:58:50Z</time>
      </trkpt>
      <trkpt lat="48.52709" lon="7.37476">
        <ele>246</ele>
        <time>2016-06-03T07:58:55Z</time>
      </trkpt>
      <trkpt lat="48.52727" lon="7.37493">
        <ele>247.6</ele>
        <time>2016-06-03T07:59:00Z</time>
      </trkpt>
      <trkpt lat="48.5274" lon="7.37502">
        <ele>249.3</ele>
        <time>2016-06-03T07:59:04Z</time>
      </trkpt>
      <trkpt lat="48.5276" lon="7.37514">
        <ele>252</ele>
        <time>2016-06-03T07:59:09Z</time>
      </trkpt>
      <trkpt lat="48.52777" lon="7.37523">
        <ele>254.4</ele>
        <time>2016-06-03T07:59:13Z</time>
      </trkpt>
      <trkpt lat="48.52795" lon="7.37534">
        <ele>256.3</ele>
        <time>2016-06-03T07:59:18Z</time>
      </trkpt>
      <trkpt lat="48.52812" lon="7.37548">
        <ele>257.2</ele>
        <time>2016-06-03T07:59:22Z</time>
      </trkpt>
      <trkpt lat="48.52828" lon="7.37561">
        <ele>257.2</ele>
        <time>2016-06-03T07:59:26Z</time>
      </trkpt>
      <trkpt lat="48.52848" lon="7.37578">
        <ele>256.4</ele>
        <time>2016-06-03T07:59:31Z</time>
      </trkpt>
      <trkpt lat="48.52867" lon="7.37591">
        <ele>256.3</ele>
        <time>2016-06-03T07:59:35Z</time>
      </trkpt>
      <trkpt lat="48.52888" lon="7.37603">
        <ele>256</ele>
        <time>2016-06-03T07:59:38Z</time>
      </trkpt>
      <trkpt lat="48.52908" lon="7.37617">
        <ele>254.4</ele>
        <time>2016-06-03T07:59:41Z</time>
      </trkpt>
      <trkpt lat="48.52926" lon="7.3763">
        <ele>252.5</ele>
        <time>2016-06-03T07:59:44Z</time>
      </trkpt>
      <trkpt lat="48.52941" lon="7.37645">
        <ele>249.5</ele>
        <time>2016-06-03T07:59:47Z</time>
      </trkpt>
      <trkpt lat="48.52956" lon="7.37661">
        <ele>246.1</ele>
        <time>2016-06-03T07:59:50Z</time>
      </trkpt>
      <trkpt lat="48.52961" lon="7.37667">
        <ele>244.6</ele>
        <time>2016-06-03T07:59:51Z</time>
      </trkpt>
      <trkpt lat="48.5298" lon="7.37689">
        <ele>239.7</ele>
        <time>2016-06-03T07:59:55Z</time>
      </trkpt>
      <trkpt lat="48.53" lon="7.37708">
        <ele>235.5</ele>
        <time>2016-06-03T07:59:59Z</time>
      </trkpt>
      <trkpt lat="48.53009" lon="7.37717">
        <ele>235.5</ele>
        <time>2016-06-03T08:00:01Z</time>
      </trkpt>
      <trkpt lat="48.53031" lon="7.37733">
        <ele>235.9</ele>
        <time>2016-06-03T08:00:05Z</time>
      </trkpt>
      <trkpt lat="48.53056" lon="7.37743">
        <ele>236.8</ele>
        <time>2016-06-03T08:00:08Z</time>
      </trkpt>
      <trkpt lat="48.53077" lon="7.37751">
        <ele>237.5</ele>
        <time>2016-06-03T08:00:11Z</time>
      </trkpt>
      <trkpt lat="48.53098" lon="7.37758">
        <ele>238.4</ele>
        <time>2016-06-03T08:00:14Z</time>
      </trkpt>
      <trkpt lat="48.53116" lon="7.37762">
        <ele>239.4</ele>
        <time>2016-06-03T08:00:17Z</time>
      </trkpt>
      <trkpt lat="48.53135" lon="7.37765">
        <ele>239.7</ele>
        <time>2016-06-03T08:00:20Z</time>
      </trkpt>
      <trkpt lat="48.53154" lon="7.37768">
        <ele>239.9</ele>
        <time>2016-06-03T08:00:24Z</time>
      </trkpt>
      <trkpt lat="48.53172" lon="7.37772">
        <ele>239.5</ele>
        <time>2016-06-03T08:00:29Z</time>
      </trkpt>
      <trkpt lat="48.53192" lon="7.37778">
        <ele>238.4</ele>
        <time>2016-06-03T08:00:34Z</time>
      </trkpt>
      <trkpt lat="48.53211" lon="7.37789">
        <ele>235.1</ele>
        <time>2016-06-03T08:00:40Z</time>
      </trkpt>
      <trkpt lat="48.53231" lon="7.37799">
        <ele>233.6</ele>
        <time>2016-06-03T08:00:45Z</time>
      </trkpt>
      <trkpt lat="48.53249" lon="7.37809">
        <ele>232.2</ele>
        <time>2016-06-03T08:00:50Z</time>
      </trkpt>
      <trkpt lat="48.53269" lon="7.37824">
        <ele>229.9</ele>
        <time>2016-06-03T08:00:54Z</time>
      </trkpt>
      <trkpt lat="48.53281" lon="7.3785">
        <ele>225</ele>
        <time>2016-06-03T08:00:58Z</time>
      </trkpt>
      <trkpt lat="48.53276" lon="7.37881">
        <ele>218.9</ele>
        <time>2016-06-03T08:01:03Z</time>
      </trkpt>
      <trkpt lat="48.53267" lon="7.37907">
        <ele>217.4</ele>
        <time>2016-06-03T08:01:07Z</time>
      </trkpt>
      <trkpt lat="48.53255" lon="7.37934">
        <ele>216</ele>
        <time>2016-06-03T08:01:12Z</time>
      </trkpt>
      <trkpt lat="48.53239" lon="7.37952">
        <ele>215.2</ele>
        <time>2016-06-03T08:01:18Z</time>
      </trkpt>
      <trkpt lat="48.53221" lon="7.37969">
        <ele>214.9</ele>
        <time>2016-06-03T08:01:25Z</time>
      </trkpt>
      <trkpt lat="48.53205" lon="7.37982">
        <ele>214.7</ele>
        <time>2016-06-03T08:01:33Z</time>
      </trkpt>
      <trkpt lat="48.53187" lon="7.37992">
        <ele>214.5</ele>
        <time>2016-06-03T08:01:40Z</time>
      </trkpt>
      <trkpt lat="48.53169" lon="7.37999">
        <ele>214.5</ele>
        <time>2016-06-03T08:01:46Z</time>
      </trkpt>
      <trkpt lat="48.5315" lon="7.38008">
        <ele>214.5</ele>
        <time>2016-06-03T08:01:52Z</time>
      </trkpt>
      <trkpt lat="48.53133" lon="7.38018">
        <ele>214.7</ele>
        <time>2016-06-03T08:01:57Z</time>
      </trkpt>
      <trkpt lat="48.53113" lon="7.38028">
        <ele>215</ele>
        <time>2016-06-03T08:02:03Z</time>
      </trkpt>
      <trkpt lat="48.53095" lon="7.38036">
        <ele>215.3</ele>
        <time>2016-06-03T08:02:08Z</time>
      </trkpt>
      <trkpt lat="48.53075" lon="7.38045">
        <ele>215.6</ele>
        <time>2016-06-03T08:02:14Z</time>
      </trkpt>
      <trkpt lat="48.53055" lon="7.38054">
        <ele>215.7</ele>
        <time>2016-06-03T08:02:20Z</time>
      </trkpt>
      <trkpt lat="48.53037" lon="7.38064">
        <ele>215.7</ele>
        <time>2016-06-03T08:02:27Z</time>
      </trkpt>
      <trkpt lat="48.53017" lon="7.38066">
        <ele>215.3</ele>
        <time>2016-06-03T08:02:37Z</time>
      </trkpt>
      <trkpt lat="48.52999" lon="7.38059">
        <ele>215</ele>
        <time>2016-06-03T08:02:43Z</time>
      </trkpt>
      <trkpt lat="48.52987" lon="7.38061">
        <ele>214.8</ele>
        <time>2016-06-03T08:02:46Z</time>
      </trkpt>
      <trkpt lat="48.52969" lon="7.38078">
        <ele>214.6</ele>
        <time>2016-06-03T08:02:51Z</time>
      </trkpt>
      <trkpt lat="48.52958" lon="7.38093">
        <ele>214.6</ele>
        <time>2016-06-03T08:02:54Z</time>
      </trkpt>
      <trkpt lat="48.52941" lon="7.38105">
        <ele>214.7</ele>
        <time>2016-06-03T08:02:58Z</time>
      </trkpt>
      <trkpt lat="48.52921" lon="7.38118">
        <ele>214.8</ele>
        <time>2016-06-03T08:03:03Z</time>
      </trkpt>
      <trkpt lat="48.52905" lon="7.38132">
        <ele>215.1</ele>
        <time>2016-06-03T08:03:07Z</time>
      </trkpt>
      <trkpt lat="48.5289" lon="7.38147">
        <ele>215.2</ele>
        <time>2016-06-03T08:03:11Z</time>
      </trkpt>
      <trkpt lat="48.52874" lon="7.38163">
        <ele>215.5</ele>
        <time>2016-06-03T08:03:15Z</time>
      </trkpt>
      <trkpt lat="48.52859" lon="7.38179">
        <ele>215.8</ele>
        <time>2016-06-03T08:03:19Z</time>
      </trkpt>
      <trkpt lat="48.52844" lon="7.38196">
        <ele>216</ele>
        <time>2016-06-03T08:03:23Z</time>
      </trkpt>
      <trkpt lat="48.52827" lon="7.38215">
        <ele>216.1</ele>
        <time>2016-06-03T08:03:28Z</time>
      </trkpt>
      <trkpt lat="48.52814" lon="7.38233">
        <ele>216.3</ele>
        <time>2016-06-03T08:03:39Z</time>
      </trkpt>
      <trkpt lat="48.52815" lon="7.38238">
        <ele>216.4</ele>
        <time>2016-06-03T08:03:42Z</time>
      </trkpt>
      <trkpt lat="48.52829" lon="7.38256">
        <ele>216.6</ele>
        <time>2016-06-03T08:03:51Z</time>
      </trkpt>
      <trkpt lat="48.52834" lon="7.38263">
        <ele>216.7</ele>
        <time>2016-06-03T08:03:53Z</time>
      </trkpt>
      <trkpt lat="48.52852" lon="7.38283">
        <ele>216.9</ele>
        <time>2016-06-03T08:03:58Z</time>
      </trkpt>
      <trkpt lat="48.52866" lon="7.38302">
        <ele>217.6</ele>
        <time>2016-06-03T08:04:02Z</time>
      </trkpt>
      <trkpt lat="48.5288" lon="7.3832">
        <ele>218.6</ele>
        <time>2016-06-03T08:04:06Z</time>
      </trkpt>
      <trkpt lat="48.52893" lon="7.38337">
        <ele>219.1</ele>
        <time>2016-06-03T08:04:10Z</time>
      </trkpt>
      <trkpt lat="48.52908" lon="7.38359">
        <ele>219.7</ele>
        <time>2016-06-03T08:04:15Z</time>
      </trkpt>
      <trkpt lat="48.5292" lon="7.38379">
        <ele>220.9</ele>
        <time>2016-06-03T08:04:20Z</time>
      </trkpt>
      <trkpt lat="48.52931" lon="7.38401">
        <ele>225.7</ele>
        <time>2016-06-03T08:04:25Z</time>
      </trkpt>
      <trkpt lat="48.52943" lon="7.38427">
        <ele>230.7</ele>
        <time>2016-06-03T08:04:31Z</time>
      </trkpt>
      <trkpt lat="48.52954" lon="7.3845">
        <ele>234.8</ele>
        <time>2016-06-03T08:04:36Z</time>
      </trkpt>
      <trkpt lat="48.52965" lon="7.38476">
        <ele>240</ele>
        <time>2016-06-03T08:04:41Z</time>
      </trkpt>
      <trkpt lat="48.52978" lon="7.38503">
        <ele>243.8</ele>
        <time>2016-06-03T08:04:46Z</time>
      </trkpt>
      <trkpt lat="48.52989" lon="7.38525">
        <ele>245.5</ele>
        <time>2016-06-03T08:04:50Z</time>
      </trkpt>
      <trkpt lat="48.53" lon="7.38548">
        <ele>245.4</ele>
        <time>2016-06-03T08:04:54Z</time>
      </trkpt>
      <trkpt lat="48.53013" lon="7.3857">
        <ele>243.7</ele>
        <time>2016-06-03T08:04:58Z</time>
      </trkpt>
      <trkpt lat="48.53025" lon="7.38593">
        <ele>243.1</ele>
        <time>2016-06-03T08:05:02Z</time>
      </trkpt>
      <trkpt lat="48.53036" lon="7.38616">
        <ele>243.3</ele>
        <time>2016-06-03T08:05:06Z</time>
      </trkpt>
      <trkpt lat="48.53048" lon="7.3864">
        <ele>243.6</ele>
        <time>2016-06-03T08:05:10Z</time>
      </trkpt>
      <trkpt lat="48.53059" lon="7.38662">
        <ele>243.4</ele>
        <time>2016-06-03T08:05:14Z</time>
      </trkpt>
      <trkpt lat="48.5307" lon="7.38688">
        <ele>243.1</ele>
        <time>2016-06-03T08:05:19Z</time>
      </trkpt>
      <trkpt lat="48.5308" lon="7.38713">
        <ele>242.1</ele>
        <time>2016-06-03T08:05:24Z</time>
      </trkpt>
      <trkpt lat="48.53089" lon="7.38739">
        <ele>241.6</ele>
        <time>2016-06-03T08:05:30Z</time>
      </trkpt>
      <trkpt lat="48.53096" lon="7.38767">
        <ele>242.5</ele>
        <time>2016-06-03T08:05:36Z</time>
      </trkpt>
      <trkpt lat="48.53104" lon="7.38795">
        <ele>243.3</ele>
        <time>2016-06-03T08:05:41Z</time>
      </trkpt>
      <trkpt lat="48.53112" lon="7.38827">
        <ele>242.9</ele>
        <time>2016-06-03T08:05:46Z</time>
      </trkpt>
      <trkpt lat="48.53118" lon="7.38859">
        <ele>243.9</ele>
        <time>2016-06-03T08:05:50Z</time>
      </trkpt>
      <trkpt lat="48.53122" lon="7.38885">
        <ele>244.1</ele>
        <time>2016-06-03T08:05:53Z</time>
      </trkpt>
      <trkpt lat="48.53132" lon="7.38916">
        <ele>241</ele>
        <time>2016-06-03T08:05:57Z</time>
      </trkpt>
      <trkpt lat="48.53143" lon="7.3894">
        <ele>237.1</ele>
        <time>2016-06-03T08:06:00Z</time>
      </trkpt>
      <trkpt lat="48.53153" lon="7.38953">
        <ele>233.5</ele>
        <time>2016-06-03T08:06:02Z</time>
      </trkpt>
      <trkpt lat="48.53162" lon="7.38978">
        <ele>231.2</ele>
        <time>2016-06-03T08:06:05Z</time>
      </trkpt>
      <trkpt lat="48.53165" lon="7.38996">
        <ele>230.8</ele>
        <time>2016-06-03T08:06:07Z</time>
      </trkpt>
      <trkpt lat="48.53166" lon="7.39004">
        <ele>230.8</ele>
        <time>2016-06-03T08:06:08Z</time>
      </trkpt>
      <trkpt lat="48.53168" lon="7.39034">
        <ele>231.2</ele>
        <time>2016-06-03T08:06:12Z</time>
      </trkpt>
      <trkpt lat="48.53168" lon="7.39063">
        <ele>232.5</ele>
        <time>2016-06-03T08:06:18Z</time>
      </trkpt>
      <trkpt lat="48.53168" lon="7.39091">
        <ele>233.4</ele>
        <time>2016-06-03T08:06:24Z</time>
      </trkpt>
      <trkpt lat="48.5317" lon="7.39121">
        <ele>233.8</ele>
        <time>2016-06-03T08:06:30Z</time>
      </trkpt>
      <trkpt lat="48.53177" lon="7.39151">
        <ele>232.5</ele>
        <time>2016-06-03T08:06:35Z</time>
      </trkpt>
      <trkpt lat="48.53186" lon="7.39177">
        <ele>230.3</ele>
        <time>2016-06-03T08:06:39Z</time>
      </trkpt>
      <trkpt lat="48.53195" lon="7.39197">
        <ele>227.1</ele>
        <time>2016-06-03T08:06:42Z</time>
      </trkpt>
      <trkpt lat="48.53206" lon="7.39224">
        <ele>223.3</ele>
        <time>2016-06-03T08:06:46Z</time>
      </trkpt>
      <trkpt lat="48.53215" lon="7.39252">
        <ele>222.7</ele>
        <time>2016-06-03T08:06:50Z</time>
      </trkpt>
      <trkpt lat="48.53225" lon="7.39277">
        <ele>222.2</ele>
        <time>2016-06-03T08:06:54Z</time>
      </trkpt>
      <trkpt lat="48.5323" lon="7.39302">
        <ele>222.4</ele>
        <time>2016-06-03T08:06:59Z</time>
      </trkpt>
      <trkpt lat="48.53233" lon="7.39333">
        <ele>224</ele>
        <time>2016-06-03T08:07:06Z</time>
      </trkpt>
      <trkpt lat="48.53231" lon="7.39363">
        <ele>226.3</ele>
        <time>2016-06-03T08:07:12Z</time>
      </trkpt>
      <trkpt lat="48.53237" lon="7.39389">
        <ele>226.4</ele>
        <time>2016-06-03T08:07:17Z</time>
      </trkpt>
      <trkpt lat="48.53243" lon="7.39418">
        <ele>226.6</ele>
        <time>2016-06-03T08:07:22Z</time>
      </trkpt>
      <trkpt lat="48.53249" lon="7.39446">
        <ele>226</ele>
        <time>2016-06-03T08:07:27Z</time>
      </trkpt>
      <trkpt lat="48.53248" lon="7.39474">
        <ele>227.5</ele>
        <time>2016-06-03T08:07:31Z</time>
      </trkpt>
      <trkpt lat="48.53242" lon="7.39501">
        <ele>230</ele>
        <time>2016-06-03T08:07:35Z</time>
      </trkpt>
      <trkpt lat="48.53235" lon="7.39527">
        <ele>232.6</ele>
        <time>2016-06-03T08:07:39Z</time>
      </trkpt>
      <trkpt lat="48.53229" lon="7.39553">
        <ele>234.7</ele>
        <time>2016-06-03T08:07:43Z</time>
      </trkpt>
      <trkpt lat="48.53225" lon="7.39582">
        <ele>236</ele>
        <time>2016-06-03T08:07:49Z</time>
      </trkpt>
      <trkpt lat="48.53224" lon="7.39613">
        <ele>236.2</ele>
        <time>2016-06-03T08:07:56Z</time>
      </trkpt>
      <trkpt lat="48.53231" lon="7.3964">
        <ele>234.8</ele>
        <time>2016-06-03T08:08:01Z</time>
      </trkpt>
      <trkpt lat="48.53241" lon="7.39667">
        <ele>232.8</ele>
        <time>2016-06-03T08:08:05Z</time>
      </trkpt>
      <trkpt lat="48.53249" lon="7.39697">
        <ele>231.2</ele>
        <time>2016-06-03T08:08:09Z</time>
      </trkpt>
      <trkpt lat="48.53254" lon="7.39733">
        <ele>230.8</ele>
        <time>2016-06-03T08:08:13Z</time>
      </trkpt>
      <trkpt lat="48.53256" lon="7.39762">
        <ele>231.1</ele>
        <time>2016-06-03T08:08:17Z</time>
      </trkpt>
      <trkpt lat="48.53256" lon="7.39796">
        <ele>232.3</ele>
        <time>2016-06-03T08:08:23Z</time>
      </trkpt>
      <trkpt lat="48.53257" lon="7.39825">
        <ele>235.1</ele>
        <time>2016-06-03T08:08:29Z</time>
      </trkpt>
      <trkpt lat="48.53265" lon="7.39852">
        <ele>235.2</ele>
        <time>2016-06-03T08:08:34Z</time>
      </trkpt>
      <trkpt lat="48.53271" lon="7.39877">
        <ele>235.7</ele>
        <time>2016-06-03T08:08:39Z</time>
      </trkpt>
      <trkpt lat="48.53282" lon="7.39903">
        <ele>234.7</ele>
        <time>2016-06-03T08:08:43Z</time>
      </trkpt>
      <trkpt lat="48.53295" lon="7.3993">
        <ele>233.7</ele>
        <time>2016-06-03T08:08:47Z</time>
      </trkpt>
      <trkpt lat="48.53307" lon="7.39961">
        <ele>233.5</ele>
        <time>2016-06-03T08:08:51Z</time>
      </trkpt>
      <trkpt lat="48.5332" lon="7.39991">
        <ele>232.6</ele>
        <time>2016-06-03T08:08:55Z</time>
      </trkpt>
      <trkpt lat="48.53331" lon="7.40023">
        <ele>231.8</ele>
        <time>2016-06-03T08:08:59Z</time>
      </trkpt>
      <trkpt lat="48.53334" lon="7.40057">
        <ele>234.4</ele>
        <time>2016-06-03T08:09:03Z</time>
      </trkpt>
      <trkpt lat="48.53336" lon="7.40089">
        <ele>236.8</ele>
        <time>2016-06-03T08:09:07Z</time>
      </trkpt>
      <trkpt lat="48.53339" lon="7.40118">
        <ele>238.6</ele>
        <time>2016-06-03T08:09:11Z</time>
      </trkpt>
      <trkpt lat="48.53341" lon="7.40149">
        <ele>239.2</ele>
        <time>2016-06-03T08:09:16Z</time>
      </trkpt>
      <trkpt lat="48.53346" lon="7.40179">
        <ele>238.2</ele>
        <time>2016-06-03T08:09:22Z</time>
      </trkpt>
      <trkpt lat="48.53348" lon="7.40206">
        <ele>238.2</ele>
        <time>2016-06-03T08:09:27Z</time>
      </trkpt>
      <trkpt lat="48.53351" lon="7.40233">
        <ele>236.9</ele>
        <time>2016-06-03T08:09:32Z</time>
      </trkpt>
      <trkpt lat="48.53354" lon="7.40263">
        <ele>235.5</ele>
        <time>2016-06-03T08:09:36Z</time>
      </trkpt>
      <trkpt lat="48.53356" lon="7.4029">
        <ele>234.5</ele>
        <time>2016-06-03T08:09:39Z</time>
      </trkpt>
      <trkpt lat="48.53357" lon="7.40321">
        <ele>232.4</ele>
        <time>2016-06-03T08:09:42Z</time>
      </trkpt>
      <trkpt lat="48.53357" lon="7.40353">
        <ele>230.5</ele>
        <time>2016-06-03T08:09:46Z</time>
      </trkpt>
      <trkpt lat="48.53357" lon="7.40382">
        <ele>229.3</ele>
        <time>2016-06-03T08:09:51Z</time>
      </trkpt>
      <trkpt lat="48.53358" lon="7.40409">
        <ele>227.4</ele>
        <time>2016-06-03T08:09:56Z</time>
      </trkpt>
      <trkpt lat="48.5336" lon="7.40437">
        <ele>225.4</ele>
        <time>2016-06-03T08:10:01Z</time>
      </trkpt>
      <trkpt lat="48.53358" lon="7.40465">
        <ele>224.8</ele>
        <time>2016-06-03T08:10:06Z</time>
      </trkpt>
      <trkpt lat="48.53355" lon="7.40494">
        <ele>224.9</ele>
        <time>2016-06-03T08:10:13Z</time>
      </trkpt>
      <trkpt lat="48.53352" lon="7.40521">
        <ele>225</ele>
        <time>2016-06-03T08:10:21Z</time>
      </trkpt>
      <trkpt lat="48.53352" lon="7.40555">
        <ele>224</ele>
        <time>2016-06-03T08:10:26Z</time>
      </trkpt>
      <trkpt lat="48.53352" lon="7.4059">
        <ele>222.6</ele>
        <time>2016-06-03T08:10:30Z</time>
      </trkpt>
      <trkpt lat="48.53352" lon="7.40618">
        <ele>221.5</ele>
        <time>2016-06-03T08:10:33Z</time>
      </trkpt>
      <trkpt lat="48.53352" lon="7.40649">
        <ele>220.6</ele>
        <time>2016-06-03T08:10:36Z</time>
      </trkpt>
      <trkpt lat="48.53352" lon="7.4068">
        <ele>219.2</ele>
        <time>2016-06-03T08:10:39Z</time>
      </trkpt>
      <trkpt lat="48.53351" lon="7.40712">
        <ele>217.8</ele>
        <time>2016-06-03T08:10:42Z</time>
      </trkpt>
      <trkpt lat="48.53351" lon="7.40743">
        <ele>215.6</ele>
        <time>2016-06-03T08:10:45Z</time>
      </trkpt>
      <trkpt lat="48.53351" lon="7.40772">
        <ele>213.4</ele>
        <time>2016-06-03T08:10:48Z</time>
      </trkpt>
      <trkpt lat="48.53351" lon="7.40807">
        <ele>211</ele>
        <time>2016-06-03T08:10:52Z</time>
      </trkpt>
      <trkpt lat="48.5335" lon="7.40839">
        <ele>209.1</ele>
        <time>2016-06-03T08:10:56Z</time>
      </trkpt>
      <trkpt lat="48.5335" lon="7.40871">
        <ele>207.1</ele>
        <time>2016-06-03T08:11:00Z</time>
      </trkpt>
      <trkpt lat="48.53348" lon="7.40903">
        <ele>205.8</ele>
        <time>2016-06-03T08:11:04Z</time>
      </trkpt>
      <trkpt lat="48.53347" lon="7.40932">
        <ele>204.7</ele>
        <time>2016-06-03T08:11:08Z</time>
      </trkpt>
      <trkpt lat="48.53346" lon="7.40963">
        <ele>203.7</ele>
        <time>2016-06-03T08:11:12Z</time>
      </trkpt>
      <trkpt lat="48.53345" lon="7.40993">
        <ele>203.6</ele>
        <time>2016-06-03T08:11:16Z</time>
      </trkpt>
      <trkpt lat="48.53343" lon="7.41025">
        <ele>203.5</ele>
        <time>2016-06-03T08:11:20Z</time>
      </trkpt>
      <trkpt lat="48.53342" lon="7.41056">
        <ele>203.3</ele>
        <time>2016-06-03T08:11:24Z</time>
      </trkpt>
      <trkpt lat="48.53342" lon="7.41087">
        <ele>203.2</ele>
        <time>2016-06-03T08:11:28Z</time>
      </trkpt>
      <trkpt lat="48.53341" lon="7.41116">
        <ele>203</ele>
        <time>2016-06-03T08:11:32Z</time>
      </trkpt>
      <trkpt lat="48.5334" lon="7.41145">
        <ele>203.1</ele>
        <time>2016-06-03T08:11:36Z</time>
      </trkpt>
      <trkpt lat="48.53339" lon="7.41173">
        <ele>203.2</ele>
        <time>2016-06-03T08:11:40Z</time>
      </trkpt>
      <trkpt lat="48.53338" lon="7.41204">
        <ele>203.4</ele>
        <time>2016-06-03T08:11:44Z</time>
      </trkpt>
      <trkpt lat="48.53337" lon="7.41234">
        <ele>203.5</ele>
        <time>2016-06-03T08:11:48Z</time>
      </trkpt>
      <trkpt lat="48.53336" lon="7.41264">
        <ele>203.7</ele>
        <time>2016-06-03T08:11:52Z</time>
      </trkpt>
      <trkpt lat="48.53335" lon="7.41294">
        <ele>203.9</ele>
        <time>2016-06-03T08:11:56Z</time>
      </trkpt>
      <trkpt lat="48.53334" lon="7.41324">
        <ele>203.9</ele>
        <time>2016-06-03T08:12:00Z</time>
      </trkpt>
      <trkpt lat="48.53334" lon="7.41353">
        <ele>204</ele>
        <time>2016-06-03T08:12:04Z</time>
      </trkpt>
      <trkpt lat="48.53333" lon="7.41383">
        <ele>204</ele>
        <time>2016-06-03T08:12:08Z</time>
      </trkpt>
      <trkpt lat="48.53332" lon="7.41413">
        <ele>203.8</ele>
        <time>2016-06-03T08:12:12Z</time>
      </trkpt>
      <trkpt lat="48.53331" lon="7.41443">
        <ele>203.6</ele>
        <time>2016-06-03T08:12:16Z</time>
      </trkpt>
      <trkpt lat="48.5333" lon="7.41474">
        <ele>203.5</ele>
        <time>2016-06-03T08:12:20Z</time>
      </trkpt>
      <trkpt lat="48.53329" lon="7.41505">
        <ele>203.5</ele>
        <time>2016-06-03T08:12:24Z</time>
      </trkpt>
      <trkpt lat="48.53328" lon="7.41535">
        <ele>203.6</ele>
        <time>2016-06-03T08:12:28Z</time>
      </trkpt>
      <trkpt lat="48.53327" lon="7.41566">
        <ele>203.1</ele>
        <time>2016-06-03T08:12:32Z</time>
      </trkpt>
      <trkpt lat="48.53326" lon="7.41596">
        <ele>202.5</ele>
        <time>2016-06-03T08:12:36Z</time>
      </trkpt>
      <trkpt lat="48.53325" lon="7.41625">
        <ele>202</ele>
        <time>2016-06-03T08:12:40Z</time>
      </trkpt>
      <trkpt lat="48.53325" lon="7.41653">
        <ele>202</ele>
        <time>2016-06-03T08:12:44Z</time>
      </trkpt>
      <trkpt lat="48.53324" lon="7.41684">
        <ele>202</ele>
        <time>2016-06-03T08:12:48Z</time>
      </trkpt>
      <trkpt lat="48.53324" lon="7.41712">
        <ele>201.9</ele>
        <time>2016-06-03T08:12:52Z</time>
      </trkpt>
      <trkpt lat="48.53323" lon="7.41741">
        <ele>201</ele>
        <time>2016-06-03T08:12:56Z</time>
      </trkpt>
      <trkpt lat="48.53322" lon="7.41771">
        <ele>200</ele>
        <time>2016-06-03T08:13:00Z</time>
      </trkpt>
      <trkpt lat="48.53321" lon="7.418">
        <ele>199.4</ele>
        <time>2016-06-03T08:13:04Z</time>
      </trkpt>
      <trkpt lat="48.5332" lon="7.41828">
        <ele>199.5</ele>
        <time>2016-06-03T08:13:08Z</time>
      </trkpt>
      <trkpt lat="48.53319" lon="7.41857">
        <ele>199.6</ele>
        <time>2016-06-03T08:13:12Z</time>
      </trkpt>
      <trkpt lat="48.53317" lon="7.41886">
        <ele>199.9</ele>
        <time>2016-06-03T08:13:16Z</time>
      </trkpt>
      <trkpt lat="48.53316" lon="7.41916">
        <ele>200.8</ele>
        <time>2016-06-03T08:13:20Z</time>
      </trkpt>
      <trkpt lat="48.53315" lon="7.41946">
        <ele>201.6</ele>
        <time>2016-06-03T08:13:24Z</time>
      </trkpt>
      <trkpt lat="48.53313" lon="7.41975">
        <ele>202</ele>
        <time>2016-06-03T08:13:28Z</time>
      </trkpt>
      <trkpt lat="48.53311" lon="7.42003">
        <ele>202</ele>
        <time>2016-06-03T08:13:32Z</time>
      </trkpt>
      <trkpt lat="48.53311" lon="7.4203">
        <ele>202</ele>
        <time>2016-06-03T08:13:36Z</time>
      </trkpt>
      <trkpt lat="48.53309" lon="7.42058">
        <ele>202</ele>
        <time>2016-06-03T08:13:40Z</time>
      </trkpt>
      <trkpt lat="48.53308" lon="7.42086">
        <ele>201.9</ele>
        <time>2016-06-03T08:13:44Z</time>
      </trkpt>
      <trkpt lat="48.53307" lon="7.42118">
        <ele>201.8</ele>
        <time>2016-06-03T08:13:49Z</time>
      </trkpt>
      <trkpt lat="48.53305" lon="7.4215">
        <ele>202.1</ele>
        <time>2016-06-03T08:13:54Z</time>
      </trkpt>
      <trkpt lat="48.53304" lon="7.42179">
        <ele>202.5</ele>
        <time>2016-06-03T08:13:59Z</time>
      </trkpt>
      <trkpt lat="48.53303" lon="7.42209">
        <ele>202.9</ele>
        <time>2016-06-03T08:14:05Z</time>
      </trkpt>
      <trkpt lat="48.53303" lon="7.42237">
        <ele>202.3</ele>
        <time>2016-06-03T08:14:13Z</time>
      </trkpt>
      <trkpt lat="48.53307" lon="7.42265">
        <ele>201.7</ele>
        <time>2016-06-03T08:14:21Z</time>
      </trkpt>
      <trkpt lat="48.53322" lon="7.42278">
        <ele>201.6</ele>
        <time>2016-06-03T08:14:28Z</time>
      </trkpt>
      <trkpt lat="48.53342" lon="7.42292">
        <ele>201.6</ele>
        <time>2016-06-03T08:14:35Z</time>
      </trkpt>
      <trkpt lat="48.53345" lon="7.42296">
        <ele>201.6</ele>
        <time>2016-06-03T08:14:36Z</time>
      </trkpt>
      <trkpt lat="48.53347" lon="7.4232">
        <ele>201.6</ele>
        <time>2016-06-03T08:14:40Z</time>
      </trkpt>
      <trkpt lat="48.53346" lon="7.42352">
        <ele>201.4</ele>
        <time>2016-06-03T08:14:45Z</time>
      </trkpt>
      <trkpt lat="48.53346" lon="7.42383">
        <ele>201.3</ele>
        <time>2016-06-03T08:14:50Z</time>
      </trkpt>
      <trkpt lat="48.53344" lon="7.42414">
        <ele>201.3</ele>
        <time>2016-06-03T08:14:55Z</time>
      </trkpt>
      <trkpt lat="48.53343" lon="7.42445">
        <ele>201.4</ele>
        <time>2016-06-03T08:15:00Z</time>
      </trkpt>
      <trkpt lat="48.53345" lon="7.42474">
        <ele>201.2</ele>
        <time>2016-06-03T08:15:05Z</time>
      </trkpt>
      <trkpt lat="48.53347" lon="7.42503">
        <ele>201</ele>
        <time>2016-06-03T08:15:10Z</time>
      </trkpt>
      <trkpt lat="48.53345" lon="7.42531">
        <ele>200.8</ele>
        <time>2016-06-03T08:15:17Z</time>
      </trkpt>
      <trkpt lat="48.53335" lon="7.42532">
        <ele>201</ele>
        <time>2016-06-03T08:15:23Z</time>
      </trkpt>
      <trkpt lat="48.53325" lon="7.42546">
        <ele>201.1</ele>
        <time>2016-06-03T08:15:36Z</time>
      </trkpt>
      <trkpt lat="48.53323" lon="7.42573">
        <ele>200.6</ele>
        <time>2016-06-03T08:15:43Z</time>
      </trkpt>
      <trkpt lat="48.53322" lon="7.42601">
        <ele>200.1</ele>
        <time>2016-06-03T08:15:47Z</time>
      </trkpt>
      <trkpt lat="48.53321" lon="7.4263">
        <ele>199.6</ele>
        <time>2016-06-03T08:15:51Z</time>
      </trkpt>
      <trkpt lat="48.5332" lon="7.42661">
        <ele>199.7</ele>
        <time>2016-06-03T08:15:55Z</time>
      </trkpt>
      <trkpt lat="48.5332" lon="7.42693">
        <ele>199.7</ele>
        <time>2016-06-03T08:15:59Z</time>
      </trkpt>
      <trkpt lat="48.53319" lon="7.42723">
        <ele>199.4</ele>
        <time>2016-06-03T08:16:03Z</time>
      </trkpt>
      <trkpt lat="48.53318" lon="7.42751">
        <ele>199</ele>
        <time>2016-06-03T08:16:08Z</time>
      </trkpt>
      <trkpt lat="48.53318" lon="7.42784">
        <ele>198.5</ele>
        <time>2016-06-03T08:16:14Z</time>
      </trkpt>
      <trkpt lat="48.53317" lon="7.42813">
        <ele>198.6</ele>
        <time>2016-06-03T08:16:19Z</time>
      </trkpt>
      <trkpt lat="48.53318" lon="7.42843">
        <ele>199</ele>
        <time>2016-06-03T08:16:24Z</time>
      </trkpt>
      <trkpt lat="48.53317" lon="7.42875">
        <ele>199.3</ele>
        <time>2016-06-03T08:16:31Z</time>
      </trkpt>
      <trkpt lat="48.53317" lon="7.42902">
        <ele>199.8</ele>
        <time>2016-06-03T08:16:38Z</time>
      </trkpt>
      <trkpt lat="48.53316" lon="7.4293">
        <ele>200.2</ele>
        <time>2016-06-03T08:16:47Z</time>
      </trkpt>
      <trkpt lat="48.53314" lon="7.42959">
        <ele>200.7</ele>
        <time>2016-06-03T08:16:57Z</time>
      </trkpt>
      <trkpt lat="48.53314" lon="7.42962">
        <ele>200.7</ele>
        <time>2016-06-03T08:17:00Z</time>
      </trkpt>
      <trkpt lat="48.53322" lon="7.42981">
        <ele>200.6</ele>
        <time>2016-06-03T08:17:35Z</time>
      </trkpt>
      <trkpt lat="48.53343" lon="7.4299">
        <ele>200.4</ele>
        <time>2016-06-03T08:17:41Z</time>
      </trkpt>
      <trkpt lat="48.53364" lon="7.42999">
        <ele>200.1</ele>
        <time>2016-06-03T08:17:46Z</time>
      </trkpt>
      <trkpt lat="48.53385" lon="7.43011">
        <ele>200</ele>
        <time>2016-06-03T08:17:51Z</time>
      </trkpt>
      <trkpt lat="48.53406" lon="7.43022">
        <ele>199.9</ele>
        <time>2016-06-03T08:17:56Z</time>
      </trkpt>
      <trkpt lat="48.53425" lon="7.43034">
        <ele>199.9</ele>
        <time>2016-06-03T08:18:01Z</time>
      </trkpt>
      <trkpt lat="48.53445" lon="7.43048">
        <ele>200.1</ele>
        <time>2016-06-03T08:18:06Z</time>
      </trkpt>
      <trkpt lat="48.53447" lon="7.43052">
        <ele>200.1</ele>
        <time>2016-06-03T08:18:07Z</time>
      </trkpt>
      <trkpt lat="48.53441" lon="7.43081">
        <ele>200.5</ele>
        <time>2016-06-03T08:18:15Z</time>
      </trkpt>
      <trkpt lat="48.5344" lon="7.43087">
        <ele>200.5</ele>
        <time>2016-06-03T08:18:17Z</time>
      </trkpt>
      <trkpt lat="48.53431" lon="7.43114">
        <ele>200.9</ele>
        <time>2016-06-03T08:18:25Z</time>
      </trkpt>
      <trkpt lat="48.53427" lon="7.43134">
        <ele>200.8</ele>
        <time>2016-06-03T08:18:30Z</time>
      </trkpt>
      <trkpt lat="48.53426" lon="7.43163">
        <ele>200.1</ele>
        <time>2016-06-03T08:18:36Z</time>
      </trkpt>
      <trkpt lat="48.53421" lon="7.43187">
        <ele>199.5</ele>
        <time>2016-06-03T08:18:40Z</time>
      </trkpt>
      <trkpt lat="48.53417" lon="7.43214">
        <ele>199</ele>
        <time>2016-06-03T08:18:44Z</time>
      </trkpt>
      <trkpt lat="48.53412" lon="7.43241">
        <ele>199</ele>
        <time>2016-06-03T08:18:48Z</time>
      </trkpt>
      <trkpt lat="48.53406" lon="7.43272">
        <ele>199</ele>
        <time>2016-06-03T08:18:53Z</time>
      </trkpt>
      <trkpt lat="48.53405" lon="7.43279">
        <ele>199</ele>
        <time>2016-06-03T08:18:54Z</time>
      </trkpt>
      <trkpt lat="48.53401" lon="7.43309">
        <ele>198.9</ele>
        <time>2016-06-03T08:18:59Z</time>
      </trkpt>
      <trkpt lat="48.53398" lon="7.43339">
        <ele>198.8</ele>
        <time>2016-06-03T08:19:05Z</time>
      </trkpt>
      <trkpt lat="48.53394" lon="7.43367">
        <ele>198.8</ele>
        <time>2016-06-03T08:19:11Z</time>
      </trkpt>
      <trkpt lat="48.5339" lon="7.43398">
        <ele>198.5</ele>
        <time>2016-06-03T08:19:18Z</time>
      </trkpt>
      <trkpt lat="48.53387" lon="7.43429">
        <ele>198.2</ele>
        <time>2016-06-03T08:19:24Z</time>
      </trkpt>
      <trkpt lat="48.53384" lon="7.43459">
        <ele>197.9</ele>
        <time>2016-06-03T08:19:30Z</time>
      </trkpt>
      <trkpt lat="48.53376" lon="7.43483">
        <ele>198.6</ele>
        <time>2016-06-03T08:19:41Z</time>
      </trkpt>
      <trkpt lat="48.53375" lon="7.43489">
        <ele>198.8</ele>
        <time>2016-06-03T08:19:44Z</time>
      </trkpt>
      <trkpt lat="48.5338" lon="7.43482">
        <ele>198.5</ele>
        <time>2016-06-03T08:19:51Z</time>
      </trkpt>
      <trkpt lat="48.53383" lon="7.43452">
        <ele>198</ele>
        <time>2016-06-03T08:20:00Z</time>
      </trkpt>
      <trkpt lat="48.53384" lon="7.43421">
        <ele>198.3</ele>
        <time>2016-06-03T08:20:07Z</time>
      </trkpt>
      <trkpt lat="48.53387" lon="7.4339">
        <ele>198.7</ele>
        <time>2016-06-03T08:20:13Z</time>
      </trkpt>
      <trkpt lat="48.53389" lon="7.4336">
        <ele>198.9</ele>
        <time>2016-06-03T08:20:18Z</time>
      </trkpt>
      <trkpt lat="48.53392" lon="7.43334">
        <ele>198.9</ele>
        <time>2016-06-03T08:20:23Z</time>
      </trkpt>
      <trkpt lat="48.53396" lon="7.43303">
        <ele>199</ele>
        <time>2016-06-03T08:20:29Z</time>
      </trkpt>
      <trkpt lat="48.53403" lon="7.43273">
        <ele>199</ele>
        <time>2016-06-03T08:20:35Z</time>
      </trkpt>
      <trkpt lat="48.53407" lon="7.43246">
        <ele>199</ele>
        <time>2016-06-03T08:20:41Z</time>
      </trkpt>
      <trkpt lat="48.53415" lon="7.43216">
        <ele>199</ele>
        <time>2016-06-03T08:20:47Z</time>
      </trkpt>
      <trkpt lat="48.53421" lon="7.43187">
        <ele>199.5</ele>
        <time>2016-06-03T08:20:53Z</time>
      </trkpt>
      <trkpt lat="48.53428" lon="7.43161">
        <ele>200.1</ele>
        <time>2016-06-03T08:21:03Z</time>
      </trkpt>
      <trkpt lat="48.53431" lon="7.43153">
        <ele>200.3</ele>
        <time>2016-06-03T08:21:08Z</time>
      </trkpt>
      <trkpt lat="48.53431" lon="7.4315">
        <ele>200.4</ele>
        <time>2016-06-03T08:21:10Z</time>
      </trkpt>
      <trkpt lat="48.53429" lon="7.43147">
        <ele>200.5</ele>
        <time>2016-06-03T08:21:12Z</time>
      </trkpt>
      <trkpt lat="48.53414" lon="7.43165">
        <ele>200</ele>
        <time>2016-06-03T08:21:23Z</time>
      </trkpt>
      <trkpt lat="48.53412" lon="7.43168">
        <ele>200</ele>
        <time>2016-06-03T08:21:24Z</time>
      </trkpt>
      <trkpt lat="48.53395" lon="7.43188">
        <ele>199.5</ele>
        <time>2016-06-03T08:21:30Z</time>
      </trkpt>
      <trkpt lat="48.53377" lon="7.43204">
        <ele>199.1</ele>
        <time>2016-06-03T08:21:35Z</time>
      </trkpt>
      <trkpt lat="48.53373" lon="7.43206">
        <ele>199</ele>
        <time>2016-06-03T08:21:36Z</time>
      </trkpt>
      <trkpt lat="48.53362" lon="7.4322">
        <ele>199</ele>
        <time>2016-06-03T08:21:40Z</time>
      </trkpt>
      <trkpt lat="48.5335" lon="7.43241">
        <ele>199.1</ele>
        <time>2016-06-03T08:21:46Z</time>
      </trkpt>
      <trkpt lat="48.53337" lon="7.43261">
        <ele>199.3</ele>
        <time>2016-06-03T08:21:56Z</time>
      </trkpt>
      <trkpt lat="48.53335" lon="7.43264">
        <ele>199.3</ele>
        <time>2016-06-03T08:22:00Z</time>
      </trkpt>
      <trkpt lat="48.53339" lon="7.43269">
        <ele>199.3</ele>
        <time>2016-06-03T08:23:59Z</time>
      </trkpt>
      <trkpt lat="48.53349" lon="7.43269">
        <ele>199.2</ele>
        <time>2016-06-03T08:24:03Z</time>
      </trkpt>
      <trkpt lat="48.53369" lon="7.4327">
        <ele>199.1</ele>
        <time>2016-06-03T08:24:10Z</time>
      </trkpt>
      <trkpt lat="48.53389" lon="7.4327">
        <ele>199</ele>
        <time>2016-06-03T08:24:16Z</time>
      </trkpt>
      <trkpt lat="48.53396" lon="7.43268">
        <ele>199</ele>
        <time>2016-06-03T08:24:19Z</time>
      </trkpt>
      <trkpt lat="48.534" lon="7.43258">
        <ele>199</ele>
        <time>2016-06-03T08:24:24Z</time>
      </trkpt>
      <trkpt lat="48.5341" lon="7.43232">
        <ele>199</ele>
        <time>2016-06-03T08:24:30Z</time>
      </trkpt>
      <trkpt lat="48.53418" lon="7.43203">
        <ele>199.1</ele>
        <time>2016-06-03T08:24:35Z</time>
      </trkpt>
      <trkpt lat="48.53426" lon="7.43175">
        <ele>199.8</ele>
        <time>2016-06-03T08:24:40Z</time>
      </trkpt>
      <trkpt lat="48.53429" lon="7.43145">
        <ele>200.5</ele>
        <time>2016-06-03T08:24:45Z</time>
      </trkpt>
      <trkpt lat="48.53437" lon="7.43116">
        <ele>200.9</ele>
        <time>2016-06-03T08:24:50Z</time>
      </trkpt>
      <trkpt lat="48.53444" lon="7.43086">
        <ele>200.5</ele>
        <time>2016-06-03T08:24:55Z</time>
      </trkpt>
      <trkpt lat="48.53453" lon="7.43062">
        <ele>200.2</ele>
        <time>2016-06-03T08:25:01Z</time>
      </trkpt>
      <trkpt lat="48.53464" lon="7.43063">
        <ele>200.2</ele>
        <time>2016-06-03T08:25:06Z</time>
      </trkpt>
      <trkpt lat="48.53481" lon="7.4307">
        <ele>199.9</ele>
        <time>2016-06-03T08:25:11Z</time>
      </trkpt>
      <trkpt lat="48.53499" lon="7.43079">
        <ele>199.5</ele>
        <time>2016-06-03T08:25:15Z</time>
      </trkpt>
      <trkpt lat="48.53516" lon="7.43092">
        <ele>199.1</ele>
        <time>2016-06-03T08:25:19Z</time>
      </trkpt>
      <trkpt lat="48.53532" lon="7.43112">
        <ele>198.5</ele>
        <time>2016-06-03T08:25:23Z</time>
      </trkpt>
      <trkpt lat="48.53549" lon="7.4313">
        <ele>198</ele>
        <time>2016-06-03T08:25:27Z</time>
      </trkpt>
      <trkpt lat="48.53559" lon="7.43139">
        <ele>197.9</ele>
        <time>2016-06-03T08:25:29Z</time>
      </trkpt>
      <trkpt lat="48.53572" lon="7.43167">
        <ele>197.4</ele>
        <time>2016-06-03T08:25:33Z</time>
      </trkpt>
      <trkpt lat="48.5358" lon="7.432">
        <ele>196.7</ele>
        <time>2016-06-03T08:25:37Z</time>
      </trkpt>
      <trkpt lat="48.53586" lon="7.43234">
        <ele>196.3</ele>
        <time>2016-06-03T08:25:41Z</time>
      </trkpt>
      <trkpt lat="48.53587" lon="7.43241">
        <ele>196.2</ele>
        <time>2016-06-03T08:25:42Z</time>
      </trkpt>
      <trkpt lat="48.536" lon="7.43265">
        <ele>195.7</ele>
        <time>2016-06-03T08:25:46Z</time>
      </trkpt>
      <trkpt lat="48.53617" lon="7.43286">
        <ele>195.2</ele>
        <time>2016-06-03T08:25:50Z</time>
      </trkpt>
      <trkpt lat="48.53632" lon="7.43306">
        <ele>194.9</ele>
        <time>2016-06-03T08:25:54Z</time>
      </trkpt>
      <trkpt lat="48.53635" lon="7.43309">
        <ele>194.9</ele>
        <time>2016-06-03T08:25:55Z</time>
      </trkpt>
      <trkpt lat="48.53649" lon="7.43326">
        <ele>194.7</ele>
        <time>2016-06-03T08:26:00Z</time>
      </trkpt>
      <trkpt lat="48.53661" lon="7.43349">
        <ele>194.6</ele>
        <time>2016-06-03T08:26:05Z</time>
      </trkpt>
      <trkpt lat="48.53673" lon="7.43371">
        <ele>194.4</ele>
        <time>2016-06-03T08:26:09Z</time>
      </trkpt>
      <trkpt lat="48.53687" lon="7.43396">
        <ele>194.3</ele>
        <time>2016-06-03T08:26:13Z</time>
      </trkpt>
      <trkpt lat="48.53701" lon="7.43423">
        <ele>194.1</ele>
        <time>2016-06-03T08:26:17Z</time>
      </trkpt>
      <trkpt lat="48.53714" lon="7.4345">
        <ele>194.1</ele>
        <time>2016-06-03T08:26:21Z</time>
      </trkpt>
      <trkpt lat="48.53724" lon="7.43474">
        <ele>194</ele>
        <time>2016-06-03T08:26:25Z</time>
      </trkpt>
      <trkpt lat="48.53729" lon="7.43502">
        <ele>193.9</ele>
        <time>2016-06-03T08:26:32Z</time>
      </trkpt>
      <trkpt lat="48.53734" lon="7.43519">
        <ele>193.8</ele>
        <time>2016-06-03T08:26:39Z</time>
      </trkpt>
      <trkpt lat="48.53743" lon="7.4353">
        <ele>193.9</ele>
        <time>2016-06-03T08:26:45Z</time>
      </trkpt>
      <trkpt lat="48.53751" lon="7.43556">
        <ele>194.3</ele>
        <time>2016-06-03T08:26:51Z</time>
      </trkpt>
      <trkpt lat="48.53759" lon="7.43585">
        <ele>194.9</ele>
        <time>2016-06-03T08:26:57Z</time>
      </trkpt>
      <trkpt lat="48.53759" lon="7.43612">
        <ele>195.4</ele>
        <time>2016-06-03T08:27:05Z</time>
      </trkpt>
      <trkpt lat="48.53765" lon="7.43634">
        <ele>195.8</ele>
        <time>2016-06-03T08:27:11Z</time>
      </trkpt>
      <trkpt lat="48.53766" lon="7.43657">
        <ele>196.1</ele>
        <time>2016-06-03T08:27:15Z</time>
      </trkpt>
      <trkpt lat="48.53763" lon="7.4369">
        <ele>196.4</ele>
        <time>2016-06-03T08:27:20Z</time>
      </trkpt>
      <trkpt lat="48.53758" lon="7.43721">
        <ele>196.1</ele>
        <time>2016-06-03T08:27:25Z</time>
      </trkpt>
      <trkpt lat="48.53751" lon="7.43737">
        <ele>195.3</ele>
        <time>2016-06-03T08:27:28Z</time>
      </trkpt>
      <trkpt lat="48.53734" lon="7.4375">
        <ele>194.3</ele>
        <time>2016-06-03T08:27:34Z</time>
      </trkpt>
      <trkpt lat="48.53722" lon="7.4373">
        <ele>195</ele>
        <time>2016-06-03T08:27:43Z</time>
      </trkpt>
      <trkpt lat="48.53733" lon="7.43712">
        <ele>196.1</ele>
        <time>2016-06-03T08:27:52Z</time>
      </trkpt>
      <trkpt lat="48.5374" lon="7.43713">
        <ele>196.2</ele>
        <time>2016-06-03T08:27:56Z</time>
      </trkpt>
      <trkpt lat="48.53758" lon="7.43729">
        <ele>195.8</ele>
        <time>2016-06-03T08:28:05Z</time>
      </trkpt>
      <trkpt lat="48.53775" lon="7.43749">
        <ele>195.5</ele>
        <time>2016-06-03T08:28:11Z</time>
      </trkpt>
      <trkpt lat="48.53791" lon="7.43769">
        <ele>195.5</ele>
        <time>2016-06-03T08:28:16Z</time>
      </trkpt>
      <trkpt lat="48.53807" lon="7.43789">
        <ele>195.1</ele>
        <time>2016-06-03T08:28:21Z</time>
      </trkpt>
      <trkpt lat="48.5381" lon="7.43797">
        <ele>194.9</ele>
        <time>2016-06-03T08:28:23Z</time>
      </trkpt>
      <trkpt lat="48.53812" lon="7.43815">
        <ele>194.4</ele>
        <time>2016-06-03T08:28:27Z</time>
      </trkpt>
      <trkpt lat="48.53828" lon="7.4383">
        <ele>194.1</ele>
        <time>2016-06-03T08:28:35Z</time>
      </trkpt>
      <trkpt lat="48.53816" lon="7.43842">
        <ele>193.8</ele>
        <time>2016-06-03T08:28:43Z</time>
      </trkpt>
      <trkpt lat="48.5381" lon="7.43842">
        <ele>193.8</ele>
        <time>2016-06-03T08:28:45Z</time>
      </trkpt>
      <trkpt lat="48.53793" lon="7.43847">
        <ele>193.7</ele>
        <time>2016-06-03T08:28:50Z</time>
      </trkpt>
      <trkpt lat="48.53776" lon="7.43859">
        <ele>192.9</ele>
        <time>2016-06-03T08:28:54Z</time>
      </trkpt>
      <trkpt lat="48.53766" lon="7.43873">
        <ele>192.4</ele>
        <time>2016-06-03T08:28:57Z</time>
      </trkpt>
      <trkpt lat="48.53757" lon="7.43898">
        <ele>192.1</ele>
        <time>2016-06-03T08:29:01Z</time>
      </trkpt>
      <trkpt lat="48.53757" lon="7.43905">
        <ele>192.1</ele>
        <time>2016-06-03T08:29:02Z</time>
      </trkpt>
      <trkpt lat="48.53761" lon="7.43931">
        <ele>192.1</ele>
        <time>2016-06-03T08:29:06Z</time>
      </trkpt>
      <trkpt lat="48.53762" lon="7.43958">
        <ele>192</ele>
        <time>2016-06-03T08:29:10Z</time>
      </trkpt>
      <trkpt lat="48.53764" lon="7.43986">
        <ele>192</ele>
        <time>2016-06-03T08:29:14Z</time>
      </trkpt>
      <trkpt lat="48.53768" lon="7.44017">
        <ele>192</ele>
        <time>2016-06-03T08:29:18Z</time>
      </trkpt>
      <trkpt lat="48.53772" lon="7.44047">
        <ele>192</ele>
        <time>2016-06-03T08:29:22Z</time>
      </trkpt>
      <trkpt lat="48.53776" lon="7.44079">
        <ele>192</ele>
        <time>2016-06-03T08:29:26Z</time>
      </trkpt>
      <trkpt lat="48.5378" lon="7.44112">
        <ele>192</ele>
        <time>2016-06-03T08:29:30Z</time>
      </trkpt>
      <trkpt lat="48.53784" lon="7.44145">
        <ele>192.4</ele>
        <time>2016-06-03T08:29:34Z</time>
      </trkpt>
      <trkpt lat="48.53788" lon="7.44178">
        <ele>193.2</ele>
        <time>2016-06-03T08:29:38Z</time>
      </trkpt>
      <trkpt lat="48.53791" lon="7.44212">
        <ele>194</ele>
        <time>2016-06-03T08:29:42Z</time>
      </trkpt>
      <trkpt lat="48.53792" lon="7.44245">
        <ele>193.6</ele>
        <time>2016-06-03T08:29:46Z</time>
      </trkpt>
      <trkpt lat="48.53793" lon="7.4428">
        <ele>193.2</ele>
        <time>2016-06-03T08:29:50Z</time>
      </trkpt>
      <trkpt lat="48.53795" lon="7.44315">
        <ele>192.5</ele>
        <time>2016-06-03T08:29:54Z</time>
      </trkpt>
      <trkpt lat="48.53798" lon="7.44351">
        <ele>191.7</ele>
        <time>2016-06-03T08:29:58Z</time>
      </trkpt>
      <trkpt lat="48.53802" lon="7.44385">
        <ele>191.1</ele>
        <time>2016-06-03T08:30:02Z</time>
      </trkpt>
      <trkpt lat="48.53808" lon="7.44418">
        <ele>191.1</ele>
        <time>2016-06-03T08:30:06Z</time>
      </trkpt>
      <trkpt lat="48.53814" lon="7.44446">
        <ele>191</ele>
        <time>2016-06-03T08:30:10Z</time>
      </trkpt>
      <trkpt lat="48.53818" lon="7.44478">
        <ele>191.2</ele>
        <time>2016-06-03T08:30:15Z</time>
      </trkpt>
      <trkpt lat="48.53811" lon="7.44505">
        <ele>191.6</ele>
        <time>2016-06-03T08:30:20Z</time>
      </trkpt>
      <trkpt lat="48.53809" lon="7.4451">
        <ele>191.6</ele>
        <time>2016-06-03T08:30:21Z</time>
      </trkpt>
      <trkpt lat="48.53806" lon="7.44537">
        <ele>191.9</ele>
        <time>2016-06-03T08:30:25Z</time>
      </trkpt>
      <trkpt lat="48.53806" lon="7.44565">
        <ele>191.5</ele>
        <time>2016-06-03T08:30:29Z</time>
      </trkpt>
      <trkpt lat="48.53807" lon="7.44594">
        <ele>191</ele>
        <time>2016-06-03T08:30:33Z</time>
      </trkpt>
      <trkpt lat="48.53809" lon="7.44624">
        <ele>190.4</ele>
        <time>2016-06-03T08:30:37Z</time>
      </trkpt>
      <trkpt lat="48.53812" lon="7.44651">
        <ele>190.3</ele>
        <time>2016-06-03T08:30:41Z</time>
      </trkpt>
      <trkpt lat="48.53815" lon="7.4468">
        <ele>190.2</ele>
        <time>2016-06-03T08:30:48Z</time>
      </trkpt>
      <trkpt lat="48.53801" lon="7.44697">
        <ele>190</ele>
        <time>2016-06-03T08:30:56Z</time>
      </trkpt>
      <trkpt lat="48.53781" lon="7.44699">
        <ele>189.9</ele>
        <time>2016-06-03T08:31:01Z</time>
      </trkpt>
      <trkpt lat="48.53763" lon="7.447">
        <ele>189.7</ele>
        <time>2016-06-03T08:31:05Z</time>
      </trkpt>
      <trkpt lat="48.53742" lon="7.44703">
        <ele>189.5</ele>
        <time>2016-06-03T08:31:10Z</time>
      </trkpt>
      <trkpt lat="48.53721" lon="7.44709">
        <ele>189.2</ele>
        <time>2016-06-03T08:31:15Z</time>
      </trkpt>
      <trkpt lat="48.53705" lon="7.44724">
        <ele>189.3</ele>
        <time>2016-06-03T08:31:22Z</time>
      </trkpt>
      <trkpt lat="48.53684" lon="7.44726">
        <ele>189.2</ele>
        <time>2016-06-03T08:31:29Z</time>
      </trkpt>
      <trkpt lat="48.53679" lon="7.44732">
        <ele>189.3</ele>
        <time>2016-06-03T08:31:31Z</time>
      </trkpt>
      <trkpt lat="48.53674" lon="7.44755">
        <ele>189.9</ele>
        <time>2016-06-03T08:31:36Z</time>
      </trkpt>
      <trkpt lat="48.53671" lon="7.44765">
        <ele>190.2</ele>
        <time>2016-06-03T08:31:38Z</time>
      </trkpt>
      <trkpt lat="48.53671" lon="7.44798">
        <ele>191.1</ele>
        <time>2016-06-03T08:31:43Z</time>
      </trkpt>
      <trkpt lat="48.5367" lon="7.44828">
        <ele>191.4</ele>
        <time>2016-06-03T08:31:47Z</time>
      </trkpt>
      <trkpt lat="48.5367" lon="7.4486">
        <ele>191.8</ele>
        <time>2016-06-03T08:31:51Z</time>
      </trkpt>
      <trkpt lat="48.5367" lon="7.44892">
        <ele>191.6</ele>
        <time>2016-06-03T08:31:55Z</time>
      </trkpt>
      <trkpt lat="48.53672" lon="7.44922">
        <ele>190.8</ele>
        <time>2016-06-03T08:31:59Z</time>
      </trkpt>
      <trkpt lat="48.53673" lon="7.44952">
        <ele>190</ele>
        <time>2016-06-03T08:32:03Z</time>
      </trkpt>
      <trkpt lat="48.53675" lon="7.44979">
        <ele>189.7</ele>
        <time>2016-06-03T08:32:07Z</time>
      </trkpt>
      <trkpt lat="48.53679" lon="7.4501">
        <ele>189.5</ele>
        <time>2016-06-03T08:32:12Z</time>
      </trkpt>
      <trkpt lat="48.53683" lon="7.45041">
        <ele>189.2</ele>
        <time>2016-06-03T08:32:18Z</time>
      </trkpt>
      <trkpt lat="48.53684" lon="7.45059">
        <ele>189.5</ele>
        <time>2016-06-03T08:32:21Z</time>
      </trkpt>
      <trkpt lat="48.53675" lon="7.45085">
        <ele>190.4</ele>
        <time>2016-06-03T08:32:26Z</time>
      </trkpt>
      <trkpt lat="48.53662" lon="7.45091">
        <ele>191.1</ele>
        <time>2016-06-03T08:32:29Z</time>
      </trkpt>
      <trkpt lat="48.5364" lon="7.45096">
        <ele>192</ele>
        <time>2016-06-03T08:32:34Z</time>
      </trkpt>
      <trkpt lat="48.53636" lon="7.45096">
        <ele>192.2</ele>
        <time>2016-06-03T08:32:35Z</time>
      </trkpt>
      <trkpt lat="48.53617" lon="7.45094">
        <ele>192.3</ele>
        <time>2016-06-03T08:32:39Z</time>
      </trkpt>
      <trkpt lat="48.53612" lon="7.45094">
        <ele>192</ele>
        <time>2016-06-03T08:32:40Z</time>
      </trkpt>
      <trkpt lat="48.53596" lon="7.45104">
        <ele>191.3</ele>
        <time>2016-06-03T08:32:44Z</time>
      </trkpt>
      <trkpt lat="48.53588" lon="7.45132">
        <ele>190.7</ele>
        <time>2016-06-03T08:32:49Z</time>
      </trkpt>
      <trkpt lat="48.53588" lon="7.45144">
        <ele>190.7</ele>
        <time>2016-06-03T08:32:51Z</time>
      </trkpt>
      <trkpt lat="48.53588" lon="7.45172">
        <ele>190.5</ele>
        <time>2016-06-03T08:32:58Z</time>
      </trkpt>
      <trkpt lat="48.53589" lon="7.452">
        <ele>190.3</ele>
        <time>2016-06-03T08:33:05Z</time>
      </trkpt>
      <trkpt lat="48.53589" lon="7.45233">
        <ele>190.3</ele>
        <time>2016-06-03T08:33:10Z</time>
      </trkpt>
      <trkpt lat="48.5359" lon="7.45265">
        <ele>190.4</ele>
        <time>2016-06-03T08:33:15Z</time>
      </trkpt>
      <trkpt lat="48.53593" lon="7.45291">
        <ele>190.4</ele>
        <time>2016-06-03T08:33:26Z</time>
      </trkpt>
      <trkpt lat="48.53599" lon="7.45317">
        <ele>190.4</ele>
        <time>2016-06-03T08:33:42Z</time>
      </trkpt>
      <trkpt lat="48.53617" lon="7.45314">
        <ele>190.1</ele>
        <time>2016-06-03T08:33:51Z</time>
      </trkpt>
      <trkpt lat="48.53635" lon="7.45307">
        <ele>190.2</ele>
        <time>2016-06-03T08:33:58Z</time>
      </trkpt>
      <trkpt lat="48.53655" lon="7.45301">
        <ele>190.6</ele>
        <time>2016-06-03T08:34:05Z</time>
      </trkpt>
      <trkpt lat="48.53675" lon="7.45294">
        <ele>191.2</ele>
        <time>2016-06-03T08:34:13Z</time>
      </trkpt>
      <trkpt lat="48.53684" lon="7.45293">
        <ele>191.4</ele>
        <time>2016-06-03T08:34:17Z</time>
      </trkpt>
      <trkpt lat="48.53696" lon="7.45315">
        <ele>191.2</ele>
        <time>2016-06-03T08:34:22Z</time>
      </trkpt>
      <trkpt lat="48.537" lon="7.45326">
        <ele>191.1</ele>
        <time>2016-06-03T08:34:24Z</time>
      </trkpt>
      <trkpt lat="48.53713" lon="7.45348">
        <ele>190.8</ele>
        <time>2016-06-03T08:34:29Z</time>
      </trkpt>
      <trkpt lat="48.53728" lon="7.4537">
        <ele>190.8</ele>
        <time>2016-06-03T08:34:34Z</time>
      </trkpt>
      <trkpt lat="48.53744" lon="7.4539">
        <ele>191.1</ele>
        <time>2016-06-03T08:34:41Z</time>
      </trkpt>
      <trkpt lat="48.53755" lon="7.45413">
        <ele>191.2</ele>
        <time>2016-06-03T08:34:49Z</time>
      </trkpt>
      <trkpt lat="48.53768" lon="7.45432">
        <ele>191.4</ele>
        <time>2016-06-03T08:34:54Z</time>
      </trkpt>
      <trkpt lat="48.53781" lon="7.45457">
        <ele>191.6</ele>
        <time>2016-06-03T08:35:00Z</time>
      </trkpt>
      <trkpt lat="48.53793" lon="7.45479">
        <ele>191.8</ele>
        <time>2016-06-03T08:35:05Z</time>
      </trkpt>
      <trkpt lat="48.53804" lon="7.45503">
        <ele>191.8</ele>
        <time>2016-06-03T08:35:10Z</time>
      </trkpt>
      <trkpt lat="48.53816" lon="7.45526">
        <ele>192</ele>
        <time>2016-06-03T08:35:15Z</time>
      </trkpt>
      <trkpt lat="48.53822" lon="7.45531">
        <ele>192.2</ele>
        <time>2016-06-03T08:35:17Z</time>
      </trkpt>
      <trkpt lat="48.53838" lon="7.45537">
        <ele>192.7</ele>
        <time>2016-06-03T08:35:27Z</time>
      </trkpt>
      <trkpt lat="48.53845" lon="7.45544">
        <ele>192.9</ele>
        <time>2016-06-03T08:35:37Z</time>
      </trkpt>
      <trkpt lat="48.53848" lon="7.45562">
        <ele>192.6</ele>
        <time>2016-06-03T08:35:45Z</time>
      </trkpt>
      <trkpt lat="48.53851" lon="7.45571">
        <ele>192.5</ele>
        <time>2016-06-03T08:35:49Z</time>
      </trkpt>
      <trkpt lat="48.53855" lon="7.45587">
        <ele>192.3</ele>
        <time>2016-06-03T08:35:57Z</time>
      </trkpt>
      <trkpt lat="48.53857" lon="7.45595">
        <ele>192.2</ele>
        <time>2016-06-03T08:36:01Z</time>
      </trkpt>
      <trkpt lat="48.53859" lon="7.45624">
        <ele>191.6</ele>
        <time>2016-06-03T08:36:10Z</time>
      </trkpt>
      <trkpt lat="48.53855" lon="7.45652">
        <ele>191.8</ele>
        <time>2016-06-03T08:36:15Z</time>
      </trkpt>
      <trkpt lat="48.53851" lon="7.45681">
        <ele>191.9</ele>
        <time>2016-06-03T08:36:20Z</time>
      </trkpt>
      <trkpt lat="48.53848" lon="7.45693">
        <ele>191.9</ele>
        <time>2016-06-03T08:36:22Z</time>
      </trkpt>
      <trkpt lat="48.5384" lon="7.45724">
        <ele>191.8</ele>
        <time>2016-06-03T08:36:27Z</time>
      </trkpt>
      <trkpt lat="48.53831" lon="7.45752">
        <ele>191.4</ele>
        <time>2016-06-03T08:36:32Z</time>
      </trkpt>
      <trkpt lat="48.5382" lon="7.4578">
        <ele>191</ele>
        <time>2016-06-03T08:36:37Z</time>
      </trkpt>
      <trkpt lat="48.53814" lon="7.45809">
        <ele>190.8</ele>
        <time>2016-06-03T08:36:42Z</time>
      </trkpt>
      <trkpt lat="48.53804" lon="7.45833">
        <ele>190.4</ele>
        <time>2016-06-03T08:36:47Z</time>
      </trkpt>
      <trkpt lat="48.53793" lon="7.45853">
        <ele>190</ele>
        <time>2016-06-03T08:36:53Z</time>
      </trkpt>
      <trkpt lat="48.53792" lon="7.45883">
        <ele>189.9</ele>
        <time>2016-06-03T08:37:00Z</time>
      </trkpt>
      <trkpt lat="48.53793" lon="7.45916">
        <ele>189.5</ele>
        <time>2016-06-03T08:37:06Z</time>
      </trkpt>
      <trkpt lat="48.53793" lon="7.45945">
        <ele>189.2</ele>
        <time>2016-06-03T08:37:11Z</time>
      </trkpt>
      <trkpt lat="48.53792" lon="7.45973">
        <ele>189</ele>
        <time>2016-06-03T08:37:16Z</time>
      </trkpt>
      <trkpt lat="48.53795" lon="7.46001">
        <ele>189</ele>
        <time>2016-06-03T08:37:21Z</time>
      </trkpt>
      <trkpt lat="48.53802" lon="7.46031">
        <ele>189</ele>
        <time>2016-06-03T08:37:26Z</time>
      </trkpt>
      <trkpt lat="48.53807" lon="7.46059">
        <ele>188.7</ele>
        <time>2016-06-03T08:37:31Z</time>
      </trkpt>
      <trkpt lat="48.53813" lon="7.46089">
        <ele>188.2</ele>
        <time>2016-06-03T08:37:36Z</time>
      </trkpt>
      <trkpt lat="48.53817" lon="7.46118">
        <ele>187.7</ele>
        <time>2016-06-03T08:37:41Z</time>
      </trkpt>
      <trkpt lat="48.53821" lon="7.46143">
        <ele>187.7</ele>
        <time>2016-06-03T08:37:45Z</time>
      </trkpt>
      <trkpt lat="48.53828" lon="7.46173">
        <ele>187.9</ele>
        <time>2016-06-03T08:37:50Z</time>
      </trkpt>
      <trkpt lat="48.53836" lon="7.46202">
        <ele>188.1</ele>
        <time>2016-06-03T08:37:55Z</time>
      </trkpt>
      <trkpt lat="48.53844" lon="7.46231">
        <ele>187.9</ele>
        <time>2016-06-03T08:38:00Z</time>
      </trkpt>
      <trkpt lat="48.53853" lon="7.46259">
        <ele>187.6</ele>
        <time>2016-06-03T08:38:06Z</time>
      </trkpt>
      <trkpt lat="48.53862" lon="7.46285">
        <ele>187.1</ele>
        <time>2016-06-03T08:38:14Z</time>
      </trkpt>
      <trkpt lat="48.53871" lon="7.46312">
        <ele>187.5</ele>
        <time>2016-06-03T08:38:20Z</time>
      </trkpt>
      <trkpt lat="48.5388" lon="7.46337">
        <ele>188.6</ele>
        <time>2016-06-03T08:38:24Z</time>
      </trkpt>
      <trkpt lat="48.53888" lon="7.46365">
        <ele>190.2</ele>
        <time>2016-06-03T08:38:28Z</time>
      </trkpt>
      <trkpt lat="48.53888" lon="7.46372">
        <ele>190.5</ele>
        <time>2016-06-03T08:38:29Z</time>
      </trkpt>
      <trkpt lat="48.53889" lon="7.464">
        <ele>190.9</ele>
        <time>2016-06-03T08:38:33Z</time>
      </trkpt>
      <trkpt lat="48.53889" lon="7.46427">
        <ele>191.2</ele>
        <time>2016-06-03T08:38:38Z</time>
      </trkpt>
      <trkpt lat="48.53888" lon="7.46455">
        <ele>191.3</ele>
        <time>2016-06-03T08:38:46Z</time>
      </trkpt>
      <trkpt lat="48.53885" lon="7.46484">
        <ele>190.8</ele>
        <time>2016-06-03T08:38:56Z</time>
      </trkpt>
      <trkpt lat="48.53886" lon="7.46514">
        <ele>190.6</ele>
        <time>2016-06-03T08:39:03Z</time>
      </trkpt>
      <trkpt lat="48.53886" lon="7.46546">
        <ele>190.3</ele>
        <time>2016-06-03T08:39:09Z</time>
      </trkpt>
      <trkpt lat="48.53883" lon="7.46577">
        <ele>189.8</ele>
        <time>2016-06-03T08:39:14Z</time>
      </trkpt>
      <trkpt lat="48.53881" lon="7.4661">
        <ele>189.5</ele>
        <time>2016-06-03T08:39:19Z</time>
      </trkpt>
      <trkpt lat="48.53879" lon="7.46639">
        <ele>189.3</ele>
        <time>2016-06-03T08:39:23Z</time>
      </trkpt>
      <trkpt lat="48.53875" lon="7.46669">
        <ele>189</ele>
        <time>2016-06-03T08:39:27Z</time>
      </trkpt>
      <trkpt lat="48.5387" lon="7.46701">
        <ele>188.7</ele>
        <time>2016-06-03T08:39:32Z</time>
      </trkpt>
      <trkpt lat="48.53865" lon="7.46731">
        <ele>188.4</ele>
        <time>2016-06-03T08:39:36Z</time>
      </trkpt>
      <trkpt lat="48.53859" lon="7.46757">
        <ele>188.2</ele>
        <time>2016-06-03T08:39:40Z</time>
      </trkpt>
      <trkpt lat="48.53854" lon="7.46783">
        <ele>187.9</ele>
        <time>2016-06-03T08:39:44Z</time>
      </trkpt>
      <trkpt lat="48.53851" lon="7.46811">
        <ele>187.6</ele>
        <time>2016-06-03T08:39:48Z</time>
      </trkpt>
      <trkpt lat="48.53849" lon="7.46839">
        <ele>187.2</ele>
        <time>2016-06-03T08:39:51Z</time>
      </trkpt>
      <trkpt lat="48.53845" lon="7.46869">
        <ele>186.6</ele>
        <time>2016-06-03T08:39:54Z</time>
      </trkpt>
      <trkpt lat="48.53844" lon="7.46898">
        <ele>186.4</ele>
        <time>2016-06-03T08:39:57Z</time>
      </trkpt>
      <trkpt lat="48.53844" lon="7.46932">
        <ele>186.3</ele>
        <time>2016-06-03T08:40:01Z</time>
      </trkpt>
      <trkpt lat="48.53845" lon="7.46966">
        <ele>186.2</ele>
        <time>2016-06-03T08:40:05Z</time>
      </trkpt>
      <trkpt lat="48.53846" lon="7.46999">
        <ele>185.8</ele>
        <time>2016-06-03T08:40:09Z</time>
      </trkpt>
      <trkpt lat="48.53846" lon="7.47031">
        <ele>185.4</ele>
        <time>2016-06-03T08:40:13Z</time>
      </trkpt>
      <trkpt lat="48.53847" lon="7.4706">
        <ele>185.2</ele>
        <time>2016-06-03T08:40:17Z</time>
      </trkpt>
      <trkpt lat="48.53848" lon="7.47089">
        <ele>185</ele>
        <time>2016-06-03T08:40:21Z</time>
      </trkpt>
      <trkpt lat="48.53849" lon="7.47118">
        <ele>184.7</ele>
        <time>2016-06-03T08:40:25Z</time>
      </trkpt>
      <trkpt lat="48.5385" lon="7.47149">
        <ele>184.7</ele>
        <time>2016-06-03T08:40:29Z</time>
      </trkpt>
      <trkpt lat="48.53851" lon="7.4718">
        <ele>184.8</ele>
        <time>2016-06-03T08:40:33Z</time>
      </trkpt>
      <trkpt lat="48.53851" lon="7.47211">
        <ele>184.8</ele>
        <time>2016-06-03T08:40:37Z</time>
      </trkpt>
      <trkpt lat="48.53852" lon="7.47242">
        <ele>184.1</ele>
        <time>2016-06-03T08:40:41Z</time>
      </trkpt>
      <trkpt lat="48.53852" lon="7.47274">
        <ele>183.4</ele>
        <time>2016-06-03T08:40:45Z</time>
      </trkpt>
      <trkpt lat="48.53852" lon="7.47308">
        <ele>182.8</ele>
        <time>2016-06-03T08:40:49Z</time>
      </trkpt>
      <trkpt lat="48.53853" lon="7.4734">
        <ele>182.4</ele>
        <time>2016-06-03T08:40:53Z</time>
      </trkpt>
      <trkpt lat="48.53852" lon="7.4737">
        <ele>182.1</ele>
        <time>2016-06-03T08:40:57Z</time>
      </trkpt>
      <trkpt lat="48.53849" lon="7.474">
        <ele>182.4</ele>
        <time>2016-06-03T08:41:01Z</time>
      </trkpt>
      <trkpt lat="48.53844" lon="7.4743">
        <ele>182.8</ele>
        <time>2016-06-03T08:41:05Z</time>
      </trkpt>
      <trkpt lat="48.53837" lon="7.47459">
        <ele>183.1</ele>
        <time>2016-06-03T08:41:09Z</time>
      </trkpt>
      <trkpt lat="48.53829" lon="7.47487">
        <ele>183.5</ele>
        <time>2016-06-03T08:41:13Z</time>
      </trkpt>
      <trkpt lat="48.53821" lon="7.47516">
        <ele>183.7</ele>
        <time>2016-06-03T08:41:17Z</time>
      </trkpt>
      <trkpt lat="48.53813" lon="7.47544">
        <ele>183.6</ele>
        <time>2016-06-03T08:41:21Z</time>
      </trkpt>
      <trkpt lat="48.53806" lon="7.47572">
        <ele>183.3</ele>
        <time>2016-06-03T08:41:25Z</time>
      </trkpt>
      <trkpt lat="48.53799" lon="7.47599">
        <ele>182.8</ele>
        <time>2016-06-03T08:41:29Z</time>
      </trkpt>
      <trkpt lat="48.53792" lon="7.47627">
        <ele>182.1</ele>
        <time>2016-06-03T08:41:33Z</time>
      </trkpt>
      <trkpt lat="48.53785" lon="7.47655">
        <ele>182.7</ele>
        <time>2016-06-03T08:41:37Z</time>
      </trkpt>
      <trkpt lat="48.53779" lon="7.47685">
        <ele>183.4</ele>
        <time>2016-06-03T08:41:41Z</time>
      </trkpt>
      <trkpt lat="48.53773" lon="7.47713">
        <ele>184.1</ele>
        <time>2016-06-03T08:41:45Z</time>
      </trkpt>
      <trkpt lat="48.53764" lon="7.4774">
        <ele>185.2</ele>
        <time>2016-06-03T08:41:49Z</time>
      </trkpt>
      <trkpt lat="48.53753" lon="7.47766">
        <ele>185.8</ele>
        <time>2016-06-03T08:41:53Z</time>
      </trkpt>
      <trkpt lat="48.53745" lon="7.47786">
        <ele>185.9</ele>
        <time>2016-06-03T08:41:56Z</time>
      </trkpt>
      <trkpt lat="48.53735" lon="7.47812">
        <ele>186.3</ele>
        <time>2016-06-03T08:42:00Z</time>
      </trkpt>
      <trkpt lat="48.53724" lon="7.47838">
        <ele>186.2</ele>
        <time>2016-06-03T08:42:04Z</time>
      </trkpt>
      <trkpt lat="48.53713" lon="7.47864">
        <ele>185.5</ele>
        <time>2016-06-03T08:42:08Z</time>
      </trkpt>
      <trkpt lat="48.53702" lon="7.47888">
        <ele>185.3</ele>
        <time>2016-06-03T08:42:12Z</time>
      </trkpt>
      <trkpt lat="48.5369" lon="7.47914">
        <ele>185.8</ele>
        <time>2016-06-03T08:42:16Z</time>
      </trkpt>
      <trkpt lat="48.53679" lon="7.47938">
        <ele>185.7</ele>
        <time>2016-06-03T08:42:20Z</time>
      </trkpt>
      <trkpt lat="48.53668" lon="7.4796">
        <ele>185.3</ele>
        <time>2016-06-03T08:42:24Z</time>
      </trkpt>
      <trkpt lat="48.53656" lon="7.47989">
        <ele>184.5</ele>
        <time>2016-06-03T08:42:29Z</time>
      </trkpt>
      <trkpt lat="48.53645" lon="7.48013">
        <ele>183.9</ele>
        <time>2016-06-03T08:42:33Z</time>
      </trkpt>
      <trkpt lat="48.5364" lon="7.48026">
        <ele>183.6</ele>
        <time>2016-06-03T08:42:35Z</time>
      </trkpt>
      <trkpt lat="48.53631" lon="7.48051">
        <ele>183.3</ele>
        <time>2016-06-03T08:42:39Z</time>
      </trkpt>
      <trkpt lat="48.53622" lon="7.48076">
        <ele>183.5</ele>
        <time>2016-06-03T08:42:43Z</time>
      </trkpt>
      <trkpt lat="48.53614" lon="7.48107">
        <ele>184.4</ele>
        <time>2016-06-03T08:42:48Z</time>
      </trkpt>
      <trkpt lat="48.53608" lon="7.48137">
        <ele>184.9</ele>
        <time>2016-06-03T08:42:53Z</time>
      </trkpt>
      <trkpt lat="48.53604" lon="7.48167">
        <ele>185</ele>
        <time>2016-06-03T08:42:58Z</time>
      </trkpt>
      <trkpt lat="48.53596" lon="7.48197">
        <ele>184.7</ele>
        <time>2016-06-03T08:43:03Z</time>
      </trkpt>
      <trkpt lat="48.53588" lon="7.48226">
        <ele>184.8</ele>
        <time>2016-06-03T08:43:07Z</time>
      </trkpt>
      <trkpt lat="48.53583" lon="7.48258">
        <ele>185.2</ele>
        <time>2016-06-03T08:43:11Z</time>
      </trkpt>
      <trkpt lat="48.5358" lon="7.48288">
        <ele>185.7</ele>
        <time>2016-06-03T08:43:15Z</time>
      </trkpt>
      <trkpt lat="48.53576" lon="7.48315">
        <ele>185.6</ele>
        <time>2016-06-03T08:43:19Z</time>
      </trkpt>
      <trkpt lat="48.53571" lon="7.48342">
        <ele>185.2</ele>
        <time>2016-06-03T08:43:23Z</time>
      </trkpt>
      <trkpt lat="48.53568" lon="7.48372">
        <ele>184.9</ele>
        <time>2016-06-03T08:43:28Z</time>
      </trkpt>
      <trkpt lat="48.5357" lon="7.48402">
        <ele>184.4</ele>
        <time>2016-06-03T08:43:33Z</time>
      </trkpt>
      <trkpt lat="48.53571" lon="7.48431">
        <ele>183.7</ele>
        <time>2016-06-03T08:43:38Z</time>
      </trkpt>
      <trkpt lat="48.53567" lon="7.48462">
        <ele>182.9</ele>
        <time>2016-06-03T08:43:43Z</time>
      </trkpt>
      <trkpt lat="48.53567" lon="7.48477">
        <ele>182.9</ele>
        <time>2016-06-03T08:43:45Z</time>
      </trkpt>
      <trkpt lat="48.53572" lon="7.48506">
        <ele>183</ele>
        <time>2016-06-03T08:43:49Z</time>
      </trkpt>
      <trkpt lat="48.53577" lon="7.48534">
        <ele>183</ele>
        <time>2016-06-03T08:43:53Z</time>
      </trkpt>
      <trkpt lat="48.53583" lon="7.4856">
        <ele>182.8</ele>
        <time>2016-06-03T08:43:57Z</time>
      </trkpt>
      <trkpt lat="48.53588" lon="7.48587">
        <ele>182.3</ele>
        <time>2016-06-03T08:44:01Z</time>
      </trkpt>
      <trkpt lat="48.53589" lon="7.48621">
        <ele>181.8</ele>
        <time>2016-06-03T08:44:06Z</time>
      </trkpt>
      <trkpt lat="48.5359" lon="7.48654">
        <ele>181.2</ele>
        <time>2016-06-03T08:44:11Z</time>
      </trkpt>
      <trkpt lat="48.53586" lon="7.48687">
        <ele>180.8</ele>
        <time>2016-06-03T08:44:16Z</time>
      </trkpt>
      <trkpt lat="48.53586" lon="7.487">
        <ele>180.6</ele>
        <time>2016-06-03T08:44:18Z</time>
      </trkpt>
      <trkpt lat="48.5359" lon="7.48727">
        <ele>180.3</ele>
        <time>2016-06-03T08:44:22Z</time>
      </trkpt>
      <trkpt lat="48.53597" lon="7.48757">
        <ele>180.2</ele>
        <time>2016-06-03T08:44:26Z</time>
      </trkpt>
      <trkpt lat="48.53602" lon="7.48789">
        <ele>180.3</ele>
        <time>2016-06-03T08:44:30Z</time>
      </trkpt>
      <trkpt lat="48.53608" lon="7.48818">
        <ele>181.3</ele>
        <time>2016-06-03T08:44:34Z</time>
      </trkpt>
      <trkpt lat="48.53614" lon="7.48847">
        <ele>182.5</ele>
        <time>2016-06-03T08:44:38Z</time>
      </trkpt>
      <trkpt lat="48.53617" lon="7.48861">
        <ele>183.2</ele>
        <time>2016-06-03T08:44:40Z</time>
      </trkpt>
      <trkpt lat="48.53622" lon="7.48888">
        <ele>183.9</ele>
        <time>2016-06-03T08:44:44Z</time>
      </trkpt>
      <trkpt lat="48.53628" lon="7.48917">
        <ele>183.9</ele>
        <time>2016-06-03T08:44:48Z</time>
      </trkpt>
      <trkpt lat="48.53633" lon="7.48946">
        <ele>183.7</ele>
        <time>2016-06-03T08:44:52Z</time>
      </trkpt>
      <trkpt lat="48.53636" lon="7.48974">
        <ele>182.9</ele>
        <time>2016-06-03T08:44:57Z</time>
      </trkpt>
      <trkpt lat="48.53641" lon="7.49004">
        <ele>181.7</ele>
        <time>2016-06-03T08:45:03Z</time>
      </trkpt>
      <trkpt lat="48.53646" lon="7.49033">
        <ele>180.6</ele>
        <time>2016-06-03T08:45:10Z</time>
      </trkpt>
      <trkpt lat="48.53651" lon="7.49061">
        <ele>180.3</ele>
        <time>2016-06-03T08:45:16Z</time>
      </trkpt>
      <trkpt lat="48.53656" lon="7.49089">
        <ele>180.4</ele>
        <time>2016-06-03T08:45:22Z</time>
      </trkpt>
      <trkpt lat="48.53659" lon="7.49109">
        <ele>180.4</ele>
        <time>2016-06-03T08:45:29Z</time>
      </trkpt>
      <trkpt lat="48.53641" lon="7.49119">
        <ele>180.2</ele>
        <time>2016-06-03T08:45:41Z</time>
      </trkpt>
      <trkpt lat="48.53622" lon="7.49122">
        <ele>180</ele>
        <time>2016-06-03T08:45:53Z</time>
      </trkpt>
      <trkpt lat="48.53603" lon="7.49121">
        <ele>179.7</ele>
        <time>2016-06-03T08:46:01Z</time>
      </trkpt>
      <trkpt lat="48.53583" lon="7.49125">
        <ele>179.5</ele>
        <time>2016-06-03T08:46:07Z</time>
      </trkpt>
      <trkpt lat="48.53565" lon="7.49125">
        <ele>179.3</ele>
        <time>2016-06-03T08:46:12Z</time>
      </trkpt>
      <trkpt lat="48.53545" lon="7.49122">
        <ele>179</ele>
        <time>2016-06-03T08:46:17Z</time>
      </trkpt>
      <trkpt lat="48.53523" lon="7.49119">
        <ele>179</ele>
        <time>2016-06-03T08:46:22Z</time>
      </trkpt>
      <trkpt lat="48.53504" lon="7.49118">
        <ele>179</ele>
        <time>2016-06-03T08:46:26Z</time>
      </trkpt>
      <trkpt lat="48.53495" lon="7.49118">
        <ele>179</ele>
        <time>2016-06-03T08:46:28Z</time>
      </trkpt>
      <trkpt lat="48.53475" lon="7.49115">
        <ele>178.9</ele>
        <time>2016-06-03T08:46:32Z</time>
      </trkpt>
      <trkpt lat="48.53455" lon="7.49114">
        <ele>178.8</ele>
        <time>2016-06-03T08:46:36Z</time>
      </trkpt>
      <trkpt lat="48.53436" lon="7.49116">
        <ele>178.2</ele>
        <time>2016-06-03T08:46:40Z</time>
      </trkpt>
      <trkpt lat="48.53416" lon="7.49115">
        <ele>177.5</ele>
        <time>2016-06-03T08:46:45Z</time>
      </trkpt>
      <trkpt lat="48.53397" lon="7.49116">
        <ele>176.9</ele>
        <time>2016-06-03T08:46:51Z</time>
      </trkpt>
      <trkpt lat="48.53376" lon="7.49123">
        <ele>176.1</ele>
        <time>2016-06-03T08:46:57Z</time>
      </trkpt>
      <trkpt lat="48.53372" lon="7.49125">
        <ele>176.1</ele>
        <time>2016-06-03T08:46:58Z</time>
      </trkpt>
      <trkpt lat="48.53351" lon="7.49133">
        <ele>177</ele>
        <time>2016-06-03T08:47:03Z</time>
      </trkpt>
      <trkpt lat="48.53333" lon="7.49139">
        <ele>177.8</ele>
        <time>2016-06-03T08:47:08Z</time>
      </trkpt>
      <trkpt lat="48.53315" lon="7.49145">
        <ele>178.6</ele>
        <time>2016-06-03T08:47:14Z</time>
      </trkpt>
      <trkpt lat="48.53297" lon="7.49142">
        <ele>179.2</ele>
        <time>2016-06-03T08:47:22Z</time>
      </trkpt>
      <trkpt lat="48.53294" lon="7.49137">
        <ele>179.2</ele>
        <time>2016-06-03T08:47:24Z</time>
      </trkpt>
      <trkpt lat="48.5329" lon="7.49115">
        <ele>179</ele>
        <time>2016-06-03T08:47:28Z</time>
      </trkpt>
      <trkpt lat="48.53286" lon="7.49085">
        <ele>179</ele>
        <time>2016-06-03T08:47:34Z</time>
      </trkpt>
      <trkpt lat="48.53282" lon="7.49056">
        <ele>178.9</ele>
        <time>2016-06-03T08:47:41Z</time>
      </trkpt>
      <trkpt lat="48.53265" lon="7.49037">
        <ele>178.7</ele>
        <time>2016-06-03T08:47:47Z</time>
      </trkpt>
      <trkpt lat="48.53246" lon="7.49026">
        <ele>178.6</ele>
        <time>2016-06-03T08:47:52Z</time>
      </trkpt>
      <trkpt lat="48.53227" lon="7.49014">
        <ele>178.5</ele>
        <time>2016-06-03T08:47:57Z</time>
      </trkpt>
      <trkpt lat="48.53214" lon="7.49006">
        <ele>178.5</ele>
        <time>2016-06-03T08:48:00Z</time>
      </trkpt>
      <trkpt lat="48.53197" lon="7.48994">
        <ele>178.4</ele>
        <time>2016-06-03T08:48:04Z</time>
      </trkpt>
      <trkpt lat="48.5318" lon="7.48984">
        <ele>178.3</ele>
        <time>2016-06-03T08:48:08Z</time>
      </trkpt>
      <trkpt lat="48.53161" lon="7.48973">
        <ele>178.3</ele>
        <time>2016-06-03T08:48:12Z</time>
      </trkpt>
      <trkpt lat="48.53142" lon="7.48959">
        <ele>178.2</ele>
        <time>2016-06-03T08:48:17Z</time>
      </trkpt>
      <trkpt lat="48.53125" lon="7.48947">
        <ele>178.3</ele>
        <time>2016-06-03T08:48:22Z</time>
      </trkpt>
      <trkpt lat="48.53106" lon="7.48936">
        <ele>178.8</ele>
        <time>2016-06-03T08:48:27Z</time>
      </trkpt>
      <trkpt lat="48.53089" lon="7.48924">
        <ele>179.2</ele>
        <time>2016-06-03T08:48:32Z</time>
      </trkpt>
      <trkpt lat="48.53072" lon="7.48912">
        <ele>179.3</ele>
        <time>2016-06-03T08:48:37Z</time>
      </trkpt>
      <trkpt lat="48.53053" lon="7.48902">
        <ele>179.3</ele>
        <time>2016-06-03T08:48:43Z</time>
      </trkpt>
      <trkpt lat="48.53035" lon="7.48892">
        <ele>179.1</ele>
        <time>2016-06-03T08:48:53Z</time>
      </trkpt>
      <trkpt lat="48.53017" lon="7.48878">
        <ele>178.7</ele>
        <time>2016-06-03T08:49:00Z</time>
      </trkpt>
      <trkpt lat="48.53001" lon="7.48866">
        <ele>178.5</ele>
        <time>2016-06-03T08:49:06Z</time>
      </trkpt>
      <trkpt lat="48.52984" lon="7.48856">
        <ele>178.4</ele>
        <time>2016-06-03T08:49:13Z</time>
      </trkpt>
      <trkpt lat="48.52965" lon="7.48845">
        <ele>178.4</ele>
        <time>2016-06-03T08:49:19Z</time>
      </trkpt>
      <trkpt lat="48.52948" lon="7.48834">
        <ele>178.4</ele>
        <time>2016-06-03T08:49:24Z</time>
      </trkpt>
      <trkpt lat="48.52928" lon="7.48822">
        <ele>178.4</ele>
        <time>2016-06-03T08:49:30Z</time>
      </trkpt>
      <trkpt lat="48.52909" lon="7.4881">
        <ele>178.3</ele>
        <time>2016-06-03T08:49:36Z</time>
      </trkpt>
      <trkpt lat="48.52891" lon="7.48798">
        <ele>178.2</ele>
        <time>2016-06-03T08:49:41Z</time>
      </trkpt>
      <trkpt lat="48.52871" lon="7.48785">
        <ele>178</ele>
        <time>2016-06-03T08:49:46Z</time>
      </trkpt>
      <trkpt lat="48.52854" lon="7.48773">
        <ele>178.2</ele>
        <time>2016-06-03T08:49:50Z</time>
      </trkpt>
      <trkpt lat="48.52835" lon="7.4876">
        <ele>178.5</ele>
        <time>2016-06-03T08:49:55Z</time>
      </trkpt>
      <trkpt lat="48.52815" lon="7.48749">
        <ele>178.7</ele>
        <time>2016-06-03T08:50:00Z</time>
      </trkpt>
      <trkpt lat="48.52796" lon="7.48738">
        <ele>178.9</ele>
        <time>2016-06-03T08:50:05Z</time>
      </trkpt>
      <trkpt lat="48.52777" lon="7.48732">
        <ele>179.4</ele>
        <time>2016-06-03T08:50:10Z</time>
      </trkpt>
      <trkpt lat="48.52756" lon="7.48733">
        <ele>180</ele>
        <time>2016-06-03T08:50:15Z</time>
      </trkpt>
      <trkpt lat="48.52735" lon="7.48735">
        <ele>180.6</ele>
        <time>2016-06-03T08:50:20Z</time>
      </trkpt>
      <trkpt lat="48.52715" lon="7.48735">
        <ele>181.1</ele>
        <time>2016-06-03T08:50:26Z</time>
      </trkpt>
      <trkpt lat="48.52703" lon="7.48735">
        <ele>181.3</ele>
        <time>2016-06-03T08:50:33Z</time>
      </trkpt>
      <trkpt lat="48.52702" lon="7.4875">
        <ele>181.5</ele>
        <time>2016-06-03T08:50:38Z</time>
      </trkpt>
      <trkpt lat="48.52702" lon="7.4878">
        <ele>181.9</ele>
        <time>2016-06-03T08:50:43Z</time>
      </trkpt>
      <trkpt lat="48.52701" lon="7.48813">
        <ele>181.5</ele>
        <time>2016-06-03T08:50:48Z</time>
      </trkpt>
      <trkpt lat="48.52701" lon="7.48842">
        <ele>180.8</ele>
        <time>2016-06-03T08:50:52Z</time>
      </trkpt>
      <trkpt lat="48.52701" lon="7.48856">
        <ele>180.5</ele>
        <time>2016-06-03T08:50:54Z</time>
      </trkpt>
      <trkpt lat="48.52698" lon="7.48887">
        <ele>180.1</ele>
        <time>2016-06-03T08:50:59Z</time>
      </trkpt>
      <trkpt lat="48.5269" lon="7.48914">
        <ele>180.2</ele>
        <time>2016-06-03T08:51:04Z</time>
      </trkpt>
      <trkpt lat="48.52688" lon="7.48919">
        <ele>180.2</ele>
        <time>2016-06-03T08:51:05Z</time>
      </trkpt>
      <trkpt lat="48.52676" lon="7.48945">
        <ele>180.4</ele>
        <time>2016-06-03T08:51:10Z</time>
      </trkpt>
      <trkpt lat="48.52665" lon="7.48968">
        <ele>180.6</ele>
        <time>2016-06-03T08:51:14Z</time>
      </trkpt>
      <trkpt lat="48.52654" lon="7.4899">
        <ele>180.9</ele>
        <time>2016-06-03T08:51:18Z</time>
      </trkpt>
      <trkpt lat="48.52641" lon="7.49011">
        <ele>181.3</ele>
        <time>2016-06-03T08:51:22Z</time>
      </trkpt>
      <trkpt lat="48.52628" lon="7.49036">
        <ele>181.9</ele>
        <time>2016-06-03T08:51:27Z</time>
      </trkpt>
      <trkpt lat="48.52613" lon="7.49061">
        <ele>181.9</ele>
        <time>2016-06-03T08:51:32Z</time>
      </trkpt>
      <trkpt lat="48.52601" lon="7.49081">
        <ele>181.7</ele>
        <time>2016-06-03T08:51:36Z</time>
      </trkpt>
      <trkpt lat="48.52587" lon="7.491">
        <ele>181.4</ele>
        <time>2016-06-03T08:51:40Z</time>
      </trkpt>
      <trkpt lat="48.52571" lon="7.49114">
        <ele>181.2</ele>
        <time>2016-06-03T08:51:45Z</time>
      </trkpt>
      <trkpt lat="48.52552" lon="7.49113">
        <ele>181.3</ele>
        <time>2016-06-03T08:51:50Z</time>
      </trkpt>
      <trkpt lat="48.52532" lon="7.49114">
        <ele>181.5</ele>
        <time>2016-06-03T08:51:55Z</time>
      </trkpt>
      <trkpt lat="48.52512" lon="7.49112">
        <ele>182</ele>
        <time>2016-06-03T08:52:00Z</time>
      </trkpt>
      <trkpt lat="48.52492" lon="7.49111">
        <ele>182.4</ele>
        <time>2016-06-03T08:52:06Z</time>
      </trkpt>
      <trkpt lat="48.52472" lon="7.49114">
        <ele>182.8</ele>
        <time>2016-06-03T08:52:13Z</time>
      </trkpt>
      <trkpt lat="48.52454" lon="7.49118">
        <ele>183</ele>
        <time>2016-06-03T08:52:24Z</time>
      </trkpt>
      <trkpt lat="48.52449" lon="7.49117">
        <ele>182.9</ele>
        <time>2016-06-03T08:52:30Z</time>
      </trkpt>
      <trkpt lat="48.52442" lon="7.49119">
        <ele>182.7</ele>
        <time>2016-06-03T08:53:12Z</time>
      </trkpt>
      <trkpt lat="48.52438" lon="7.4913">
        <ele>182.4</ele>
        <time>2016-06-03T08:53:18Z</time>
      </trkpt>
      <trkpt lat="48.52439" lon="7.49161">
        <ele>181.5</ele>
        <time>2016-06-03T08:53:25Z</time>
      </trkpt>
      <trkpt lat="48.52437" lon="7.49192">
        <ele>180.7</ele>
        <time>2016-06-03T08:53:31Z</time>
      </trkpt>
      <trkpt lat="48.52435" lon="7.4922">
        <ele>180.1</ele>
        <time>2016-06-03T08:53:36Z</time>
      </trkpt>
      <trkpt lat="48.52434" lon="7.49248">
        <ele>179.8</ele>
        <time>2016-06-03T08:53:41Z</time>
      </trkpt>
      <trkpt lat="48.52431" lon="7.49275">
        <ele>179.5</ele>
        <time>2016-06-03T08:53:46Z</time>
      </trkpt>
      <trkpt lat="48.52428" lon="7.49303">
        <ele>179.5</ele>
        <time>2016-06-03T08:53:52Z</time>
      </trkpt>
      <trkpt lat="48.52425" lon="7.4933">
        <ele>179.9</ele>
        <time>2016-06-03T08:53:58Z</time>
      </trkpt>
      <trkpt lat="48.5243" lon="7.49345">
        <ele>180.2</ele>
        <time>2016-06-03T08:54:02Z</time>
      </trkpt>
      <trkpt lat="48.52447" lon="7.49355">
        <ele>180.4</ele>
        <time>2016-06-03T08:54:08Z</time>
      </trkpt>
      <trkpt lat="48.5245" lon="7.49371">
        <ele>180.8</ele>
        <time>2016-06-03T08:54:11Z</time>
      </trkpt>
      <trkpt lat="48.52452" lon="7.49402">
        <ele>180.9</ele>
        <time>2016-06-03T08:54:16Z</time>
      </trkpt>
      <trkpt lat="48.52454" lon="7.4943">
        <ele>180.9</ele>
        <time>2016-06-03T08:54:20Z</time>
      </trkpt>
      <trkpt lat="48.52455" lon="7.49457">
        <ele>181</ele>
        <time>2016-06-03T08:54:24Z</time>
      </trkpt>
      <trkpt lat="48.52455" lon="7.4949">
        <ele>180.2</ele>
        <time>2016-06-03T08:54:29Z</time>
      </trkpt>
      <trkpt lat="48.52455" lon="7.49524">
        <ele>179.5</ele>
        <time>2016-06-03T08:54:34Z</time>
      </trkpt>
      <trkpt lat="48.52454" lon="7.49554">
        <ele>178.9</ele>
        <time>2016-06-03T08:54:38Z</time>
      </trkpt>
      <trkpt lat="48.52453" lon="7.49584">
        <ele>178.6</ele>
        <time>2016-06-03T08:54:42Z</time>
      </trkpt>
      <trkpt lat="48.52452" lon="7.49615">
        <ele>178.2</ele>
        <time>2016-06-03T08:54:46Z</time>
      </trkpt>
      <trkpt lat="48.52453" lon="7.49647">
        <ele>178</ele>
        <time>2016-06-03T08:54:50Z</time>
      </trkpt>
      <trkpt lat="48.52453" lon="7.49678">
        <ele>178</ele>
        <time>2016-06-03T08:54:54Z</time>
      </trkpt>
      <trkpt lat="48.52454" lon="7.49708">
        <ele>178</ele>
        <time>2016-06-03T08:54:58Z</time>
      </trkpt>
      <trkpt lat="48.52457" lon="7.49735">
        <ele>178.3</ele>
        <time>2016-06-03T08:55:02Z</time>
      </trkpt>
      <trkpt lat="48.52459" lon="7.49764">
        <ele>178.7</ele>
        <time>2016-06-03T08:55:07Z</time>
      </trkpt>
      <trkpt lat="48.52462" lon="7.49793">
        <ele>179</ele>
        <time>2016-06-03T08:55:15Z</time>
      </trkpt>
      <trkpt lat="48.52464" lon="7.49799">
        <ele>178.8</ele>
        <time>2016-06-03T08:55:21Z</time>
      </trkpt>
      <trkpt lat="48.52467" lon="7.4981">
        <ele>178.5</ele>
        <time>2016-06-03T08:55:32Z</time>
      </trkpt>
      <trkpt lat="48.52473" lon="7.49818">
        <ele>178.3</ele>
        <time>2016-06-03T08:55:40Z</time>
      </trkpt>
      <trkpt lat="48.52479" lon="7.49819">
        <ele>178.3</ele>
        <time>2016-06-03T08:57:25Z</time>
      </trkpt>
      <trkpt lat="48.525" lon="7.4982">
        <ele>178.2</ele>
        <time>2016-06-03T08:57:35Z</time>
      </trkpt>
      <trkpt lat="48.52519" lon="7.49821">
        <ele>178</ele>
        <time>2016-06-03T08:57:40Z</time>
      </trkpt>
      <trkpt lat="48.52539" lon="7.49822">
        <ele>177.9</ele>
        <time>2016-06-03T08:57:45Z</time>
      </trkpt>
      <trkpt lat="48.52558" lon="7.49821">
        <ele>177.9</ele>
        <time>2016-06-03T08:57:51Z</time>
      </trkpt>
      <trkpt lat="48.52577" lon="7.49817">
        <ele>177.9</ele>
        <time>2016-06-03T08:57:58Z</time>
      </trkpt>
      <trkpt lat="48.52595" lon="7.49812">
        <ele>177.8</ele>
        <time>2016-06-03T08:58:07Z</time>
      </trkpt>
      <trkpt lat="48.52598" lon="7.49811">
        <ele>177.7</ele>
        <time>2016-06-03T08:58:11Z</time>
      </trkpt>
      <trkpt lat="48.52601" lon="7.49807">
        <ele>177.7</ele>
        <time>2016-06-03T08:59:21Z</time>
      </trkpt>
      <trkpt lat="48.52608" lon="7.49796">
        <ele>177.4</ele>
        <time>2016-06-03T08:59:27Z</time>
      </trkpt>
      <trkpt lat="48.52626" lon="7.49785">
        <ele>177.1</ele>
        <time>2016-06-03T08:59:36Z</time>
      </trkpt>
      <trkpt lat="48.52631" lon="7.4979">
        <ele>177.2</ele>
        <time>2016-06-03T08:59:39Z</time>
      </trkpt>
      <trkpt lat="48.52634" lon="7.49805">
        <ele>177.5</ele>
        <time>2016-06-03T08:59:43Z</time>
      </trkpt>
      <trkpt lat="48.52652" lon="7.49814">
        <ele>178</ele>
        <time>2016-06-03T08:59:49Z</time>
      </trkpt>
      <trkpt lat="48.52673" lon="7.49819">
        <ele>178.4</ele>
        <time>2016-06-03T08:59:55Z</time>
      </trkpt>
      <trkpt lat="48.52694" lon="7.49824">
        <ele>178.8</ele>
        <time>2016-06-03T09:00:01Z</time>
      </trkpt>
      <trkpt lat="48.52715" lon="7.49827">
        <ele>179</ele>
        <time>2016-06-03T09:00:07Z</time>
      </trkpt>
      <trkpt lat="48.52734" lon="7.49829">
        <ele>179</ele>
        <time>2016-06-03T09:00:12Z</time>
      </trkpt>
      <trkpt lat="48.52752" lon="7.49829">
        <ele>179</ele>
        <time>2016-06-03T09:00:18Z</time>
      </trkpt>
      <trkpt lat="48.52771" lon="7.4983">
        <ele>179</ele>
        <time>2016-06-03T09:00:25Z</time>
      </trkpt>
      <trkpt lat="48.52789" lon="7.49828">
        <ele>179</ele>
        <time>2016-06-03T09:00:32Z</time>
      </trkpt>
      <trkpt lat="48.5281" lon="7.49824">
        <ele>178.3</ele>
        <time>2016-06-03T09:00:38Z</time>
      </trkpt>
      <trkpt lat="48.52828" lon="7.49821">
        <ele>177.6</ele>
        <time>2016-06-03T09:00:44Z</time>
      </trkpt>
      <trkpt lat="48.52848" lon="7.49817">
        <ele>176.7</ele>
        <time>2016-06-03T09:00:51Z</time>
      </trkpt>
      <trkpt lat="48.52866" lon="7.49811">
        <ele>175.8</ele>
        <time>2016-06-03T09:00:58Z</time>
      </trkpt>
      <trkpt lat="48.52887" lon="7.49806">
        <ele>175.7</ele>
        <time>2016-06-03T09:01:04Z</time>
      </trkpt>
      <trkpt lat="48.52907" lon="7.498">
        <ele>176.3</ele>
        <time>2016-06-03T09:01:09Z</time>
      </trkpt>
      <trkpt lat="48.52916" lon="7.49798">
        <ele>176.6</ele>
        <time>2016-06-03T09:01:11Z</time>
      </trkpt>
      <trkpt lat="48.52935" lon="7.49794">
        <ele>177.2</ele>
        <time>2016-06-03T09:01:15Z</time>
      </trkpt>
      <trkpt lat="48.52956" lon="7.4979">
        <ele>177.9</ele>
        <time>2016-06-03T09:01:20Z</time>
      </trkpt>
      <trkpt lat="48.52976" lon="7.49786">
        <ele>178.6</ele>
        <time>2016-06-03T09:01:26Z</time>
      </trkpt>
      <trkpt lat="48.52996" lon="7.49778">
        <ele>179.1</ele>
        <time>2016-06-03T09:01:33Z</time>
      </trkpt>
      <trkpt lat="48.53017" lon="7.49778">
        <ele>179.8</ele>
        <time>2016-06-03T09:01:40Z</time>
      </trkpt>
      <trkpt lat="48.53034" lon="7.49772">
        <ele>180.3</ele>
        <time>2016-06-03T09:01:46Z</time>
      </trkpt>
      <trkpt lat="48.53051" lon="7.49759">
        <ele>180.1</ele>
        <time>2016-06-03T09:01:52Z</time>
      </trkpt>
      <trkpt lat="48.53066" lon="7.49742">
        <ele>179.8</ele>
        <time>2016-06-03T09:01:58Z</time>
      </trkpt>
      <trkpt lat="48.53083" lon="7.49729">
        <ele>179.9</ele>
        <time>2016-06-03T09:02:05Z</time>
      </trkpt>
      <trkpt lat="48.53104" lon="7.49729">
        <ele>180.1</ele>
        <time>2016-06-03T09:02:11Z</time>
      </trkpt>
      <trkpt lat="48.53123" lon="7.49732">
        <ele>180.1</ele>
        <time>2016-06-03T09:02:16Z</time>
      </trkpt>
      <trkpt lat="48.53142" lon="7.49737">
        <ele>179.6</ele>
        <time>2016-06-03T09:02:21Z</time>
      </trkpt>
      <trkpt lat="48.5316" lon="7.49742">
        <ele>179</ele>
        <time>2016-06-03T09:02:26Z</time>
      </trkpt>
      <trkpt lat="48.53178" lon="7.49748">
        <ele>178.6</ele>
        <time>2016-06-03T09:02:31Z</time>
      </trkpt>
      <trkpt lat="48.53197" lon="7.49756">
        <ele>178.2</ele>
        <time>2016-06-03T09:02:37Z</time>
      </trkpt>
      <trkpt lat="48.53219" lon="7.49761">
        <ele>177.7</ele>
        <time>2016-06-03T09:02:43Z</time>
      </trkpt>
      <trkpt lat="48.53239" lon="7.49766">
        <ele>177.1</ele>
        <time>2016-06-03T09:02:48Z</time>
      </trkpt>
      <trkpt lat="48.53258" lon="7.49769">
        <ele>176.6</ele>
        <time>2016-06-03T09:02:53Z</time>
      </trkpt>
      <trkpt lat="48.53277" lon="7.49774">
        <ele>176.2</ele>
        <time>2016-06-03T09:02:58Z</time>
      </trkpt>
      <trkpt lat="48.53297" lon="7.49777">
        <ele>175.8</ele>
        <time>2016-06-03T09:03:04Z</time>
      </trkpt>
      <trkpt lat="48.53319" lon="7.4978">
        <ele>175.9</ele>
        <time>2016-06-03T09:03:10Z</time>
      </trkpt>
      <trkpt lat="48.53341" lon="7.49781">
        <ele>175.9</ele>
        <time>2016-06-03T09:03:15Z</time>
      </trkpt>
      <trkpt lat="48.53363" lon="7.49781">
        <ele>176</ele>
        <time>2016-06-03T09:03:20Z</time>
      </trkpt>
      <trkpt lat="48.53383" lon="7.49781">
        <ele>176.1</ele>
        <time>2016-06-03T09:03:25Z</time>
      </trkpt>
      <trkpt lat="48.53402" lon="7.49782">
        <ele>176.2</ele>
        <time>2016-06-03T09:03:29Z</time>
      </trkpt>
      <trkpt lat="48.5341" lon="7.49785">
        <ele>176.4</ele>
        <time>2016-06-03T09:03:31Z</time>
      </trkpt>
      <trkpt lat="48.53426" lon="7.49788">
        <ele>176.6</ele>
        <time>2016-06-03T09:03:35Z</time>
      </trkpt>
      <trkpt lat="48.53447" lon="7.49792">
        <ele>176.9</ele>
        <time>2016-06-03T09:03:41Z</time>
      </trkpt>
      <trkpt lat="48.53465" lon="7.49797">
        <ele>177</ele>
        <time>2016-06-03T09:03:46Z</time>
      </trkpt>
      <trkpt lat="48.53484" lon="7.49809">
        <ele>177</ele>
        <time>2016-06-03T09:03:51Z</time>
      </trkpt>
      <trkpt lat="48.535" lon="7.49819">
        <ele>177</ele>
        <time>2016-06-03T09:03:55Z</time>
      </trkpt>
      <trkpt lat="48.53521" lon="7.49827">
        <ele>177</ele>
        <time>2016-06-03T09:04:00Z</time>
      </trkpt>
      <trkpt lat="48.5354" lon="7.4984">
        <ele>177</ele>
        <time>2016-06-03T09:04:05Z</time>
      </trkpt>
      <trkpt lat="48.53559" lon="7.49853">
        <ele>176.8</ele>
        <time>2016-06-03T09:04:10Z</time>
      </trkpt>
      <trkpt lat="48.53576" lon="7.49869">
        <ele>176.6</ele>
        <time>2016-06-03T09:04:15Z</time>
      </trkpt>
      <trkpt lat="48.53591" lon="7.49886">
        <ele>176.4</ele>
        <time>2016-06-03T09:04:19Z</time>
      </trkpt>
      <trkpt lat="48.53607" lon="7.49907">
        <ele>176.4</ele>
        <time>2016-06-03T09:04:23Z</time>
      </trkpt>
      <trkpt lat="48.53622" lon="7.49924">
        <ele>176.6</ele>
        <time>2016-06-03T09:04:27Z</time>
      </trkpt>
      <trkpt lat="48.53639" lon="7.49933">
        <ele>176.6</ele>
        <time>2016-06-03T09:04:36Z</time>
      </trkpt>
      <trkpt lat="48.53645" lon="7.49937">
        <ele>176.6</ele>
        <time>2016-06-03T09:04:44Z</time>
      </trkpt>
      <trkpt lat="48.53654" lon="7.49939">
        <ele>176.6</ele>
        <time>2016-06-03T09:05:08Z</time>
      </trkpt>
      <trkpt lat="48.53666" lon="7.49938">
        <ele>176.5</ele>
        <time>2016-06-03T09:05:13Z</time>
      </trkpt>
      <trkpt lat="48.53679" lon="7.49953">
        <ele>176.4</ele>
        <time>2016-06-03T09:05:21Z</time>
      </trkpt>
      <trkpt lat="48.53682" lon="7.49952">
        <ele>176.3</ele>
        <time>2016-06-03T09:05:22Z</time>
      </trkpt>
      <trkpt lat="48.53701" lon="7.49942">
        <ele>176.3</ele>
        <time>2016-06-03T09:05:28Z</time>
      </trkpt>
      <trkpt lat="48.53719" lon="7.49933">
        <ele>176.3</ele>
        <time>2016-06-03T09:05:33Z</time>
      </trkpt>
      <trkpt lat="48.53723" lon="7.4993">
        <ele>176.4</ele>
        <time>2016-06-03T09:05:34Z</time>
      </trkpt>
      <trkpt lat="48.53738" lon="7.49905">
        <ele>176.9</ele>
        <time>2016-06-03T09:05:39Z</time>
      </trkpt>
      <trkpt lat="48.53741" lon="7.499">
        <ele>177</ele>
        <time>2016-06-03T09:05:40Z</time>
      </trkpt>
      <trkpt lat="48.53756" lon="7.49881">
        <ele>177.5</ele>
        <time>2016-06-03T09:05:44Z</time>
      </trkpt>
      <trkpt lat="48.53771" lon="7.49859">
        <ele>177.9</ele>
        <time>2016-06-03T09:05:49Z</time>
      </trkpt>
      <trkpt lat="48.53783" lon="7.49837">
        <ele>178</ele>
        <time>2016-06-03T09:05:55Z</time>
      </trkpt>
      <trkpt lat="48.53797" lon="7.49817">
        <ele>177.8</ele>
        <time>2016-06-03T09:06:04Z</time>
      </trkpt>
      <trkpt lat="48.53811" lon="7.49797">
        <ele>177.3</ele>
        <time>2016-06-03T09:06:11Z</time>
      </trkpt>
      <trkpt lat="48.53827" lon="7.49783">
        <ele>176.8</ele>
        <time>2016-06-03T09:06:19Z</time>
      </trkpt>
      <trkpt lat="48.53844" lon="7.49768">
        <ele>176.3</ele>
        <time>2016-06-03T09:06:24Z</time>
      </trkpt>
      <trkpt lat="48.53859" lon="7.49747">
        <ele>176</ele>
        <time>2016-06-03T09:06:28Z</time>
      </trkpt>
      <trkpt lat="48.5387" lon="7.4972">
        <ele>176</ele>
        <time>2016-06-03T09:06:32Z</time>
      </trkpt>
      <trkpt lat="48.53877" lon="7.49692">
        <ele>176.2</ele>
        <time>2016-06-03T09:06:36Z</time>
      </trkpt>
      <trkpt lat="48.53884" lon="7.49664">
        <ele>176.6</ele>
        <time>2016-06-03T09:06:40Z</time>
      </trkpt>
      <trkpt lat="48.53892" lon="7.49635">
        <ele>176.9</ele>
        <time>2016-06-03T09:06:44Z</time>
      </trkpt>
      <trkpt lat="48.539" lon="7.49605">
        <ele>177.5</ele>
        <time>2016-06-03T09:06:48Z</time>
      </trkpt>
      <trkpt lat="48.53907" lon="7.49572">
        <ele>178.3</ele>
        <time>2016-06-03T09:06:52Z</time>
      </trkpt>
      <trkpt lat="48.53915" lon="7.49542">
        <ele>179</ele>
        <time>2016-06-03T09:06:56Z</time>
      </trkpt>
      <trkpt lat="48.53922" lon="7.49517">
        <ele>179.1</ele>
        <time>2016-06-03T09:07:00Z</time>
      </trkpt>
      <trkpt lat="48.53929" lon="7.4949">
        <ele>179.2</ele>
        <time>2016-06-03T09:07:05Z</time>
      </trkpt>
      <trkpt lat="48.53934" lon="7.49472">
        <ele>179.2</ele>
        <time>2016-06-03T09:07:08Z</time>
      </trkpt>
      <trkpt lat="48.53938" lon="7.49452">
        <ele>179.2</ele>
        <time>2016-06-03T09:07:11Z</time>
      </trkpt>
      <trkpt lat="48.53947" lon="7.49425">
        <ele>178.7</ele>
        <time>2016-06-03T09:07:15Z</time>
      </trkpt>
      <trkpt lat="48.53955" lon="7.49397">
        <ele>178.3</ele>
        <time>2016-06-03T09:07:19Z</time>
      </trkpt>
      <trkpt lat="48.53964" lon="7.49368">
        <ele>178.1</ele>
        <time>2016-06-03T09:07:23Z</time>
      </trkpt>
      <trkpt lat="48.53972" lon="7.4934">
        <ele>178.5</ele>
        <time>2016-06-03T09:07:27Z</time>
      </trkpt>
      <trkpt lat="48.53977" lon="7.49326">
        <ele>178.7</ele>
        <time>2016-06-03T09:07:29Z</time>
      </trkpt>
      <trkpt lat="48.53985" lon="7.49301">
        <ele>179.2</ele>
        <time>2016-06-03T09:07:33Z</time>
      </trkpt>
      <trkpt lat="48.53994" lon="7.49272">
        <ele>179.3</ele>
        <time>2016-06-03T09:07:38Z</time>
      </trkpt>
      <trkpt lat="48.54001" lon="7.49245">
        <ele>179.2</ele>
        <time>2016-06-03T09:07:45Z</time>
      </trkpt>
      <trkpt lat="48.54005" lon="7.49216">
        <ele>179.2</ele>
        <time>2016-06-03T09:08:00Z</time>
      </trkpt>
      <trkpt lat="48.54011" lon="7.49202">
        <ele>179.2</ele>
        <time>2016-06-03T09:08:07Z</time>
      </trkpt>
      <trkpt lat="48.54026" lon="7.4921">
        <ele>179.6</ele>
        <time>2016-06-03T09:08:14Z</time>
      </trkpt>
      <trkpt lat="48.54035" lon="7.49219">
        <ele>179.9</ele>
        <time>2016-06-03T09:08:18Z</time>
      </trkpt>
      <trkpt lat="48.54049" lon="7.49219">
        <ele>180.2</ele>
        <time>2016-06-03T09:08:27Z</time>
      </trkpt>
    </trkseg>
  </trk>
</gpx>